<?xml version="1.0" encoding="UTF-8" standalone="no" ?>
<gpx xmlns="http://www.topografix.com/GPX/1/1" xmlns:xsi="http://www.w3.org/2001/XMLSchema-instance" xsi:schemaLocation="http://www.topografix.com/GPX/1/1 http://www.topografix.com/GPX/1/1/gpx.xsd" version="1.1" creator="VisuGPX - https://www.visugpx.com">
  <metadata>
    <name>Col du sabot et Alpes d'Huez</name>
  </metadata>
  <trk>
    <name><![CDATA[Col du sabot et Alpes d'Huez]]></name>
    <trkseg>
      <trkpt lat="45.13403" lon="6.04915">
        <ele>788.6</ele>
        <time>2021-08-28T09:47:42Z</time>
      </trkpt>
      <trkpt lat="45.13436" lon="6.04923">
        <ele>789</ele>
        <time>2021-08-28T09:47:46Z</time>
      </trkpt>
      <trkpt lat="45.1347" lon="6.0493">
        <ele>789.2</ele>
        <time>2021-08-28T09:47:50Z</time>
      </trkpt>
      <trkpt lat="45.13504" lon="6.04938">
        <ele>789.2</ele>
        <time>2021-08-28T09:47:54Z</time>
      </trkpt>
      <trkpt lat="45.13537" lon="6.04945">
        <ele>789.6</ele>
        <time>2021-08-28T09:47:58Z</time>
      </trkpt>
      <trkpt lat="45.13571" lon="6.04951">
        <ele>789.6</ele>
        <time>2021-08-28T09:48:02Z</time>
      </trkpt>
      <trkpt lat="45.13604" lon="6.04956">
        <ele>790.4</ele>
        <time>2021-08-28T09:48:06Z</time>
      </trkpt>
      <trkpt lat="45.13636" lon="6.0495">
        <ele>790.2</ele>
        <time>2021-08-28T09:48:10Z</time>
      </trkpt>
      <trkpt lat="45.13666" lon="6.04933">
        <ele>791</ele>
        <time>2021-08-28T09:48:14Z</time>
      </trkpt>
      <trkpt lat="45.13694" lon="6.04909">
        <ele>790.6</ele>
        <time>2021-08-28T09:48:18Z</time>
      </trkpt>
      <trkpt lat="45.13722" lon="6.04888">
        <ele>790</ele>
        <time>2021-08-28T09:48:22Z</time>
      </trkpt>
      <trkpt lat="45.13754" lon="6.04869">
        <ele>789.6</ele>
        <time>2021-08-28T09:48:26Z</time>
      </trkpt>
      <trkpt lat="45.13791" lon="6.04856">
        <ele>788.4</ele>
        <time>2021-08-28T09:48:30Z</time>
      </trkpt>
      <trkpt lat="45.13831" lon="6.0486">
        <ele>787</ele>
        <time>2021-08-28T09:48:34Z</time>
      </trkpt>
      <trkpt lat="45.1387" lon="6.04878">
        <ele>786.6</ele>
        <time>2021-08-28T09:48:38Z</time>
      </trkpt>
      <trkpt lat="45.13903" lon="6.04893">
        <ele>786.2</ele>
        <time>2021-08-28T09:48:42Z</time>
      </trkpt>
      <trkpt lat="45.13941" lon="6.04904">
        <ele>786</ele>
        <time>2021-08-28T09:48:46Z</time>
      </trkpt>
      <trkpt lat="45.13979" lon="6.04905">
        <ele>785.6</ele>
        <time>2021-08-28T09:48:50Z</time>
      </trkpt>
      <trkpt lat="45.14016" lon="6.04903">
        <ele>785.2</ele>
        <time>2021-08-28T09:48:54Z</time>
      </trkpt>
      <trkpt lat="45.14053" lon="6.04909">
        <ele>785.2</ele>
        <time>2021-08-28T09:48:58Z</time>
      </trkpt>
      <trkpt lat="45.1409" lon="6.04917">
        <ele>785.2</ele>
        <time>2021-08-28T09:49:02Z</time>
      </trkpt>
      <trkpt lat="45.14124" lon="6.04932">
        <ele>785</ele>
        <time>2021-08-28T09:49:06Z</time>
      </trkpt>
      <trkpt lat="45.14158" lon="6.04953">
        <ele>785</ele>
        <time>2021-08-28T09:49:10Z</time>
      </trkpt>
      <trkpt lat="45.1419" lon="6.04973">
        <ele>785.2</ele>
        <time>2021-08-28T09:49:14Z</time>
      </trkpt>
      <trkpt lat="45.14218" lon="6.04983">
        <ele>785.6</ele>
        <time>2021-08-28T09:49:18Z</time>
      </trkpt>
      <trkpt lat="45.14246" lon="6.04998">
        <ele>785.4</ele>
        <time>2021-08-28T09:49:22Z</time>
      </trkpt>
      <trkpt lat="45.14275" lon="6.05015">
        <ele>785.6</ele>
        <time>2021-08-28T09:49:26Z</time>
      </trkpt>
      <trkpt lat="45.14302" lon="6.05033">
        <ele>786.6</ele>
        <time>2021-08-28T09:49:30Z</time>
      </trkpt>
      <trkpt lat="45.14329" lon="6.05052">
        <ele>787.2</ele>
        <time>2021-08-28T09:49:34Z</time>
      </trkpt>
      <trkpt lat="45.1435" lon="6.05076">
        <ele>789</ele>
        <time>2021-08-28T09:49:38Z</time>
      </trkpt>
      <trkpt lat="45.14364" lon="6.05098">
        <ele>790.4</ele>
        <time>2021-08-28T09:49:42Z</time>
      </trkpt>
      <trkpt lat="45.14373" lon="6.05114">
        <ele>792</ele>
        <time>2021-08-28T09:49:46Z</time>
      </trkpt>
      <trkpt lat="45.1439" lon="6.05127">
        <ele>792.6</ele>
        <time>2021-08-28T09:49:50Z</time>
      </trkpt>
      <trkpt lat="45.14407" lon="6.05136">
        <ele>794.2</ele>
        <time>2021-08-28T09:49:54Z</time>
      </trkpt>
      <trkpt lat="45.14424" lon="6.05152">
        <ele>795</ele>
        <time>2021-08-28T09:49:58Z</time>
      </trkpt>
      <trkpt lat="45.14441" lon="6.05173">
        <ele>796.2</ele>
        <time>2021-08-28T09:50:02Z</time>
      </trkpt>
      <trkpt lat="45.14444" lon="6.05195">
        <ele>798.2</ele>
        <time>2021-08-28T09:50:06Z</time>
      </trkpt>
      <trkpt lat="45.14439" lon="6.05219">
        <ele>799.6</ele>
        <time>2021-08-28T09:50:10Z</time>
      </trkpt>
      <trkpt lat="45.14434" lon="6.0524">
        <ele>800.4</ele>
        <time>2021-08-28T09:50:14Z</time>
      </trkpt>
      <trkpt lat="45.1443" lon="6.05262">
        <ele>800.8</ele>
        <time>2021-08-28T09:50:18Z</time>
      </trkpt>
      <trkpt lat="45.14428" lon="6.05287">
        <ele>802</ele>
        <time>2021-08-28T09:50:22Z</time>
      </trkpt>
      <trkpt lat="45.14432" lon="6.05314">
        <ele>803.4</ele>
        <time>2021-08-28T09:50:26Z</time>
      </trkpt>
      <trkpt lat="45.14436" lon="6.05338">
        <ele>803.8</ele>
        <time>2021-08-28T09:50:30Z</time>
      </trkpt>
      <trkpt lat="45.1444" lon="6.05363">
        <ele>805.4</ele>
        <time>2021-08-28T09:50:34Z</time>
      </trkpt>
      <trkpt lat="45.14444" lon="6.05386">
        <ele>806.6</ele>
        <time>2021-08-28T09:50:38Z</time>
      </trkpt>
      <trkpt lat="45.14446" lon="6.05409">
        <ele>807.6</ele>
        <time>2021-08-28T09:50:42Z</time>
      </trkpt>
      <trkpt lat="45.14453" lon="6.05428">
        <ele>808.4</ele>
        <time>2021-08-28T09:50:46Z</time>
      </trkpt>
      <trkpt lat="45.14469" lon="6.05439">
        <ele>809.2</ele>
        <time>2021-08-28T09:50:50Z</time>
      </trkpt>
      <trkpt lat="45.14487" lon="6.05447">
        <ele>810.2</ele>
        <time>2021-08-28T09:50:54Z</time>
      </trkpt>
      <trkpt lat="45.14508" lon="6.05449">
        <ele>811</ele>
        <time>2021-08-28T09:50:58Z</time>
      </trkpt>
      <trkpt lat="45.14525" lon="6.05444">
        <ele>812</ele>
        <time>2021-08-28T09:51:02Z</time>
      </trkpt>
      <trkpt lat="45.14539" lon="6.05435">
        <ele>812.6</ele>
        <time>2021-08-28T09:51:06Z</time>
      </trkpt>
      <trkpt lat="45.14551" lon="6.05423">
        <ele>813.2</ele>
        <time>2021-08-28T09:51:10Z</time>
      </trkpt>
      <trkpt lat="45.14561" lon="6.05407">
        <ele>814</ele>
        <time>2021-08-28T09:51:14Z</time>
      </trkpt>
      <trkpt lat="45.1457" lon="6.0539">
        <ele>815.4</ele>
        <time>2021-08-28T09:51:18Z</time>
      </trkpt>
      <trkpt lat="45.14577" lon="6.05372">
        <ele>816.8</ele>
        <time>2021-08-28T09:51:22Z</time>
      </trkpt>
      <trkpt lat="45.14583" lon="6.05353">
        <ele>817.8</ele>
        <time>2021-08-28T09:51:26Z</time>
      </trkpt>
      <trkpt lat="45.14588" lon="6.0533">
        <ele>818.8</ele>
        <time>2021-08-28T09:51:30Z</time>
      </trkpt>
      <trkpt lat="45.14592" lon="6.05307">
        <ele>819.8</ele>
        <time>2021-08-28T09:51:34Z</time>
      </trkpt>
      <trkpt lat="45.14597" lon="6.05289">
        <ele>820.2</ele>
        <time>2021-08-28T09:51:38Z</time>
      </trkpt>
      <trkpt lat="45.14601" lon="6.05267">
        <ele>820.8</ele>
        <time>2021-08-28T09:51:42Z</time>
      </trkpt>
      <trkpt lat="45.14605" lon="6.05245">
        <ele>822</ele>
        <time>2021-08-28T09:51:46Z</time>
      </trkpt>
      <trkpt lat="45.14609" lon="6.0522">
        <ele>822.4</ele>
        <time>2021-08-28T09:51:50Z</time>
      </trkpt>
      <trkpt lat="45.14613" lon="6.05193">
        <ele>823</ele>
        <time>2021-08-28T09:51:54Z</time>
      </trkpt>
      <trkpt lat="45.14623" lon="6.0517">
        <ele>823.6</ele>
        <time>2021-08-28T09:51:58Z</time>
      </trkpt>
      <trkpt lat="45.1464" lon="6.05155">
        <ele>823.8</ele>
        <time>2021-08-28T09:52:02Z</time>
      </trkpt>
      <trkpt lat="45.14659" lon="6.05141">
        <ele>824.8</ele>
        <time>2021-08-28T09:52:06Z</time>
      </trkpt>
      <trkpt lat="45.14674" lon="6.0512">
        <ele>825.8</ele>
        <time>2021-08-28T09:52:10Z</time>
      </trkpt>
      <trkpt lat="45.14693" lon="6.05114">
        <ele>827</ele>
        <time>2021-08-28T09:52:14Z</time>
      </trkpt>
      <trkpt lat="45.1471" lon="6.05113">
        <ele>829.2</ele>
        <time>2021-08-28T09:52:18Z</time>
      </trkpt>
      <trkpt lat="45.14722" lon="6.05115">
        <ele>830.8</ele>
        <time>2021-08-28T09:52:22Z</time>
      </trkpt>
      <trkpt lat="45.14734" lon="6.05113">
        <ele>832.6</ele>
        <time>2021-08-28T09:52:26Z</time>
      </trkpt>
      <trkpt lat="45.14746" lon="6.05111">
        <ele>833.4</ele>
        <time>2021-08-28T09:52:30Z</time>
      </trkpt>
      <trkpt lat="45.14758" lon="6.05108">
        <ele>834.8</ele>
        <time>2021-08-28T09:52:34Z</time>
      </trkpt>
      <trkpt lat="45.1477" lon="6.05105">
        <ele>836.2</ele>
        <time>2021-08-28T09:52:38Z</time>
      </trkpt>
      <trkpt lat="45.14781" lon="6.05102">
        <ele>837.6</ele>
        <time>2021-08-28T09:52:42Z</time>
      </trkpt>
      <trkpt lat="45.14792" lon="6.05096">
        <ele>839</ele>
        <time>2021-08-28T09:52:46Z</time>
      </trkpt>
      <trkpt lat="45.14802" lon="6.05088">
        <ele>839.4</ele>
        <time>2021-08-28T09:52:50Z</time>
      </trkpt>
      <trkpt lat="45.14812" lon="6.05082">
        <ele>840.8</ele>
        <time>2021-08-28T09:52:54Z</time>
      </trkpt>
      <trkpt lat="45.14822" lon="6.05078">
        <ele>842.8</ele>
        <time>2021-08-28T09:52:58Z</time>
      </trkpt>
      <trkpt lat="45.14832" lon="6.05075">
        <ele>844.4</ele>
        <time>2021-08-28T09:53:02Z</time>
      </trkpt>
      <trkpt lat="45.14842" lon="6.0507">
        <ele>845.8</ele>
        <time>2021-08-28T09:53:06Z</time>
      </trkpt>
      <trkpt lat="45.14852" lon="6.05059">
        <ele>846.8</ele>
        <time>2021-08-28T09:53:10Z</time>
      </trkpt>
      <trkpt lat="45.1486" lon="6.05046">
        <ele>847.8</ele>
        <time>2021-08-28T09:53:14Z</time>
      </trkpt>
      <trkpt lat="45.14868" lon="6.05031">
        <ele>848.2</ele>
        <time>2021-08-28T09:53:18Z</time>
      </trkpt>
      <trkpt lat="45.14879" lon="6.05023">
        <ele>849.8</ele>
        <time>2021-08-28T09:53:22Z</time>
      </trkpt>
      <trkpt lat="45.14884" lon="6.05036">
        <ele>850.6</ele>
        <time>2021-08-28T09:53:26Z</time>
      </trkpt>
      <trkpt lat="45.14875" lon="6.05048">
        <ele>850.6</ele>
        <time>2021-08-28T09:53:30Z</time>
      </trkpt>
      <trkpt lat="45.14865" lon="6.0506">
        <ele>851.2</ele>
        <time>2021-08-28T09:53:34Z</time>
      </trkpt>
      <trkpt lat="45.14854" lon="6.0507">
        <ele>852.4</ele>
        <time>2021-08-28T09:53:38Z</time>
      </trkpt>
      <trkpt lat="45.14843" lon="6.0508">
        <ele>853.6</ele>
        <time>2021-08-28T09:53:42Z</time>
      </trkpt>
      <trkpt lat="45.14835" lon="6.05091">
        <ele>854.4</ele>
        <time>2021-08-28T09:53:46Z</time>
      </trkpt>
      <trkpt lat="45.1483" lon="6.05099">
        <ele>855.6</ele>
        <time>2021-08-28T09:53:50Z</time>
      </trkpt>
      <trkpt lat="45.14825" lon="6.0511">
        <ele>857</ele>
        <time>2021-08-28T09:53:54Z</time>
      </trkpt>
      <trkpt lat="45.1482" lon="6.05123">
        <ele>857.6</ele>
        <time>2021-08-28T09:53:58Z</time>
      </trkpt>
      <trkpt lat="45.14816" lon="6.05138">
        <ele>858.4</ele>
        <time>2021-08-28T09:54:02Z</time>
      </trkpt>
      <trkpt lat="45.14811" lon="6.05154">
        <ele>860.6</ele>
        <time>2021-08-28T09:54:06Z</time>
      </trkpt>
      <trkpt lat="45.14806" lon="6.05168">
        <ele>861.8</ele>
        <time>2021-08-28T09:54:10Z</time>
      </trkpt>
      <trkpt lat="45.148" lon="6.0518">
        <ele>863.2</ele>
        <time>2021-08-28T09:54:14Z</time>
      </trkpt>
      <trkpt lat="45.14794" lon="6.05192">
        <ele>863.8</ele>
        <time>2021-08-28T09:54:18Z</time>
      </trkpt>
      <trkpt lat="45.14788" lon="6.05203">
        <ele>865.4</ele>
        <time>2021-08-28T09:54:22Z</time>
      </trkpt>
      <trkpt lat="45.14781" lon="6.05213">
        <ele>866.4</ele>
        <time>2021-08-28T09:54:26Z</time>
      </trkpt>
      <trkpt lat="45.14775" lon="6.05223">
        <ele>867.8</ele>
        <time>2021-08-28T09:54:30Z</time>
      </trkpt>
      <trkpt lat="45.14768" lon="6.05232">
        <ele>869.2</ele>
        <time>2021-08-28T09:54:34Z</time>
      </trkpt>
      <trkpt lat="45.1476" lon="6.05241">
        <ele>870.2</ele>
        <time>2021-08-28T09:54:38Z</time>
      </trkpt>
      <trkpt lat="45.14754" lon="6.05249">
        <ele>871.4</ele>
        <time>2021-08-28T09:54:42Z</time>
      </trkpt>
      <trkpt lat="45.14748" lon="6.05258">
        <ele>873.2</ele>
        <time>2021-08-28T09:54:46Z</time>
      </trkpt>
      <trkpt lat="45.14742" lon="6.0527">
        <ele>874.2</ele>
        <time>2021-08-28T09:54:50Z</time>
      </trkpt>
      <trkpt lat="45.14736" lon="6.05281">
        <ele>875</ele>
        <time>2021-08-28T09:54:54Z</time>
      </trkpt>
      <trkpt lat="45.14731" lon="6.05291">
        <ele>875.8</ele>
        <time>2021-08-28T09:54:58Z</time>
      </trkpt>
      <trkpt lat="45.14726" lon="6.05304">
        <ele>877</ele>
        <time>2021-08-28T09:55:02Z</time>
      </trkpt>
      <trkpt lat="45.14719" lon="6.05315">
        <ele>878.2</ele>
        <time>2021-08-28T09:55:06Z</time>
      </trkpt>
      <trkpt lat="45.14713" lon="6.05326">
        <ele>879.2</ele>
        <time>2021-08-28T09:55:10Z</time>
      </trkpt>
      <trkpt lat="45.14712" lon="6.05341">
        <ele>880</ele>
        <time>2021-08-28T09:55:14Z</time>
      </trkpt>
      <trkpt lat="45.14715" lon="6.05355">
        <ele>881.2</ele>
        <time>2021-08-28T09:55:18Z</time>
      </trkpt>
      <trkpt lat="45.14721" lon="6.05368">
        <ele>882.2</ele>
        <time>2021-08-28T09:55:22Z</time>
      </trkpt>
      <trkpt lat="45.14728" lon="6.05378">
        <ele>883.6</ele>
        <time>2021-08-28T09:55:26Z</time>
      </trkpt>
      <trkpt lat="45.14735" lon="6.05385">
        <ele>884</ele>
        <time>2021-08-28T09:55:30Z</time>
      </trkpt>
      <trkpt lat="45.14743" lon="6.05389">
        <ele>885</ele>
        <time>2021-08-28T09:55:34Z</time>
      </trkpt>
      <trkpt lat="45.14749" lon="6.05397">
        <ele>886</ele>
        <time>2021-08-28T09:55:38Z</time>
      </trkpt>
      <trkpt lat="45.14752" lon="6.05409">
        <ele>887.8</ele>
        <time>2021-08-28T09:55:42Z</time>
      </trkpt>
      <trkpt lat="45.14752" lon="6.05417">
        <ele>888.2</ele>
        <time>2021-08-28T09:55:46Z</time>
      </trkpt>
      <trkpt lat="45.14745" lon="6.05425">
        <ele>890.4</ele>
        <time>2021-08-28T09:55:50Z</time>
      </trkpt>
      <trkpt lat="45.14736" lon="6.0543">
        <ele>891.6</ele>
        <time>2021-08-28T09:55:54Z</time>
      </trkpt>
      <trkpt lat="45.14728" lon="6.05436">
        <ele>892.4</ele>
        <time>2021-08-28T09:55:58Z</time>
      </trkpt>
      <trkpt lat="45.14722" lon="6.05445">
        <ele>894.2</ele>
        <time>2021-08-28T09:56:02Z</time>
      </trkpt>
      <trkpt lat="45.14715" lon="6.05455">
        <ele>896</ele>
        <time>2021-08-28T09:56:06Z</time>
      </trkpt>
      <trkpt lat="45.14707" lon="6.05464">
        <ele>896.8</ele>
        <time>2021-08-28T09:56:10Z</time>
      </trkpt>
      <trkpt lat="45.14704" lon="6.05475">
        <ele>898</ele>
        <time>2021-08-28T09:56:14Z</time>
      </trkpt>
      <trkpt lat="45.14701" lon="6.05486">
        <ele>898.6</ele>
        <time>2021-08-28T09:56:18Z</time>
      </trkpt>
      <trkpt lat="45.14698" lon="6.05498">
        <ele>899.6</ele>
        <time>2021-08-28T09:56:22Z</time>
      </trkpt>
      <trkpt lat="45.14694" lon="6.05513">
        <ele>901</ele>
        <time>2021-08-28T09:56:26Z</time>
      </trkpt>
      <trkpt lat="45.14692" lon="6.05526">
        <ele>902.4</ele>
        <time>2021-08-28T09:56:30Z</time>
      </trkpt>
      <trkpt lat="45.14689" lon="6.05537">
        <ele>903.6</ele>
        <time>2021-08-28T09:56:34Z</time>
      </trkpt>
      <trkpt lat="45.14685" lon="6.05548">
        <ele>904.2</ele>
        <time>2021-08-28T09:56:38Z</time>
      </trkpt>
      <trkpt lat="45.1468" lon="6.05561">
        <ele>905</ele>
        <time>2021-08-28T09:56:42Z</time>
      </trkpt>
      <trkpt lat="45.14677" lon="6.05573">
        <ele>906.2</ele>
        <time>2021-08-28T09:56:46Z</time>
      </trkpt>
      <trkpt lat="45.14675" lon="6.05587">
        <ele>907.8</ele>
        <time>2021-08-28T09:56:50Z</time>
      </trkpt>
      <trkpt lat="45.14674" lon="6.05601">
        <ele>908.6</ele>
        <time>2021-08-28T09:56:54Z</time>
      </trkpt>
      <trkpt lat="45.14674" lon="6.05613">
        <ele>909.6</ele>
        <time>2021-08-28T09:56:58Z</time>
      </trkpt>
      <trkpt lat="45.14675" lon="6.05627">
        <ele>910.4</ele>
        <time>2021-08-28T09:57:02Z</time>
      </trkpt>
      <trkpt lat="45.14677" lon="6.05637">
        <ele>911.4</ele>
        <time>2021-08-28T09:57:06Z</time>
      </trkpt>
      <trkpt lat="45.14688" lon="6.05638">
        <ele>911.2</ele>
        <time>2021-08-28T09:57:10Z</time>
      </trkpt>
      <trkpt lat="45.14696" lon="6.05628">
        <ele>912.8</ele>
        <time>2021-08-28T09:57:14Z</time>
      </trkpt>
      <trkpt lat="45.14702" lon="6.05613">
        <ele>913.8</ele>
        <time>2021-08-28T09:57:18Z</time>
      </trkpt>
      <trkpt lat="45.14706" lon="6.056">
        <ele>914.4</ele>
        <time>2021-08-28T09:57:22Z</time>
      </trkpt>
      <trkpt lat="45.14711" lon="6.05586">
        <ele>916.6</ele>
        <time>2021-08-28T09:57:26Z</time>
      </trkpt>
      <trkpt lat="45.14718" lon="6.05575">
        <ele>918</ele>
        <time>2021-08-28T09:57:30Z</time>
      </trkpt>
      <trkpt lat="45.14726" lon="6.05565">
        <ele>919.2</ele>
        <time>2021-08-28T09:57:34Z</time>
      </trkpt>
      <trkpt lat="45.14732" lon="6.05555">
        <ele>920.4</ele>
        <time>2021-08-28T09:57:38Z</time>
      </trkpt>
      <trkpt lat="45.14738" lon="6.05546">
        <ele>921.2</ele>
        <time>2021-08-28T09:57:42Z</time>
      </trkpt>
      <trkpt lat="45.14746" lon="6.0554">
        <ele>921.6</ele>
        <time>2021-08-28T09:57:46Z</time>
      </trkpt>
      <trkpt lat="45.14753" lon="6.05535">
        <ele>924</ele>
        <time>2021-08-28T09:57:50Z</time>
      </trkpt>
      <trkpt lat="45.14762" lon="6.05533">
        <ele>925.2</ele>
        <time>2021-08-28T09:57:54Z</time>
      </trkpt>
      <trkpt lat="45.1477" lon="6.05532">
        <ele>926.2</ele>
        <time>2021-08-28T09:57:58Z</time>
      </trkpt>
      <trkpt lat="45.14778" lon="6.0553">
        <ele>927.6</ele>
        <time>2021-08-28T09:58:02Z</time>
      </trkpt>
      <trkpt lat="45.14785" lon="6.05527">
        <ele>929</ele>
        <time>2021-08-28T09:58:06Z</time>
      </trkpt>
      <trkpt lat="45.14793" lon="6.05527">
        <ele>929.2</ele>
        <time>2021-08-28T09:58:10Z</time>
      </trkpt>
      <trkpt lat="45.148" lon="6.05529">
        <ele>930.8</ele>
        <time>2021-08-28T09:58:14Z</time>
      </trkpt>
      <trkpt lat="45.14809" lon="6.05528">
        <ele>932</ele>
        <time>2021-08-28T09:58:18Z</time>
      </trkpt>
      <trkpt lat="45.14818" lon="6.05531">
        <ele>932.8</ele>
        <time>2021-08-28T09:58:22Z</time>
      </trkpt>
      <trkpt lat="45.14825" lon="6.05531">
        <ele>933.6</ele>
        <time>2021-08-28T09:58:26Z</time>
      </trkpt>
      <trkpt lat="45.14833" lon="6.05532">
        <ele>935.4</ele>
        <time>2021-08-28T09:58:30Z</time>
      </trkpt>
      <trkpt lat="45.14843" lon="6.05534">
        <ele>936.4</ele>
        <time>2021-08-28T09:58:34Z</time>
      </trkpt>
      <trkpt lat="45.14854" lon="6.05536">
        <ele>937.4</ele>
        <time>2021-08-28T09:58:38Z</time>
      </trkpt>
      <trkpt lat="45.14863" lon="6.05531">
        <ele>938</ele>
        <time>2021-08-28T09:58:42Z</time>
      </trkpt>
      <trkpt lat="45.14869" lon="6.05525">
        <ele>939</ele>
        <time>2021-08-28T09:58:46Z</time>
      </trkpt>
      <trkpt lat="45.14872" lon="6.0551">
        <ele>940.4</ele>
        <time>2021-08-28T09:58:50Z</time>
      </trkpt>
      <trkpt lat="45.14871" lon="6.05497">
        <ele>941.4</ele>
        <time>2021-08-28T09:58:54Z</time>
      </trkpt>
      <trkpt lat="45.14867" lon="6.05484">
        <ele>942.6</ele>
        <time>2021-08-28T09:58:58Z</time>
      </trkpt>
      <trkpt lat="45.14865" lon="6.05472">
        <ele>943</ele>
        <time>2021-08-28T09:59:02Z</time>
      </trkpt>
      <trkpt lat="45.14869" lon="6.0546">
        <ele>944.6</ele>
        <time>2021-08-28T09:59:06Z</time>
      </trkpt>
      <trkpt lat="45.14875" lon="6.05452">
        <ele>945.4</ele>
        <time>2021-08-28T09:59:10Z</time>
      </trkpt>
      <trkpt lat="45.14883" lon="6.05445">
        <ele>946.4</ele>
        <time>2021-08-28T09:59:14Z</time>
      </trkpt>
      <trkpt lat="45.14891" lon="6.05437">
        <ele>947</ele>
        <time>2021-08-28T09:59:18Z</time>
      </trkpt>
      <trkpt lat="45.14899" lon="6.05431">
        <ele>949.2</ele>
        <time>2021-08-28T09:59:22Z</time>
      </trkpt>
      <trkpt lat="45.14907" lon="6.05426">
        <ele>950.2</ele>
        <time>2021-08-28T09:59:26Z</time>
      </trkpt>
      <trkpt lat="45.14916" lon="6.0542">
        <ele>951.4</ele>
        <time>2021-08-28T09:59:30Z</time>
      </trkpt>
      <trkpt lat="45.14924" lon="6.05414">
        <ele>952.2</ele>
        <time>2021-08-28T09:59:34Z</time>
      </trkpt>
      <trkpt lat="45.14931" lon="6.05404">
        <ele>953.2</ele>
        <time>2021-08-28T09:59:38Z</time>
      </trkpt>
      <trkpt lat="45.14938" lon="6.05397">
        <ele>954.4</ele>
        <time>2021-08-28T09:59:42Z</time>
      </trkpt>
      <trkpt lat="45.14946" lon="6.05389">
        <ele>955.8</ele>
        <time>2021-08-28T09:59:46Z</time>
      </trkpt>
      <trkpt lat="45.14952" lon="6.05381">
        <ele>956.8</ele>
        <time>2021-08-28T09:59:50Z</time>
      </trkpt>
      <trkpt lat="45.1496" lon="6.05374">
        <ele>956.8</ele>
        <time>2021-08-28T09:59:54Z</time>
      </trkpt>
      <trkpt lat="45.14968" lon="6.05365">
        <ele>959</ele>
        <time>2021-08-28T09:59:58Z</time>
      </trkpt>
      <trkpt lat="45.14974" lon="6.05354">
        <ele>959.8</ele>
        <time>2021-08-28T10:00:02Z</time>
      </trkpt>
      <trkpt lat="45.14978" lon="6.05338">
        <ele>960.2</ele>
        <time>2021-08-28T10:00:06Z</time>
      </trkpt>
      <trkpt lat="45.14978" lon="6.05322">
        <ele>961</ele>
        <time>2021-08-28T10:00:10Z</time>
      </trkpt>
      <trkpt lat="45.14981" lon="6.05305">
        <ele>961.8</ele>
        <time>2021-08-28T10:00:14Z</time>
      </trkpt>
      <trkpt lat="45.14992" lon="6.05298">
        <ele>962.2</ele>
        <time>2021-08-28T10:00:18Z</time>
      </trkpt>
      <trkpt lat="45.14998" lon="6.05306">
        <ele>963.6</ele>
        <time>2021-08-28T10:00:22Z</time>
      </trkpt>
      <trkpt lat="45.14996" lon="6.05322">
        <ele>963.4</ele>
        <time>2021-08-28T10:00:26Z</time>
      </trkpt>
      <trkpt lat="45.14991" lon="6.05335">
        <ele>965</ele>
        <time>2021-08-28T10:00:30Z</time>
      </trkpt>
      <trkpt lat="45.14988" lon="6.05349">
        <ele>965</ele>
        <time>2021-08-28T10:00:34Z</time>
      </trkpt>
      <trkpt lat="45.14983" lon="6.05362">
        <ele>967</ele>
        <time>2021-08-28T10:00:38Z</time>
      </trkpt>
      <trkpt lat="45.14982" lon="6.05373">
        <ele>967.2</ele>
        <time>2021-08-28T10:00:42Z</time>
      </trkpt>
      <trkpt lat="45.14981" lon="6.05386">
        <ele>968.8</ele>
        <time>2021-08-28T10:00:46Z</time>
      </trkpt>
      <trkpt lat="45.14977" lon="6.05397">
        <ele>969.8</ele>
        <time>2021-08-28T10:00:50Z</time>
      </trkpt>
      <trkpt lat="45.14976" lon="6.05408">
        <ele>971</ele>
        <time>2021-08-28T10:00:54Z</time>
      </trkpt>
      <trkpt lat="45.14974" lon="6.05417">
        <ele>972.2</ele>
        <time>2021-08-28T10:00:58Z</time>
      </trkpt>
      <trkpt lat="45.14972" lon="6.05428">
        <ele>973.6</ele>
        <time>2021-08-28T10:01:02Z</time>
      </trkpt>
      <trkpt lat="45.14968" lon="6.05442">
        <ele>974.6</ele>
        <time>2021-08-28T10:01:06Z</time>
      </trkpt>
      <trkpt lat="45.14962" lon="6.05457">
        <ele>975.8</ele>
        <time>2021-08-28T10:01:10Z</time>
      </trkpt>
      <trkpt lat="45.14957" lon="6.05472">
        <ele>976.8</ele>
        <time>2021-08-28T10:01:14Z</time>
      </trkpt>
      <trkpt lat="45.14953" lon="6.05483">
        <ele>978</ele>
        <time>2021-08-28T10:01:18Z</time>
      </trkpt>
      <trkpt lat="45.14948" lon="6.05495">
        <ele>979.2</ele>
        <time>2021-08-28T10:01:22Z</time>
      </trkpt>
      <trkpt lat="45.14945" lon="6.05509">
        <ele>979.6</ele>
        <time>2021-08-28T10:01:26Z</time>
      </trkpt>
      <trkpt lat="45.14946" lon="6.05523">
        <ele>980</ele>
        <time>2021-08-28T10:01:30Z</time>
      </trkpt>
      <trkpt lat="45.1495" lon="6.05536">
        <ele>981.6</ele>
        <time>2021-08-28T10:01:34Z</time>
      </trkpt>
      <trkpt lat="45.14958" lon="6.05545">
        <ele>982</ele>
        <time>2021-08-28T10:01:38Z</time>
      </trkpt>
      <trkpt lat="45.14964" lon="6.05553">
        <ele>984</ele>
        <time>2021-08-28T10:01:42Z</time>
      </trkpt>
      <trkpt lat="45.14968" lon="6.05558">
        <ele>985.2</ele>
        <time>2021-08-28T10:01:46Z</time>
      </trkpt>
      <trkpt lat="45.14973" lon="6.0557">
        <ele>985.4</ele>
        <time>2021-08-28T10:01:50Z</time>
      </trkpt>
      <trkpt lat="45.14977" lon="6.05582">
        <ele>987.2</ele>
        <time>2021-08-28T10:01:54Z</time>
      </trkpt>
      <trkpt lat="45.14979" lon="6.05595">
        <ele>988.4</ele>
        <time>2021-08-28T10:01:58Z</time>
      </trkpt>
      <trkpt lat="45.14982" lon="6.0561">
        <ele>989.4</ele>
        <time>2021-08-28T10:02:02Z</time>
      </trkpt>
      <trkpt lat="45.14983" lon="6.05623">
        <ele>989.8</ele>
        <time>2021-08-28T10:02:06Z</time>
      </trkpt>
      <trkpt lat="45.14981" lon="6.05634">
        <ele>991.4</ele>
        <time>2021-08-28T10:02:10Z</time>
      </trkpt>
      <trkpt lat="45.14973" lon="6.05645">
        <ele>992.2</ele>
        <time>2021-08-28T10:02:14Z</time>
      </trkpt>
      <trkpt lat="45.14965" lon="6.05653">
        <ele>993.2</ele>
        <time>2021-08-28T10:02:18Z</time>
      </trkpt>
      <trkpt lat="45.14956" lon="6.0566">
        <ele>994.2</ele>
        <time>2021-08-28T10:02:22Z</time>
      </trkpt>
      <trkpt lat="45.14948" lon="6.05668">
        <ele>995.6</ele>
        <time>2021-08-28T10:02:26Z</time>
      </trkpt>
      <trkpt lat="45.14942" lon="6.05678">
        <ele>996</ele>
        <time>2021-08-28T10:02:30Z</time>
      </trkpt>
      <trkpt lat="45.14936" lon="6.05691">
        <ele>997.4</ele>
        <time>2021-08-28T10:02:34Z</time>
      </trkpt>
      <trkpt lat="45.14932" lon="6.05705">
        <ele>998.8</ele>
        <time>2021-08-28T10:02:38Z</time>
      </trkpt>
      <trkpt lat="45.14929" lon="6.05716">
        <ele>999.6</ele>
        <time>2021-08-28T10:02:42Z</time>
      </trkpt>
      <trkpt lat="45.14927" lon="6.05728">
        <ele>1000.8</ele>
        <time>2021-08-28T10:02:46Z</time>
      </trkpt>
      <trkpt lat="45.14924" lon="6.0574">
        <ele>1001.4</ele>
        <time>2021-08-28T10:02:50Z</time>
      </trkpt>
      <trkpt lat="45.14921" lon="6.05753">
        <ele>1002.2</ele>
        <time>2021-08-28T10:02:54Z</time>
      </trkpt>
      <trkpt lat="45.14921" lon="6.05753">
        <ele>1002.2</ele>
        <time>2021-08-28T10:02:58Z</time>
      </trkpt>
      <trkpt lat="45.14918" lon="6.05781">
        <ele>1005.2</ele>
        <time>2021-08-28T10:03:02Z</time>
      </trkpt>
      <trkpt lat="45.14918" lon="6.05794">
        <ele>1006.4</ele>
        <time>2021-08-28T10:03:06Z</time>
      </trkpt>
      <trkpt lat="45.14917" lon="6.05808">
        <ele>1007.6</ele>
        <time>2021-08-28T10:03:10Z</time>
      </trkpt>
      <trkpt lat="45.14919" lon="6.05822">
        <ele>1007.8</ele>
        <time>2021-08-28T10:03:14Z</time>
      </trkpt>
      <trkpt lat="45.1492" lon="6.05835">
        <ele>1008.8</ele>
        <time>2021-08-28T10:03:18Z</time>
      </trkpt>
      <trkpt lat="45.14921" lon="6.05848">
        <ele>1010.2</ele>
        <time>2021-08-28T10:03:22Z</time>
      </trkpt>
      <trkpt lat="45.14922" lon="6.05861">
        <ele>1011.2</ele>
        <time>2021-08-28T10:03:26Z</time>
      </trkpt>
      <trkpt lat="45.14921" lon="6.05875">
        <ele>1012.2</ele>
        <time>2021-08-28T10:03:30Z</time>
      </trkpt>
      <trkpt lat="45.14923" lon="6.05889">
        <ele>1012.4</ele>
        <time>2021-08-28T10:03:34Z</time>
      </trkpt>
      <trkpt lat="45.14925" lon="6.05903">
        <ele>1012.8</ele>
        <time>2021-08-28T10:03:38Z</time>
      </trkpt>
      <trkpt lat="45.14927" lon="6.05918">
        <ele>1013.6</ele>
        <time>2021-08-28T10:03:42Z</time>
      </trkpt>
      <trkpt lat="45.14931" lon="6.0593">
        <ele>1014.8</ele>
        <time>2021-08-28T10:03:46Z</time>
      </trkpt>
      <trkpt lat="45.14934" lon="6.05944">
        <ele>1016.2</ele>
        <time>2021-08-28T10:03:50Z</time>
      </trkpt>
      <trkpt lat="45.14935" lon="6.05955">
        <ele>1017</ele>
        <time>2021-08-28T10:03:54Z</time>
      </trkpt>
      <trkpt lat="45.14939" lon="6.05965">
        <ele>1018.2</ele>
        <time>2021-08-28T10:03:58Z</time>
      </trkpt>
      <trkpt lat="45.14945" lon="6.05976">
        <ele>1019.2</ele>
        <time>2021-08-28T10:04:02Z</time>
      </trkpt>
      <trkpt lat="45.1495" lon="6.05989">
        <ele>1020.8</ele>
        <time>2021-08-28T10:04:06Z</time>
      </trkpt>
      <trkpt lat="45.14956" lon="6.06001">
        <ele>1021.8</ele>
        <time>2021-08-28T10:04:10Z</time>
      </trkpt>
      <trkpt lat="45.1496" lon="6.06014">
        <ele>1022.6</ele>
        <time>2021-08-28T10:04:14Z</time>
      </trkpt>
      <trkpt lat="45.14965" lon="6.06025">
        <ele>1023.4</ele>
        <time>2021-08-28T10:04:18Z</time>
      </trkpt>
      <trkpt lat="45.14972" lon="6.06037">
        <ele>1024.4</ele>
        <time>2021-08-28T10:04:22Z</time>
      </trkpt>
      <trkpt lat="45.14977" lon="6.06049">
        <ele>1025.6</ele>
        <time>2021-08-28T10:04:26Z</time>
      </trkpt>
      <trkpt lat="45.14983" lon="6.06063">
        <ele>1026</ele>
        <time>2021-08-28T10:04:30Z</time>
      </trkpt>
      <trkpt lat="45.1499" lon="6.06073">
        <ele>1027.2</ele>
        <time>2021-08-28T10:04:34Z</time>
      </trkpt>
      <trkpt lat="45.15002" lon="6.0607">
        <ele>1027</ele>
        <time>2021-08-28T10:04:38Z</time>
      </trkpt>
      <trkpt lat="45.15007" lon="6.06055">
        <ele>1027.6</ele>
        <time>2021-08-28T10:04:42Z</time>
      </trkpt>
      <trkpt lat="45.15004" lon="6.06038">
        <ele>1028</ele>
        <time>2021-08-28T10:04:46Z</time>
      </trkpt>
      <trkpt lat="45.14999" lon="6.06022">
        <ele>1029</ele>
        <time>2021-08-28T10:04:50Z</time>
      </trkpt>
      <trkpt lat="45.15" lon="6.06006">
        <ele>1029.6</ele>
        <time>2021-08-28T10:04:54Z</time>
      </trkpt>
      <trkpt lat="45.15005" lon="6.05991">
        <ele>1030.2</ele>
        <time>2021-08-28T10:04:58Z</time>
      </trkpt>
      <trkpt lat="45.15011" lon="6.05979">
        <ele>1031.6</ele>
        <time>2021-08-28T10:05:02Z</time>
      </trkpt>
      <trkpt lat="45.15016" lon="6.05968">
        <ele>1033</ele>
        <time>2021-08-28T10:05:06Z</time>
      </trkpt>
      <trkpt lat="45.15019" lon="6.05957">
        <ele>1034.2</ele>
        <time>2021-08-28T10:05:10Z</time>
      </trkpt>
      <trkpt lat="45.15024" lon="6.05945">
        <ele>1034.8</ele>
        <time>2021-08-28T10:05:14Z</time>
      </trkpt>
      <trkpt lat="45.15031" lon="6.05934">
        <ele>1036</ele>
        <time>2021-08-28T10:05:18Z</time>
      </trkpt>
      <trkpt lat="45.15036" lon="6.05922">
        <ele>1037.2</ele>
        <time>2021-08-28T10:05:22Z</time>
      </trkpt>
      <trkpt lat="45.15041" lon="6.0591">
        <ele>1038.8</ele>
        <time>2021-08-28T10:05:26Z</time>
      </trkpt>
      <trkpt lat="45.15046" lon="6.05898">
        <ele>1040</ele>
        <time>2021-08-28T10:05:30Z</time>
      </trkpt>
      <trkpt lat="45.15051" lon="6.05886">
        <ele>1041.4</ele>
        <time>2021-08-28T10:05:34Z</time>
      </trkpt>
      <trkpt lat="45.15056" lon="6.05874">
        <ele>1042.6</ele>
        <time>2021-08-28T10:05:38Z</time>
      </trkpt>
      <trkpt lat="45.15061" lon="6.05862">
        <ele>1043.2</ele>
        <time>2021-08-28T10:05:42Z</time>
      </trkpt>
      <trkpt lat="45.15065" lon="6.0585">
        <ele>1044</ele>
        <time>2021-08-28T10:05:46Z</time>
      </trkpt>
      <trkpt lat="45.1507" lon="6.05837">
        <ele>1044.8</ele>
        <time>2021-08-28T10:05:50Z</time>
      </trkpt>
      <trkpt lat="45.15073" lon="6.05823">
        <ele>1046.2</ele>
        <time>2021-08-28T10:05:54Z</time>
      </trkpt>
      <trkpt lat="45.15076" lon="6.05808">
        <ele>1046.8</ele>
        <time>2021-08-28T10:05:58Z</time>
      </trkpt>
      <trkpt lat="45.15079" lon="6.05794">
        <ele>1047.8</ele>
        <time>2021-08-28T10:06:02Z</time>
      </trkpt>
      <trkpt lat="45.15084" lon="6.05781">
        <ele>1048</ele>
        <time>2021-08-28T10:06:06Z</time>
      </trkpt>
      <trkpt lat="45.15094" lon="6.05779">
        <ele>1048.6</ele>
        <time>2021-08-28T10:06:10Z</time>
      </trkpt>
      <trkpt lat="45.15096" lon="6.05793">
        <ele>1049.6</ele>
        <time>2021-08-28T10:06:14Z</time>
      </trkpt>
      <trkpt lat="45.1509" lon="6.05809">
        <ele>1050.6</ele>
        <time>2021-08-28T10:06:18Z</time>
      </trkpt>
      <trkpt lat="45.15084" lon="6.05824">
        <ele>1051.2</ele>
        <time>2021-08-28T10:06:22Z</time>
      </trkpt>
      <trkpt lat="45.15081" lon="6.05841">
        <ele>1052.2</ele>
        <time>2021-08-28T10:06:26Z</time>
      </trkpt>
      <trkpt lat="45.15082" lon="6.05858">
        <ele>1052.4</ele>
        <time>2021-08-28T10:06:30Z</time>
      </trkpt>
      <trkpt lat="45.15084" lon="6.05873">
        <ele>1053.4</ele>
        <time>2021-08-28T10:06:34Z</time>
      </trkpt>
      <trkpt lat="45.15088" lon="6.05886">
        <ele>1054.2</ele>
        <time>2021-08-28T10:06:38Z</time>
      </trkpt>
      <trkpt lat="45.15089" lon="6.05898">
        <ele>1054.8</ele>
        <time>2021-08-28T10:06:42Z</time>
      </trkpt>
      <trkpt lat="45.1509" lon="6.05908">
        <ele>1056.8</ele>
        <time>2021-08-28T10:06:46Z</time>
      </trkpt>
      <trkpt lat="45.15092" lon="6.05922">
        <ele>1058.2</ele>
        <time>2021-08-28T10:06:50Z</time>
      </trkpt>
      <trkpt lat="45.15093" lon="6.05935">
        <ele>1059</ele>
        <time>2021-08-28T10:06:54Z</time>
      </trkpt>
      <trkpt lat="45.15094" lon="6.05949">
        <ele>1060.2</ele>
        <time>2021-08-28T10:06:58Z</time>
      </trkpt>
      <trkpt lat="45.15095" lon="6.05963">
        <ele>1061.4</ele>
        <time>2021-08-28T10:07:02Z</time>
      </trkpt>
      <trkpt lat="45.15096" lon="6.05975">
        <ele>1062.4</ele>
        <time>2021-08-28T10:07:06Z</time>
      </trkpt>
      <trkpt lat="45.15097" lon="6.05987">
        <ele>1062.8</ele>
        <time>2021-08-28T10:07:10Z</time>
      </trkpt>
      <trkpt lat="45.151" lon="6.05999">
        <ele>1064.8</ele>
        <time>2021-08-28T10:07:14Z</time>
      </trkpt>
      <trkpt lat="45.15105" lon="6.0601">
        <ele>1065.8</ele>
        <time>2021-08-28T10:07:18Z</time>
      </trkpt>
      <trkpt lat="45.1511" lon="6.0602">
        <ele>1066.4</ele>
        <time>2021-08-28T10:07:22Z</time>
      </trkpt>
      <trkpt lat="45.15114" lon="6.06033">
        <ele>1068</ele>
        <time>2021-08-28T10:07:26Z</time>
      </trkpt>
      <trkpt lat="45.15116" lon="6.06047">
        <ele>1068.4</ele>
        <time>2021-08-28T10:07:30Z</time>
      </trkpt>
      <trkpt lat="45.15116" lon="6.06061">
        <ele>1069.4</ele>
        <time>2021-08-28T10:07:34Z</time>
      </trkpt>
      <trkpt lat="45.15117" lon="6.06072">
        <ele>1070.2</ele>
        <time>2021-08-28T10:07:38Z</time>
      </trkpt>
      <trkpt lat="45.15117" lon="6.06083">
        <ele>1071.4</ele>
        <time>2021-08-28T10:07:42Z</time>
      </trkpt>
      <trkpt lat="45.15118" lon="6.06095">
        <ele>1072</ele>
        <time>2021-08-28T10:07:46Z</time>
      </trkpt>
      <trkpt lat="45.15119" lon="6.06108">
        <ele>1074</ele>
        <time>2021-08-28T10:07:50Z</time>
      </trkpt>
      <trkpt lat="45.15122" lon="6.0612">
        <ele>1075.4</ele>
        <time>2021-08-28T10:07:54Z</time>
      </trkpt>
      <trkpt lat="45.15124" lon="6.06133">
        <ele>1076</ele>
        <time>2021-08-28T10:07:58Z</time>
      </trkpt>
      <trkpt lat="45.15127" lon="6.06144">
        <ele>1076.8</ele>
        <time>2021-08-28T10:08:02Z</time>
      </trkpt>
      <trkpt lat="45.15128" lon="6.06156">
        <ele>1078</ele>
        <time>2021-08-28T10:08:06Z</time>
      </trkpt>
      <trkpt lat="45.15129" lon="6.06167">
        <ele>1078.6</ele>
        <time>2021-08-28T10:08:10Z</time>
      </trkpt>
      <trkpt lat="45.1513" lon="6.06178">
        <ele>1079.6</ele>
        <time>2021-08-28T10:08:14Z</time>
      </trkpt>
      <trkpt lat="45.15134" lon="6.06188">
        <ele>1080.8</ele>
        <time>2021-08-28T10:08:18Z</time>
      </trkpt>
      <trkpt lat="45.15137" lon="6.062">
        <ele>1081.8</ele>
        <time>2021-08-28T10:08:22Z</time>
      </trkpt>
      <trkpt lat="45.15139" lon="6.06213">
        <ele>1082.4</ele>
        <time>2021-08-28T10:08:26Z</time>
      </trkpt>
      <trkpt lat="45.15139" lon="6.06227">
        <ele>1083.2</ele>
        <time>2021-08-28T10:08:30Z</time>
      </trkpt>
      <trkpt lat="45.15139" lon="6.06241">
        <ele>1084.4</ele>
        <time>2021-08-28T10:08:34Z</time>
      </trkpt>
      <trkpt lat="45.15136" lon="6.06255">
        <ele>1085.8</ele>
        <time>2021-08-28T10:08:38Z</time>
      </trkpt>
      <trkpt lat="45.15131" lon="6.06266">
        <ele>1086</ele>
        <time>2021-08-28T10:08:42Z</time>
      </trkpt>
      <trkpt lat="45.15126" lon="6.06277">
        <ele>1087.2</ele>
        <time>2021-08-28T10:08:46Z</time>
      </trkpt>
      <trkpt lat="45.15121" lon="6.06288">
        <ele>1088.2</ele>
        <time>2021-08-28T10:08:50Z</time>
      </trkpt>
      <trkpt lat="45.15118" lon="6.06301">
        <ele>1089.4</ele>
        <time>2021-08-28T10:08:54Z</time>
      </trkpt>
      <trkpt lat="45.15117" lon="6.06315">
        <ele>1090.4</ele>
        <time>2021-08-28T10:08:58Z</time>
      </trkpt>
      <trkpt lat="45.15115" lon="6.06326">
        <ele>1091</ele>
        <time>2021-08-28T10:09:02Z</time>
      </trkpt>
      <trkpt lat="45.15114" lon="6.06339">
        <ele>1091.4</ele>
        <time>2021-08-28T10:09:06Z</time>
      </trkpt>
      <trkpt lat="45.15115" lon="6.06352">
        <ele>1092.4</ele>
        <time>2021-08-28T10:09:10Z</time>
      </trkpt>
      <trkpt lat="45.15117" lon="6.06365">
        <ele>1093.8</ele>
        <time>2021-08-28T10:09:14Z</time>
      </trkpt>
      <trkpt lat="45.15119" lon="6.06378">
        <ele>1095.2</ele>
        <time>2021-08-28T10:09:18Z</time>
      </trkpt>
      <trkpt lat="45.1512" lon="6.06391">
        <ele>1096.2</ele>
        <time>2021-08-28T10:09:22Z</time>
      </trkpt>
      <trkpt lat="45.15122" lon="6.06404">
        <ele>1097.2</ele>
        <time>2021-08-28T10:09:26Z</time>
      </trkpt>
      <trkpt lat="45.15125" lon="6.06415">
        <ele>1098.2</ele>
        <time>2021-08-28T10:09:30Z</time>
      </trkpt>
      <trkpt lat="45.15128" lon="6.06425">
        <ele>1099.6</ele>
        <time>2021-08-28T10:09:34Z</time>
      </trkpt>
      <trkpt lat="45.15132" lon="6.06435">
        <ele>1100.2</ele>
        <time>2021-08-28T10:09:38Z</time>
      </trkpt>
      <trkpt lat="45.15137" lon="6.06445">
        <ele>1101.2</ele>
        <time>2021-08-28T10:09:42Z</time>
      </trkpt>
      <trkpt lat="45.15141" lon="6.06455">
        <ele>1102</ele>
        <time>2021-08-28T10:09:46Z</time>
      </trkpt>
      <trkpt lat="45.15142" lon="6.06466">
        <ele>1103</ele>
        <time>2021-08-28T10:09:50Z</time>
      </trkpt>
      <trkpt lat="45.15145" lon="6.0648">
        <ele>1104.2</ele>
        <time>2021-08-28T10:09:54Z</time>
      </trkpt>
      <trkpt lat="45.15147" lon="6.06494">
        <ele>1104.4</ele>
        <time>2021-08-28T10:09:58Z</time>
      </trkpt>
      <trkpt lat="45.15149" lon="6.06507">
        <ele>1105.2</ele>
        <time>2021-08-28T10:10:02Z</time>
      </trkpt>
      <trkpt lat="45.15156" lon="6.06517">
        <ele>1106</ele>
        <time>2021-08-28T10:10:06Z</time>
      </trkpt>
      <trkpt lat="45.15167" lon="6.06515">
        <ele>1107</ele>
        <time>2021-08-28T10:10:10Z</time>
      </trkpt>
      <trkpt lat="45.15173" lon="6.06503">
        <ele>1107.8</ele>
        <time>2021-08-28T10:10:14Z</time>
      </trkpt>
      <trkpt lat="45.15172" lon="6.06489">
        <ele>1108</ele>
        <time>2021-08-28T10:10:18Z</time>
      </trkpt>
      <trkpt lat="45.15169" lon="6.06476">
        <ele>1109.2</ele>
        <time>2021-08-28T10:10:22Z</time>
      </trkpt>
      <trkpt lat="45.15166" lon="6.06462">
        <ele>1109.8</ele>
        <time>2021-08-28T10:10:26Z</time>
      </trkpt>
      <trkpt lat="45.15167" lon="6.06447">
        <ele>1110.4</ele>
        <time>2021-08-28T10:10:30Z</time>
      </trkpt>
      <trkpt lat="45.1517" lon="6.06435">
        <ele>1111.6</ele>
        <time>2021-08-28T10:10:34Z</time>
      </trkpt>
      <trkpt lat="45.15173" lon="6.0642">
        <ele>1112.4</ele>
        <time>2021-08-28T10:10:38Z</time>
      </trkpt>
      <trkpt lat="45.15177" lon="6.06406">
        <ele>1113.8</ele>
        <time>2021-08-28T10:10:42Z</time>
      </trkpt>
      <trkpt lat="45.1518" lon="6.06393">
        <ele>1115</ele>
        <time>2021-08-28T10:10:46Z</time>
      </trkpt>
      <trkpt lat="45.15184" lon="6.0638">
        <ele>1116</ele>
        <time>2021-08-28T10:10:50Z</time>
      </trkpt>
      <trkpt lat="45.15186" lon="6.06365">
        <ele>1116.4</ele>
        <time>2021-08-28T10:10:54Z</time>
      </trkpt>
      <trkpt lat="45.15188" lon="6.0635">
        <ele>1117.2</ele>
        <time>2021-08-28T10:10:58Z</time>
      </trkpt>
      <trkpt lat="45.15193" lon="6.06335">
        <ele>1118</ele>
        <time>2021-08-28T10:11:02Z</time>
      </trkpt>
      <trkpt lat="45.15202" lon="6.06328">
        <ele>1118.8</ele>
        <time>2021-08-28T10:11:06Z</time>
      </trkpt>
      <trkpt lat="45.1521" lon="6.06337">
        <ele>1119.2</ele>
        <time>2021-08-28T10:11:10Z</time>
      </trkpt>
      <trkpt lat="45.15207" lon="6.06353">
        <ele>1119.8</ele>
        <time>2021-08-28T10:11:14Z</time>
      </trkpt>
      <trkpt lat="45.15199" lon="6.06366">
        <ele>1120.4</ele>
        <time>2021-08-28T10:11:18Z</time>
      </trkpt>
      <trkpt lat="45.15194" lon="6.06382">
        <ele>1121</ele>
        <time>2021-08-28T10:11:22Z</time>
      </trkpt>
      <trkpt lat="45.1519" lon="6.06399">
        <ele>1121.2</ele>
        <time>2021-08-28T10:11:26Z</time>
      </trkpt>
      <trkpt lat="45.15189" lon="6.06416">
        <ele>1122</ele>
        <time>2021-08-28T10:11:30Z</time>
      </trkpt>
      <trkpt lat="45.15189" lon="6.06431">
        <ele>1123.2</ele>
        <time>2021-08-28T10:11:34Z</time>
      </trkpt>
      <trkpt lat="45.1519" lon="6.06443">
        <ele>1123.8</ele>
        <time>2021-08-28T10:11:38Z</time>
      </trkpt>
      <trkpt lat="45.15194" lon="6.06455">
        <ele>1124.8</ele>
        <time>2021-08-28T10:11:42Z</time>
      </trkpt>
      <trkpt lat="45.15196" lon="6.06467">
        <ele>1125.4</ele>
        <time>2021-08-28T10:11:46Z</time>
      </trkpt>
      <trkpt lat="45.15198" lon="6.06478">
        <ele>1127.2</ele>
        <time>2021-08-28T10:11:50Z</time>
      </trkpt>
      <trkpt lat="45.15201" lon="6.06488">
        <ele>1128</ele>
        <time>2021-08-28T10:11:54Z</time>
      </trkpt>
      <trkpt lat="45.15206" lon="6.065">
        <ele>1129</ele>
        <time>2021-08-28T10:11:58Z</time>
      </trkpt>
      <trkpt lat="45.1521" lon="6.06509">
        <ele>1129.8</ele>
        <time>2021-08-28T10:12:02Z</time>
      </trkpt>
      <trkpt lat="45.15213" lon="6.06516">
        <ele>1131.8</ele>
        <time>2021-08-28T10:12:06Z</time>
      </trkpt>
      <trkpt lat="45.1522" lon="6.06527">
        <ele>1132.8</ele>
        <time>2021-08-28T10:12:10Z</time>
      </trkpt>
      <trkpt lat="45.15225" lon="6.06542">
        <ele>1134.2</ele>
        <time>2021-08-28T10:12:14Z</time>
      </trkpt>
      <trkpt lat="45.15232" lon="6.06555">
        <ele>1135.2</ele>
        <time>2021-08-28T10:12:18Z</time>
      </trkpt>
      <trkpt lat="45.15239" lon="6.06567">
        <ele>1136.2</ele>
        <time>2021-08-28T10:12:22Z</time>
      </trkpt>
      <trkpt lat="45.15246" lon="6.06579">
        <ele>1137.2</ele>
        <time>2021-08-28T10:12:26Z</time>
      </trkpt>
      <trkpt lat="45.15252" lon="6.06592">
        <ele>1138.6</ele>
        <time>2021-08-28T10:12:30Z</time>
      </trkpt>
      <trkpt lat="45.15258" lon="6.06601">
        <ele>1139.6</ele>
        <time>2021-08-28T10:12:34Z</time>
      </trkpt>
      <trkpt lat="45.15265" lon="6.06611">
        <ele>1140.6</ele>
        <time>2021-08-28T10:12:38Z</time>
      </trkpt>
      <trkpt lat="45.15272" lon="6.0662">
        <ele>1141.8</ele>
        <time>2021-08-28T10:12:42Z</time>
      </trkpt>
      <trkpt lat="45.15278" lon="6.0663">
        <ele>1142.4</ele>
        <time>2021-08-28T10:12:46Z</time>
      </trkpt>
      <trkpt lat="45.15285" lon="6.06638">
        <ele>1143.6</ele>
        <time>2021-08-28T10:12:50Z</time>
      </trkpt>
      <trkpt lat="45.15291" lon="6.06649">
        <ele>1145</ele>
        <time>2021-08-28T10:12:54Z</time>
      </trkpt>
      <trkpt lat="45.15297" lon="6.06661">
        <ele>1146.2</ele>
        <time>2021-08-28T10:12:58Z</time>
      </trkpt>
      <trkpt lat="45.15303" lon="6.06672">
        <ele>1147.2</ele>
        <time>2021-08-28T10:13:02Z</time>
      </trkpt>
      <trkpt lat="45.15308" lon="6.06681">
        <ele>1147.8</ele>
        <time>2021-08-28T10:13:06Z</time>
      </trkpt>
      <trkpt lat="45.15314" lon="6.06691">
        <ele>1149.2</ele>
        <time>2021-08-28T10:13:10Z</time>
      </trkpt>
      <trkpt lat="45.1532" lon="6.06701">
        <ele>1149.8</ele>
        <time>2021-08-28T10:13:14Z</time>
      </trkpt>
      <trkpt lat="45.15326" lon="6.06712">
        <ele>1151.2</ele>
        <time>2021-08-28T10:13:18Z</time>
      </trkpt>
      <trkpt lat="45.15333" lon="6.0672">
        <ele>1152.6</ele>
        <time>2021-08-28T10:13:22Z</time>
      </trkpt>
      <trkpt lat="45.15341" lon="6.06727">
        <ele>1152.8</ele>
        <time>2021-08-28T10:13:26Z</time>
      </trkpt>
      <trkpt lat="45.15349" lon="6.06731">
        <ele>1154</ele>
        <time>2021-08-28T10:13:30Z</time>
      </trkpt>
      <trkpt lat="45.15357" lon="6.06733">
        <ele>1155.2</ele>
        <time>2021-08-28T10:13:34Z</time>
      </trkpt>
      <trkpt lat="45.15365" lon="6.06736">
        <ele>1155.4</ele>
        <time>2021-08-28T10:13:38Z</time>
      </trkpt>
      <trkpt lat="45.15373" lon="6.06741">
        <ele>1157.2</ele>
        <time>2021-08-28T10:13:42Z</time>
      </trkpt>
      <trkpt lat="45.15379" lon="6.0675">
        <ele>1157.8</ele>
        <time>2021-08-28T10:13:46Z</time>
      </trkpt>
      <trkpt lat="45.15383" lon="6.0676">
        <ele>1159.2</ele>
        <time>2021-08-28T10:13:50Z</time>
      </trkpt>
      <trkpt lat="45.15387" lon="6.06771">
        <ele>1160</ele>
        <time>2021-08-28T10:13:54Z</time>
      </trkpt>
      <trkpt lat="45.15392" lon="6.06779">
        <ele>1160.4</ele>
        <time>2021-08-28T10:13:58Z</time>
      </trkpt>
      <trkpt lat="45.15399" lon="6.06788">
        <ele>1162</ele>
        <time>2021-08-28T10:14:02Z</time>
      </trkpt>
      <trkpt lat="45.15407" lon="6.06796">
        <ele>1163.2</ele>
        <time>2021-08-28T10:14:06Z</time>
      </trkpt>
      <trkpt lat="45.15413" lon="6.06804">
        <ele>1163.8</ele>
        <time>2021-08-28T10:14:10Z</time>
      </trkpt>
      <trkpt lat="45.15418" lon="6.06813">
        <ele>1164.8</ele>
        <time>2021-08-28T10:14:14Z</time>
      </trkpt>
      <trkpt lat="45.15423" lon="6.06823">
        <ele>1165.4</ele>
        <time>2021-08-28T10:14:18Z</time>
      </trkpt>
      <trkpt lat="45.15427" lon="6.06833">
        <ele>1166.6</ele>
        <time>2021-08-28T10:14:22Z</time>
      </trkpt>
      <trkpt lat="45.15433" lon="6.06844">
        <ele>1167.2</ele>
        <time>2021-08-28T10:14:26Z</time>
      </trkpt>
      <trkpt lat="45.1544" lon="6.06853">
        <ele>1168.6</ele>
        <time>2021-08-28T10:14:30Z</time>
      </trkpt>
      <trkpt lat="45.15445" lon="6.06863">
        <ele>1169.6</ele>
        <time>2021-08-28T10:14:34Z</time>
      </trkpt>
      <trkpt lat="45.1545" lon="6.06874">
        <ele>1170.8</ele>
        <time>2021-08-28T10:14:38Z</time>
      </trkpt>
      <trkpt lat="45.15455" lon="6.06885">
        <ele>1170.8</ele>
        <time>2021-08-28T10:14:42Z</time>
      </trkpt>
      <trkpt lat="45.15461" lon="6.06895">
        <ele>1172.4</ele>
        <time>2021-08-28T10:14:46Z</time>
      </trkpt>
      <trkpt lat="45.15466" lon="6.06906">
        <ele>1172.8</ele>
        <time>2021-08-28T10:14:50Z</time>
      </trkpt>
      <trkpt lat="45.15472" lon="6.06915">
        <ele>1174.4</ele>
        <time>2021-08-28T10:14:54Z</time>
      </trkpt>
      <trkpt lat="45.15477" lon="6.06925">
        <ele>1175.4</ele>
        <time>2021-08-28T10:14:58Z</time>
      </trkpt>
      <trkpt lat="45.15482" lon="6.06937">
        <ele>1176</ele>
        <time>2021-08-28T10:15:02Z</time>
      </trkpt>
      <trkpt lat="45.15486" lon="6.0695">
        <ele>1176.4</ele>
        <time>2021-08-28T10:15:06Z</time>
      </trkpt>
      <trkpt lat="45.15488" lon="6.06961">
        <ele>1177.8</ele>
        <time>2021-08-28T10:15:10Z</time>
      </trkpt>
      <trkpt lat="45.15493" lon="6.06971">
        <ele>1179</ele>
        <time>2021-08-28T10:15:14Z</time>
      </trkpt>
      <trkpt lat="45.15497" lon="6.06982">
        <ele>1180</ele>
        <time>2021-08-28T10:15:18Z</time>
      </trkpt>
      <trkpt lat="45.15501" lon="6.06994">
        <ele>1181.2</ele>
        <time>2021-08-28T10:15:22Z</time>
      </trkpt>
      <trkpt lat="45.15506" lon="6.07006">
        <ele>1181.6</ele>
        <time>2021-08-28T10:15:26Z</time>
      </trkpt>
      <trkpt lat="45.15512" lon="6.07016">
        <ele>1182.8</ele>
        <time>2021-08-28T10:15:30Z</time>
      </trkpt>
      <trkpt lat="45.15517" lon="6.07025">
        <ele>1183.6</ele>
        <time>2021-08-28T10:15:34Z</time>
      </trkpt>
      <trkpt lat="45.15521" lon="6.07035">
        <ele>1185</ele>
        <time>2021-08-28T10:15:38Z</time>
      </trkpt>
      <trkpt lat="45.15526" lon="6.07044">
        <ele>1185.6</ele>
        <time>2021-08-28T10:15:42Z</time>
      </trkpt>
      <trkpt lat="45.15526" lon="6.07044">
        <ele>1185.6</ele>
        <time>2021-08-28T10:15:46Z</time>
      </trkpt>
      <trkpt lat="45.15526" lon="6.07044">
        <ele>1185.6</ele>
        <time>2021-08-28T10:15:50Z</time>
      </trkpt>
      <trkpt lat="45.15538" lon="6.07073">
        <ele>1187.6</ele>
        <time>2021-08-28T10:15:54Z</time>
      </trkpt>
      <trkpt lat="45.15542" lon="6.07085">
        <ele>1189</ele>
        <time>2021-08-28T10:15:58Z</time>
      </trkpt>
      <trkpt lat="45.15547" lon="6.07097">
        <ele>1190.4</ele>
        <time>2021-08-28T10:16:02Z</time>
      </trkpt>
      <trkpt lat="45.15551" lon="6.07106">
        <ele>1190.6</ele>
        <time>2021-08-28T10:16:06Z</time>
      </trkpt>
      <trkpt lat="45.15558" lon="6.07117">
        <ele>1191.8</ele>
        <time>2021-08-28T10:16:10Z</time>
      </trkpt>
      <trkpt lat="45.15564" lon="6.07127">
        <ele>1193.4</ele>
        <time>2021-08-28T10:16:14Z</time>
      </trkpt>
      <trkpt lat="45.15572" lon="6.07135">
        <ele>1194</ele>
        <time>2021-08-28T10:16:18Z</time>
      </trkpt>
      <trkpt lat="45.15581" lon="6.07144">
        <ele>1195</ele>
        <time>2021-08-28T10:16:22Z</time>
      </trkpt>
      <trkpt lat="45.15588" lon="6.07153">
        <ele>1195.6</ele>
        <time>2021-08-28T10:16:26Z</time>
      </trkpt>
      <trkpt lat="45.15595" lon="6.07162">
        <ele>1196.8</ele>
        <time>2021-08-28T10:16:30Z</time>
      </trkpt>
      <trkpt lat="45.15603" lon="6.07171">
        <ele>1197.2</ele>
        <time>2021-08-28T10:16:34Z</time>
      </trkpt>
      <trkpt lat="45.15611" lon="6.0718">
        <ele>1198.8</ele>
        <time>2021-08-28T10:16:38Z</time>
      </trkpt>
      <trkpt lat="45.15619" lon="6.07189">
        <ele>1200</ele>
        <time>2021-08-28T10:16:42Z</time>
      </trkpt>
      <trkpt lat="45.15627" lon="6.07197">
        <ele>1201</ele>
        <time>2021-08-28T10:16:46Z</time>
      </trkpt>
      <trkpt lat="45.15636" lon="6.07203">
        <ele>1201.8</ele>
        <time>2021-08-28T10:16:50Z</time>
      </trkpt>
      <trkpt lat="45.15644" lon="6.07209">
        <ele>1202.8</ele>
        <time>2021-08-28T10:16:54Z</time>
      </trkpt>
      <trkpt lat="45.15654" lon="6.07217">
        <ele>1203.8</ele>
        <time>2021-08-28T10:16:58Z</time>
      </trkpt>
      <trkpt lat="45.15663" lon="6.07221">
        <ele>1204</ele>
        <time>2021-08-28T10:17:02Z</time>
      </trkpt>
      <trkpt lat="45.15672" lon="6.07227">
        <ele>1205.2</ele>
        <time>2021-08-28T10:17:06Z</time>
      </trkpt>
      <trkpt lat="45.15681" lon="6.07232">
        <ele>1205.6</ele>
        <time>2021-08-28T10:17:10Z</time>
      </trkpt>
      <trkpt lat="45.1569" lon="6.07236">
        <ele>1207.4</ele>
        <time>2021-08-28T10:17:14Z</time>
      </trkpt>
      <trkpt lat="45.15699" lon="6.07239">
        <ele>1207.6</ele>
        <time>2021-08-28T10:17:18Z</time>
      </trkpt>
      <trkpt lat="45.15705" lon="6.07249">
        <ele>1208.6</ele>
        <time>2021-08-28T10:17:22Z</time>
      </trkpt>
      <trkpt lat="45.15709" lon="6.07263">
        <ele>1210</ele>
        <time>2021-08-28T10:17:26Z</time>
      </trkpt>
      <trkpt lat="45.15713" lon="6.07278">
        <ele>1210.4</ele>
        <time>2021-08-28T10:17:30Z</time>
      </trkpt>
      <trkpt lat="45.15717" lon="6.0729">
        <ele>1210.8</ele>
        <time>2021-08-28T10:17:34Z</time>
      </trkpt>
      <trkpt lat="45.15722" lon="6.07301">
        <ele>1211.6</ele>
        <time>2021-08-28T10:17:38Z</time>
      </trkpt>
      <trkpt lat="45.15729" lon="6.0731">
        <ele>1213</ele>
        <time>2021-08-28T10:17:42Z</time>
      </trkpt>
      <trkpt lat="45.15737" lon="6.07316">
        <ele>1213.8</ele>
        <time>2021-08-28T10:17:46Z</time>
      </trkpt>
      <trkpt lat="45.15744" lon="6.07322">
        <ele>1215</ele>
        <time>2021-08-28T10:17:50Z</time>
      </trkpt>
      <trkpt lat="45.1575" lon="6.07328">
        <ele>1216</ele>
        <time>2021-08-28T10:17:54Z</time>
      </trkpt>
      <trkpt lat="45.15755" lon="6.07339">
        <ele>1217.4</ele>
        <time>2021-08-28T10:17:58Z</time>
      </trkpt>
      <trkpt lat="45.15758" lon="6.07351">
        <ele>1218</ele>
        <time>2021-08-28T10:18:02Z</time>
      </trkpt>
      <trkpt lat="45.1576" lon="6.07363">
        <ele>1219.6</ele>
        <time>2021-08-28T10:18:06Z</time>
      </trkpt>
      <trkpt lat="45.15762" lon="6.07376">
        <ele>1220.6</ele>
        <time>2021-08-28T10:18:10Z</time>
      </trkpt>
      <trkpt lat="45.15763" lon="6.07387">
        <ele>1221.4</ele>
        <time>2021-08-28T10:18:14Z</time>
      </trkpt>
      <trkpt lat="45.15764" lon="6.07399">
        <ele>1222.4</ele>
        <time>2021-08-28T10:18:18Z</time>
      </trkpt>
      <trkpt lat="45.15765" lon="6.07412">
        <ele>1223.4</ele>
        <time>2021-08-28T10:18:22Z</time>
      </trkpt>
      <trkpt lat="45.15766" lon="6.07424">
        <ele>1224.2</ele>
        <time>2021-08-28T10:18:26Z</time>
      </trkpt>
      <trkpt lat="45.15768" lon="6.07436">
        <ele>1224.6</ele>
        <time>2021-08-28T10:18:30Z</time>
      </trkpt>
      <trkpt lat="45.15773" lon="6.07449">
        <ele>1225.6</ele>
        <time>2021-08-28T10:18:34Z</time>
      </trkpt>
      <trkpt lat="45.15782" lon="6.07458">
        <ele>1225.6</ele>
        <time>2021-08-28T10:18:38Z</time>
      </trkpt>
      <trkpt lat="45.15794" lon="6.07465">
        <ele>1226.2</ele>
        <time>2021-08-28T10:18:42Z</time>
      </trkpt>
      <trkpt lat="45.15804" lon="6.07473">
        <ele>1226.6</ele>
        <time>2021-08-28T10:18:46Z</time>
      </trkpt>
      <trkpt lat="45.15815" lon="6.07481">
        <ele>1227</ele>
        <time>2021-08-28T10:18:50Z</time>
      </trkpt>
      <trkpt lat="45.15826" lon="6.07488">
        <ele>1227.2</ele>
        <time>2021-08-28T10:18:54Z</time>
      </trkpt>
      <trkpt lat="45.15834" lon="6.075">
        <ele>1228</ele>
        <time>2021-08-28T10:18:58Z</time>
      </trkpt>
      <trkpt lat="45.1584" lon="6.0751">
        <ele>1228.6</ele>
        <time>2021-08-28T10:19:02Z</time>
      </trkpt>
      <trkpt lat="45.15844" lon="6.0752">
        <ele>1230.4</ele>
        <time>2021-08-28T10:19:06Z</time>
      </trkpt>
      <trkpt lat="45.15844" lon="6.07532">
        <ele>1230.2</ele>
        <time>2021-08-28T10:19:10Z</time>
      </trkpt>
      <trkpt lat="45.15841" lon="6.07543">
        <ele>1232.6</ele>
        <time>2021-08-28T10:19:14Z</time>
      </trkpt>
      <trkpt lat="45.15831" lon="6.0755">
        <ele>1234.2</ele>
        <time>2021-08-28T10:19:18Z</time>
      </trkpt>
      <trkpt lat="45.15821" lon="6.07558">
        <ele>1234.6</ele>
        <time>2021-08-28T10:19:22Z</time>
      </trkpt>
      <trkpt lat="45.15811" lon="6.07563">
        <ele>1236</ele>
        <time>2021-08-28T10:19:26Z</time>
      </trkpt>
      <trkpt lat="45.15801" lon="6.0757">
        <ele>1237</ele>
        <time>2021-08-28T10:19:30Z</time>
      </trkpt>
      <trkpt lat="45.15792" lon="6.07577">
        <ele>1237.6</ele>
        <time>2021-08-28T10:19:34Z</time>
      </trkpt>
      <trkpt lat="45.15783" lon="6.07584">
        <ele>1238.2</ele>
        <time>2021-08-28T10:19:38Z</time>
      </trkpt>
      <trkpt lat="45.15775" lon="6.07594">
        <ele>1239.4</ele>
        <time>2021-08-28T10:19:42Z</time>
      </trkpt>
      <trkpt lat="45.15771" lon="6.07606">
        <ele>1240.4</ele>
        <time>2021-08-28T10:19:46Z</time>
      </trkpt>
      <trkpt lat="45.15768" lon="6.07619">
        <ele>1241.6</ele>
        <time>2021-08-28T10:19:50Z</time>
      </trkpt>
      <trkpt lat="45.15768" lon="6.07632">
        <ele>1242.4</ele>
        <time>2021-08-28T10:19:54Z</time>
      </trkpt>
      <trkpt lat="45.1577" lon="6.07645">
        <ele>1243.2</ele>
        <time>2021-08-28T10:19:58Z</time>
      </trkpt>
      <trkpt lat="45.15768" lon="6.07657">
        <ele>1245.2</ele>
        <time>2021-08-28T10:20:02Z</time>
      </trkpt>
      <trkpt lat="45.15766" lon="6.07671">
        <ele>1246</ele>
        <time>2021-08-28T10:20:06Z</time>
      </trkpt>
      <trkpt lat="45.1577" lon="6.07684">
        <ele>1246.4</ele>
        <time>2021-08-28T10:20:10Z</time>
      </trkpt>
      <trkpt lat="45.15769" lon="6.077">
        <ele>1247.6</ele>
        <time>2021-08-28T10:20:14Z</time>
      </trkpt>
      <trkpt lat="45.15767" lon="6.07716">
        <ele>1248.4</ele>
        <time>2021-08-28T10:20:18Z</time>
      </trkpt>
      <trkpt lat="45.15764" lon="6.07731">
        <ele>1248.2</ele>
        <time>2021-08-28T10:20:22Z</time>
      </trkpt>
      <trkpt lat="45.15762" lon="6.07749">
        <ele>1248.8</ele>
        <time>2021-08-28T10:20:26Z</time>
      </trkpt>
      <trkpt lat="45.15758" lon="6.0777">
        <ele>1249</ele>
        <time>2021-08-28T10:20:30Z</time>
      </trkpt>
      <trkpt lat="45.15757" lon="6.07789">
        <ele>1249.2</ele>
        <time>2021-08-28T10:20:34Z</time>
      </trkpt>
      <trkpt lat="45.15758" lon="6.0781">
        <ele>1250.2</ele>
        <time>2021-08-28T10:20:38Z</time>
      </trkpt>
      <trkpt lat="45.15764" lon="6.07829">
        <ele>1251</ele>
        <time>2021-08-28T10:20:42Z</time>
      </trkpt>
      <trkpt lat="45.15774" lon="6.07841">
        <ele>1252</ele>
        <time>2021-08-28T10:20:46Z</time>
      </trkpt>
      <trkpt lat="45.1578" lon="6.07855">
        <ele>1252.8</ele>
        <time>2021-08-28T10:20:50Z</time>
      </trkpt>
      <trkpt lat="45.15787" lon="6.07871">
        <ele>1254.2</ele>
        <time>2021-08-28T10:20:54Z</time>
      </trkpt>
      <trkpt lat="45.15794" lon="6.07884">
        <ele>1255.4</ele>
        <time>2021-08-28T10:20:58Z</time>
      </trkpt>
      <trkpt lat="45.158" lon="6.079">
        <ele>1256.2</ele>
        <time>2021-08-28T10:21:02Z</time>
      </trkpt>
      <trkpt lat="45.15804" lon="6.0792">
        <ele>1257.8</ele>
        <time>2021-08-28T10:21:06Z</time>
      </trkpt>
      <trkpt lat="45.15808" lon="6.07936">
        <ele>1258.4</ele>
        <time>2021-08-28T10:21:10Z</time>
      </trkpt>
      <trkpt lat="45.15813" lon="6.0795">
        <ele>1260</ele>
        <time>2021-08-28T10:21:14Z</time>
      </trkpt>
      <trkpt lat="45.15816" lon="6.07963">
        <ele>1260.6</ele>
        <time>2021-08-28T10:21:18Z</time>
      </trkpt>
      <trkpt lat="45.15823" lon="6.07977">
        <ele>1262</ele>
        <time>2021-08-28T10:21:22Z</time>
      </trkpt>
      <trkpt lat="45.15832" lon="6.07992">
        <ele>1262.6</ele>
        <time>2021-08-28T10:21:26Z</time>
      </trkpt>
      <trkpt lat="45.15841" lon="6.08006">
        <ele>1264.4</ele>
        <time>2021-08-28T10:21:30Z</time>
      </trkpt>
      <trkpt lat="45.15849" lon="6.08022">
        <ele>1265.2</ele>
        <time>2021-08-28T10:21:34Z</time>
      </trkpt>
      <trkpt lat="45.15851" lon="6.08038">
        <ele>1265.6</ele>
        <time>2021-08-28T10:21:38Z</time>
      </trkpt>
      <trkpt lat="45.15852" lon="6.08054">
        <ele>1266.2</ele>
        <time>2021-08-28T10:21:42Z</time>
      </trkpt>
      <trkpt lat="45.1585" lon="6.0807">
        <ele>1267.8</ele>
        <time>2021-08-28T10:21:46Z</time>
      </trkpt>
      <trkpt lat="45.15852" lon="6.08086">
        <ele>1268.8</ele>
        <time>2021-08-28T10:21:50Z</time>
      </trkpt>
      <trkpt lat="45.15859" lon="6.081">
        <ele>1270.2</ele>
        <time>2021-08-28T10:21:54Z</time>
      </trkpt>
      <trkpt lat="45.15865" lon="6.08114">
        <ele>1271.4</ele>
        <time>2021-08-28T10:21:58Z</time>
      </trkpt>
      <trkpt lat="45.15872" lon="6.08125">
        <ele>1272.4</ele>
        <time>2021-08-28T10:22:02Z</time>
      </trkpt>
      <trkpt lat="45.1588" lon="6.08135">
        <ele>1273</ele>
        <time>2021-08-28T10:22:06Z</time>
      </trkpt>
      <trkpt lat="45.15888" lon="6.08142">
        <ele>1273.4</ele>
        <time>2021-08-28T10:22:10Z</time>
      </trkpt>
      <trkpt lat="45.15897" lon="6.0815">
        <ele>1274.8</ele>
        <time>2021-08-28T10:22:14Z</time>
      </trkpt>
      <trkpt lat="45.15906" lon="6.08159">
        <ele>1276.2</ele>
        <time>2021-08-28T10:22:18Z</time>
      </trkpt>
      <trkpt lat="45.15915" lon="6.0817">
        <ele>1277.2</ele>
        <time>2021-08-28T10:22:22Z</time>
      </trkpt>
      <trkpt lat="45.15922" lon="6.08184">
        <ele>1278.4</ele>
        <time>2021-08-28T10:22:26Z</time>
      </trkpt>
      <trkpt lat="45.15929" lon="6.08197">
        <ele>1279.6</ele>
        <time>2021-08-28T10:22:30Z</time>
      </trkpt>
      <trkpt lat="45.15937" lon="6.08209">
        <ele>1279.8</ele>
        <time>2021-08-28T10:22:34Z</time>
      </trkpt>
      <trkpt lat="45.15945" lon="6.08222">
        <ele>1281.2</ele>
        <time>2021-08-28T10:22:38Z</time>
      </trkpt>
      <trkpt lat="45.15954" lon="6.08232">
        <ele>1281.8</ele>
        <time>2021-08-28T10:22:42Z</time>
      </trkpt>
      <trkpt lat="45.15961" lon="6.08244">
        <ele>1282.8</ele>
        <time>2021-08-28T10:22:46Z</time>
      </trkpt>
      <trkpt lat="45.15968" lon="6.08254">
        <ele>1283.2</ele>
        <time>2021-08-28T10:22:50Z</time>
      </trkpt>
      <trkpt lat="45.15976" lon="6.08265">
        <ele>1285</ele>
        <time>2021-08-28T10:22:54Z</time>
      </trkpt>
      <trkpt lat="45.15983" lon="6.08277">
        <ele>1285.2</ele>
        <time>2021-08-28T10:22:58Z</time>
      </trkpt>
      <trkpt lat="45.1599" lon="6.08288">
        <ele>1286.2</ele>
        <time>2021-08-28T10:23:02Z</time>
      </trkpt>
      <trkpt lat="45.15999" lon="6.08299">
        <ele>1288</ele>
        <time>2021-08-28T10:23:06Z</time>
      </trkpt>
      <trkpt lat="45.16005" lon="6.08308">
        <ele>1288.8</ele>
        <time>2021-08-28T10:23:10Z</time>
      </trkpt>
      <trkpt lat="45.16012" lon="6.08319">
        <ele>1289.8</ele>
        <time>2021-08-28T10:23:14Z</time>
      </trkpt>
      <trkpt lat="45.16018" lon="6.08328">
        <ele>1290.8</ele>
        <time>2021-08-28T10:23:18Z</time>
      </trkpt>
      <trkpt lat="45.16028" lon="6.08337">
        <ele>1292</ele>
        <time>2021-08-28T10:23:22Z</time>
      </trkpt>
      <trkpt lat="45.16036" lon="6.08348">
        <ele>1293.4</ele>
        <time>2021-08-28T10:23:26Z</time>
      </trkpt>
      <trkpt lat="45.16043" lon="6.08362">
        <ele>1294.6</ele>
        <time>2021-08-28T10:23:30Z</time>
      </trkpt>
      <trkpt lat="45.16053" lon="6.08374">
        <ele>1295.2</ele>
        <time>2021-08-28T10:23:34Z</time>
      </trkpt>
      <trkpt lat="45.16064" lon="6.08387">
        <ele>1295.8</ele>
        <time>2021-08-28T10:23:38Z</time>
      </trkpt>
      <trkpt lat="45.16072" lon="6.08398">
        <ele>1297.2</ele>
        <time>2021-08-28T10:23:42Z</time>
      </trkpt>
      <trkpt lat="45.16079" lon="6.08409">
        <ele>1297.2</ele>
        <time>2021-08-28T10:23:46Z</time>
      </trkpt>
      <trkpt lat="45.16085" lon="6.08418">
        <ele>1298.6</ele>
        <time>2021-08-28T10:23:50Z</time>
      </trkpt>
      <trkpt lat="45.16093" lon="6.08427">
        <ele>1300</ele>
        <time>2021-08-28T10:23:54Z</time>
      </trkpt>
      <trkpt lat="45.161" lon="6.08439">
        <ele>1300.2</ele>
        <time>2021-08-28T10:23:58Z</time>
      </trkpt>
      <trkpt lat="45.16105" lon="6.08446">
        <ele>1301.8</ele>
        <time>2021-08-28T10:24:02Z</time>
      </trkpt>
      <trkpt lat="45.16114" lon="6.08454">
        <ele>1302.4</ele>
        <time>2021-08-28T10:24:06Z</time>
      </trkpt>
      <trkpt lat="45.16123" lon="6.08463">
        <ele>1303.4</ele>
        <time>2021-08-28T10:24:10Z</time>
      </trkpt>
      <trkpt lat="45.16131" lon="6.08474">
        <ele>1304.2</ele>
        <time>2021-08-28T10:24:14Z</time>
      </trkpt>
      <trkpt lat="45.1614" lon="6.08481">
        <ele>1305.2</ele>
        <time>2021-08-28T10:24:18Z</time>
      </trkpt>
      <trkpt lat="45.16148" lon="6.08489">
        <ele>1306.4</ele>
        <time>2021-08-28T10:24:22Z</time>
      </trkpt>
      <trkpt lat="45.16157" lon="6.08498">
        <ele>1306.8</ele>
        <time>2021-08-28T10:24:26Z</time>
      </trkpt>
      <trkpt lat="45.16166" lon="6.08507">
        <ele>1308.4</ele>
        <time>2021-08-28T10:24:30Z</time>
      </trkpt>
      <trkpt lat="45.16176" lon="6.08517">
        <ele>1309</ele>
        <time>2021-08-28T10:24:34Z</time>
      </trkpt>
      <trkpt lat="45.16186" lon="6.08525">
        <ele>1310.2</ele>
        <time>2021-08-28T10:24:38Z</time>
      </trkpt>
      <trkpt lat="45.16192" lon="6.08533">
        <ele>1310.8</ele>
        <time>2021-08-28T10:24:42Z</time>
      </trkpt>
      <trkpt lat="45.162" lon="6.08543">
        <ele>1311</ele>
        <time>2021-08-28T10:24:46Z</time>
      </trkpt>
      <trkpt lat="45.16207" lon="6.08553">
        <ele>1312.4</ele>
        <time>2021-08-28T10:24:50Z</time>
      </trkpt>
      <trkpt lat="45.16215" lon="6.08563">
        <ele>1312.8</ele>
        <time>2021-08-28T10:24:54Z</time>
      </trkpt>
      <trkpt lat="45.16226" lon="6.08572">
        <ele>1314</ele>
        <time>2021-08-28T10:24:58Z</time>
      </trkpt>
      <trkpt lat="45.16234" lon="6.08579">
        <ele>1315.2</ele>
        <time>2021-08-28T10:25:02Z</time>
      </trkpt>
      <trkpt lat="45.16242" lon="6.08585">
        <ele>1316.2</ele>
        <time>2021-08-28T10:25:06Z</time>
      </trkpt>
      <trkpt lat="45.16253" lon="6.08595">
        <ele>1316.4</ele>
        <time>2021-08-28T10:25:10Z</time>
      </trkpt>
      <trkpt lat="45.16263" lon="6.08607">
        <ele>1317.4</ele>
        <time>2021-08-28T10:25:14Z</time>
      </trkpt>
      <trkpt lat="45.16267" lon="6.08617">
        <ele>1319</ele>
        <time>2021-08-28T10:25:18Z</time>
      </trkpt>
      <trkpt lat="45.16273" lon="6.0863">
        <ele>1319.8</ele>
        <time>2021-08-28T10:25:22Z</time>
      </trkpt>
      <trkpt lat="45.1628" lon="6.08638">
        <ele>1321.4</ele>
        <time>2021-08-28T10:25:26Z</time>
      </trkpt>
      <trkpt lat="45.16293" lon="6.08648">
        <ele>1322.2</ele>
        <time>2021-08-28T10:25:30Z</time>
      </trkpt>
      <trkpt lat="45.16305" lon="6.08649">
        <ele>1322.4</ele>
        <time>2021-08-28T10:25:34Z</time>
      </trkpt>
      <trkpt lat="45.16317" lon="6.08654">
        <ele>1324.4</ele>
        <time>2021-08-28T10:25:38Z</time>
      </trkpt>
      <trkpt lat="45.16331" lon="6.08658">
        <ele>1324.8</ele>
        <time>2021-08-28T10:25:42Z</time>
      </trkpt>
      <trkpt lat="45.16344" lon="6.08666">
        <ele>1325.8</ele>
        <time>2021-08-28T10:25:46Z</time>
      </trkpt>
      <trkpt lat="45.16351" lon="6.08683">
        <ele>1326</ele>
        <time>2021-08-28T10:25:50Z</time>
      </trkpt>
      <trkpt lat="45.16346" lon="6.08698">
        <ele>1326.2</ele>
        <time>2021-08-28T10:25:54Z</time>
      </trkpt>
      <trkpt lat="45.16333" lon="6.08703">
        <ele>1326</ele>
        <time>2021-08-28T10:25:58Z</time>
      </trkpt>
      <trkpt lat="45.16325" lon="6.0872">
        <ele>1326</ele>
        <time>2021-08-28T10:26:02Z</time>
      </trkpt>
      <trkpt lat="45.1633" lon="6.08746">
        <ele>1325.8</ele>
        <time>2021-08-28T10:26:06Z</time>
      </trkpt>
      <trkpt lat="45.16339" lon="6.0877">
        <ele>1325.2</ele>
        <time>2021-08-28T10:26:10Z</time>
      </trkpt>
      <trkpt lat="45.16351" lon="6.08792">
        <ele>1324.6</ele>
        <time>2021-08-28T10:26:14Z</time>
      </trkpt>
      <trkpt lat="45.16362" lon="6.08817">
        <ele>1323.4</ele>
        <time>2021-08-28T10:26:18Z</time>
      </trkpt>
      <trkpt lat="45.16367" lon="6.08849">
        <ele>1323.6</ele>
        <time>2021-08-28T10:26:22Z</time>
      </trkpt>
      <trkpt lat="45.16371" lon="6.08883">
        <ele>1323.2</ele>
        <time>2021-08-28T10:26:26Z</time>
      </trkpt>
      <trkpt lat="45.16374" lon="6.08917">
        <ele>1323</ele>
        <time>2021-08-28T10:26:30Z</time>
      </trkpt>
      <trkpt lat="45.16381" lon="6.08946">
        <ele>1324.4</ele>
        <time>2021-08-28T10:26:34Z</time>
      </trkpt>
      <trkpt lat="45.1639" lon="6.08966">
        <ele>1326.4</ele>
        <time>2021-08-28T10:26:38Z</time>
      </trkpt>
      <trkpt lat="45.16396" lon="6.08976">
        <ele>1326.8</ele>
        <time>2021-08-28T10:26:42Z</time>
      </trkpt>
      <trkpt lat="45.16403" lon="6.08982">
        <ele>1328</ele>
        <time>2021-08-28T10:26:46Z</time>
      </trkpt>
      <trkpt lat="45.16409" lon="6.08994">
        <ele>1329.4</ele>
        <time>2021-08-28T10:26:50Z</time>
      </trkpt>
      <trkpt lat="45.16412" lon="6.09008">
        <ele>1329.6</ele>
        <time>2021-08-28T10:26:54Z</time>
      </trkpt>
      <trkpt lat="45.16419" lon="6.09014">
        <ele>1331.2</ele>
        <time>2021-08-28T10:26:58Z</time>
      </trkpt>
      <trkpt lat="45.16423" lon="6.09004">
        <ele>1332</ele>
        <time>2021-08-28T10:27:02Z</time>
      </trkpt>
      <trkpt lat="45.16425" lon="6.08991">
        <ele>1332.8</ele>
        <time>2021-08-28T10:27:06Z</time>
      </trkpt>
      <trkpt lat="45.1643" lon="6.08981">
        <ele>1333.6</ele>
        <time>2021-08-28T10:27:10Z</time>
      </trkpt>
      <trkpt lat="45.16435" lon="6.0897">
        <ele>1334.8</ele>
        <time>2021-08-28T10:27:14Z</time>
      </trkpt>
      <trkpt lat="45.1644" lon="6.08956">
        <ele>1334.8</ele>
        <time>2021-08-28T10:27:18Z</time>
      </trkpt>
      <trkpt lat="45.16441" lon="6.08939">
        <ele>1336.8</ele>
        <time>2021-08-28T10:27:22Z</time>
      </trkpt>
      <trkpt lat="45.1644" lon="6.08923">
        <ele>1336.8</ele>
        <time>2021-08-28T10:27:26Z</time>
      </trkpt>
      <trkpt lat="45.1644" lon="6.08907">
        <ele>1338</ele>
        <time>2021-08-28T10:27:30Z</time>
      </trkpt>
      <trkpt lat="45.16441" lon="6.08891">
        <ele>1338.8</ele>
        <time>2021-08-28T10:27:34Z</time>
      </trkpt>
      <trkpt lat="45.16441" lon="6.08876">
        <ele>1339.2</ele>
        <time>2021-08-28T10:27:38Z</time>
      </trkpt>
      <trkpt lat="45.16441" lon="6.08861">
        <ele>1340.6</ele>
        <time>2021-08-28T10:27:42Z</time>
      </trkpt>
      <trkpt lat="45.16441" lon="6.08847">
        <ele>1342</ele>
        <time>2021-08-28T10:27:46Z</time>
      </trkpt>
      <trkpt lat="45.16447" lon="6.08836">
        <ele>1341.8</ele>
        <time>2021-08-28T10:27:50Z</time>
      </trkpt>
      <trkpt lat="45.16456" lon="6.08838">
        <ele>1343.6</ele>
        <time>2021-08-28T10:27:54Z</time>
      </trkpt>
      <trkpt lat="45.1646" lon="6.08848">
        <ele>1344.2</ele>
        <time>2021-08-28T10:27:58Z</time>
      </trkpt>
      <trkpt lat="45.16465" lon="6.08859">
        <ele>1345.8</ele>
        <time>2021-08-28T10:28:02Z</time>
      </trkpt>
      <trkpt lat="45.16471" lon="6.0887">
        <ele>1346.8</ele>
        <time>2021-08-28T10:28:06Z</time>
      </trkpt>
      <trkpt lat="45.16477" lon="6.0888">
        <ele>1347.2</ele>
        <time>2021-08-28T10:28:10Z</time>
      </trkpt>
      <trkpt lat="45.1648" lon="6.08893">
        <ele>1348</ele>
        <time>2021-08-28T10:28:14Z</time>
      </trkpt>
      <trkpt lat="45.16484" lon="6.08906">
        <ele>1349.8</ele>
        <time>2021-08-28T10:28:18Z</time>
      </trkpt>
      <trkpt lat="45.16488" lon="6.08919">
        <ele>1350.4</ele>
        <time>2021-08-28T10:28:22Z</time>
      </trkpt>
      <trkpt lat="45.16493" lon="6.08932">
        <ele>1351.8</ele>
        <time>2021-08-28T10:28:26Z</time>
      </trkpt>
      <trkpt lat="45.165" lon="6.08942">
        <ele>1353</ele>
        <time>2021-08-28T10:28:30Z</time>
      </trkpt>
      <trkpt lat="45.16506" lon="6.08951">
        <ele>1353.2</ele>
        <time>2021-08-28T10:28:34Z</time>
      </trkpt>
      <trkpt lat="45.16512" lon="6.0896">
        <ele>1354.8</ele>
        <time>2021-08-28T10:28:38Z</time>
      </trkpt>
      <trkpt lat="45.16517" lon="6.0897">
        <ele>1356</ele>
        <time>2021-08-28T10:28:42Z</time>
      </trkpt>
      <trkpt lat="45.16523" lon="6.08978">
        <ele>1357.4</ele>
        <time>2021-08-28T10:28:46Z</time>
      </trkpt>
      <trkpt lat="45.16531" lon="6.08987">
        <ele>1358.4</ele>
        <time>2021-08-28T10:28:50Z</time>
      </trkpt>
      <trkpt lat="45.16536" lon="6.08995">
        <ele>1358.8</ele>
        <time>2021-08-28T10:28:54Z</time>
      </trkpt>
      <trkpt lat="45.16542" lon="6.09005">
        <ele>1360.2</ele>
        <time>2021-08-28T10:28:58Z</time>
      </trkpt>
      <trkpt lat="45.16547" lon="6.09014">
        <ele>1360.6</ele>
        <time>2021-08-28T10:29:02Z</time>
      </trkpt>
      <trkpt lat="45.1655" lon="6.09024">
        <ele>1362</ele>
        <time>2021-08-28T10:29:06Z</time>
      </trkpt>
      <trkpt lat="45.16554" lon="6.09034">
        <ele>1363.6</ele>
        <time>2021-08-28T10:29:10Z</time>
      </trkpt>
      <trkpt lat="45.1656" lon="6.09044">
        <ele>1364.2</ele>
        <time>2021-08-28T10:29:14Z</time>
      </trkpt>
      <trkpt lat="45.16565" lon="6.09057">
        <ele>1366</ele>
        <time>2021-08-28T10:29:18Z</time>
      </trkpt>
      <trkpt lat="45.16571" lon="6.09068">
        <ele>1366.8</ele>
        <time>2021-08-28T10:29:22Z</time>
      </trkpt>
      <trkpt lat="45.16575" lon="6.09081">
        <ele>1367.2</ele>
        <time>2021-08-28T10:29:26Z</time>
      </trkpt>
      <trkpt lat="45.16579" lon="6.0909">
        <ele>1369</ele>
        <time>2021-08-28T10:29:30Z</time>
      </trkpt>
      <trkpt lat="45.16584" lon="6.09101">
        <ele>1370</ele>
        <time>2021-08-28T10:29:34Z</time>
      </trkpt>
      <trkpt lat="45.16589" lon="6.09111">
        <ele>1371</ele>
        <time>2021-08-28T10:29:38Z</time>
      </trkpt>
      <trkpt lat="45.16594" lon="6.09121">
        <ele>1372</ele>
        <time>2021-08-28T10:29:42Z</time>
      </trkpt>
      <trkpt lat="45.166" lon="6.09129">
        <ele>1372.6</ele>
        <time>2021-08-28T10:29:46Z</time>
      </trkpt>
      <trkpt lat="45.16606" lon="6.09137">
        <ele>1374</ele>
        <time>2021-08-28T10:29:50Z</time>
      </trkpt>
      <trkpt lat="45.16611" lon="6.09146">
        <ele>1374.4</ele>
        <time>2021-08-28T10:29:54Z</time>
      </trkpt>
      <trkpt lat="45.16615" lon="6.09156">
        <ele>1376.4</ele>
        <time>2021-08-28T10:29:58Z</time>
      </trkpt>
      <trkpt lat="45.16619" lon="6.09166">
        <ele>1377.6</ele>
        <time>2021-08-28T10:30:02Z</time>
      </trkpt>
      <trkpt lat="45.16624" lon="6.09177">
        <ele>1379</ele>
        <time>2021-08-28T10:30:06Z</time>
      </trkpt>
      <trkpt lat="45.1663" lon="6.09188">
        <ele>1380.2</ele>
        <time>2021-08-28T10:30:10Z</time>
      </trkpt>
      <trkpt lat="45.16635" lon="6.09198">
        <ele>1381.4</ele>
        <time>2021-08-28T10:30:14Z</time>
      </trkpt>
      <trkpt lat="45.16639" lon="6.09208">
        <ele>1382.2</ele>
        <time>2021-08-28T10:30:18Z</time>
      </trkpt>
      <trkpt lat="45.16645" lon="6.09217">
        <ele>1382.6</ele>
        <time>2021-08-28T10:30:22Z</time>
      </trkpt>
      <trkpt lat="45.16649" lon="6.09227">
        <ele>1384.4</ele>
        <time>2021-08-28T10:30:26Z</time>
      </trkpt>
      <trkpt lat="45.16654" lon="6.09236">
        <ele>1385.4</ele>
        <time>2021-08-28T10:30:30Z</time>
      </trkpt>
      <trkpt lat="45.1666" lon="6.09246">
        <ele>1386.4</ele>
        <time>2021-08-28T10:30:34Z</time>
      </trkpt>
      <trkpt lat="45.16664" lon="6.09254">
        <ele>1387</ele>
        <time>2021-08-28T10:30:38Z</time>
      </trkpt>
      <trkpt lat="45.1667" lon="6.09261">
        <ele>1387.4</ele>
        <time>2021-08-28T10:30:42Z</time>
      </trkpt>
      <trkpt lat="45.16677" lon="6.09267">
        <ele>1388.4</ele>
        <time>2021-08-28T10:30:46Z</time>
      </trkpt>
      <trkpt lat="45.16683" lon="6.09275">
        <ele>1389.2</ele>
        <time>2021-08-28T10:30:50Z</time>
      </trkpt>
      <trkpt lat="45.16688" lon="6.09282">
        <ele>1390</ele>
        <time>2021-08-28T10:30:54Z</time>
      </trkpt>
      <trkpt lat="45.16693" lon="6.09289">
        <ele>1391.6</ele>
        <time>2021-08-28T10:30:58Z</time>
      </trkpt>
      <trkpt lat="45.16698" lon="6.09297">
        <ele>1392.4</ele>
        <time>2021-08-28T10:31:02Z</time>
      </trkpt>
      <trkpt lat="45.16702" lon="6.09307">
        <ele>1393.2</ele>
        <time>2021-08-28T10:31:06Z</time>
      </trkpt>
      <trkpt lat="45.16707" lon="6.09316">
        <ele>1394.2</ele>
        <time>2021-08-28T10:31:10Z</time>
      </trkpt>
      <trkpt lat="45.16712" lon="6.09324">
        <ele>1395.6</ele>
        <time>2021-08-28T10:31:14Z</time>
      </trkpt>
      <trkpt lat="45.16716" lon="6.09332">
        <ele>1396.4</ele>
        <time>2021-08-28T10:31:18Z</time>
      </trkpt>
      <trkpt lat="45.16721" lon="6.09342">
        <ele>1397.4</ele>
        <time>2021-08-28T10:31:22Z</time>
      </trkpt>
      <trkpt lat="45.16725" lon="6.0935">
        <ele>1398</ele>
        <time>2021-08-28T10:31:26Z</time>
      </trkpt>
      <trkpt lat="45.1673" lon="6.0936">
        <ele>1399</ele>
        <time>2021-08-28T10:31:30Z</time>
      </trkpt>
      <trkpt lat="45.16734" lon="6.09369">
        <ele>1400</ele>
        <time>2021-08-28T10:31:34Z</time>
      </trkpt>
      <trkpt lat="45.16739" lon="6.09379">
        <ele>1400.8</ele>
        <time>2021-08-28T10:31:38Z</time>
      </trkpt>
      <trkpt lat="45.16744" lon="6.09388">
        <ele>1401.6</ele>
        <time>2021-08-28T10:31:42Z</time>
      </trkpt>
      <trkpt lat="45.16751" lon="6.09396">
        <ele>1402.8</ele>
        <time>2021-08-28T10:31:46Z</time>
      </trkpt>
      <trkpt lat="45.16757" lon="6.09405">
        <ele>1403.2</ele>
        <time>2021-08-28T10:31:50Z</time>
      </trkpt>
      <trkpt lat="45.16764" lon="6.09411">
        <ele>1404.8</ele>
        <time>2021-08-28T10:31:54Z</time>
      </trkpt>
      <trkpt lat="45.16764" lon="6.09411">
        <ele>1404.8</ele>
        <time>2021-08-28T10:31:58Z</time>
      </trkpt>
      <trkpt lat="45.16782" lon="6.09417">
        <ele>1406.4</ele>
        <time>2021-08-28T10:32:02Z</time>
      </trkpt>
      <trkpt lat="45.16791" lon="6.09417">
        <ele>1407.2</ele>
        <time>2021-08-28T10:32:06Z</time>
      </trkpt>
      <trkpt lat="45.168" lon="6.09417">
        <ele>1408.4</ele>
        <time>2021-08-28T10:32:10Z</time>
      </trkpt>
      <trkpt lat="45.1681" lon="6.09418">
        <ele>1408.8</ele>
        <time>2021-08-28T10:32:14Z</time>
      </trkpt>
      <trkpt lat="45.16819" lon="6.09419">
        <ele>1409.6</ele>
        <time>2021-08-28T10:32:18Z</time>
      </trkpt>
      <trkpt lat="45.16828" lon="6.09421">
        <ele>1409.8</ele>
        <time>2021-08-28T10:32:22Z</time>
      </trkpt>
      <trkpt lat="45.16836" lon="6.09424">
        <ele>1411.8</ele>
        <time>2021-08-28T10:32:26Z</time>
      </trkpt>
      <trkpt lat="45.16843" lon="6.09428">
        <ele>1412.8</ele>
        <time>2021-08-28T10:32:30Z</time>
      </trkpt>
      <trkpt lat="45.16851" lon="6.09432">
        <ele>1414</ele>
        <time>2021-08-28T10:32:34Z</time>
      </trkpt>
      <trkpt lat="45.1686" lon="6.09434">
        <ele>1415</ele>
        <time>2021-08-28T10:32:38Z</time>
      </trkpt>
      <trkpt lat="45.16868" lon="6.09438">
        <ele>1415.4</ele>
        <time>2021-08-28T10:32:42Z</time>
      </trkpt>
      <trkpt lat="45.16877" lon="6.0944">
        <ele>1417.2</ele>
        <time>2021-08-28T10:32:46Z</time>
      </trkpt>
      <trkpt lat="45.16886" lon="6.09444">
        <ele>1418</ele>
        <time>2021-08-28T10:32:50Z</time>
      </trkpt>
      <trkpt lat="45.16894" lon="6.09448">
        <ele>1418.6</ele>
        <time>2021-08-28T10:32:54Z</time>
      </trkpt>
      <trkpt lat="45.16902" lon="6.09451">
        <ele>1420</ele>
        <time>2021-08-28T10:32:58Z</time>
      </trkpt>
      <trkpt lat="45.1691" lon="6.09455">
        <ele>1420.6</ele>
        <time>2021-08-28T10:33:02Z</time>
      </trkpt>
      <trkpt lat="45.16918" lon="6.09459">
        <ele>1421.6</ele>
        <time>2021-08-28T10:33:06Z</time>
      </trkpt>
      <trkpt lat="45.16926" lon="6.09461">
        <ele>1422.6</ele>
        <time>2021-08-28T10:33:10Z</time>
      </trkpt>
      <trkpt lat="45.16934" lon="6.09463">
        <ele>1423.6</ele>
        <time>2021-08-28T10:33:14Z</time>
      </trkpt>
      <trkpt lat="45.16943" lon="6.09467">
        <ele>1424.4</ele>
        <time>2021-08-28T10:33:18Z</time>
      </trkpt>
      <trkpt lat="45.16952" lon="6.09471">
        <ele>1425.6</ele>
        <time>2021-08-28T10:33:22Z</time>
      </trkpt>
      <trkpt lat="45.1696" lon="6.09475">
        <ele>1426.4</ele>
        <time>2021-08-28T10:33:26Z</time>
      </trkpt>
      <trkpt lat="45.16967" lon="6.09479">
        <ele>1427.6</ele>
        <time>2021-08-28T10:33:30Z</time>
      </trkpt>
      <trkpt lat="45.16974" lon="6.09485">
        <ele>1428.8</ele>
        <time>2021-08-28T10:33:34Z</time>
      </trkpt>
      <trkpt lat="45.16981" lon="6.0949">
        <ele>1429.8</ele>
        <time>2021-08-28T10:33:38Z</time>
      </trkpt>
      <trkpt lat="45.16989" lon="6.09496">
        <ele>1430.4</ele>
        <time>2021-08-28T10:33:42Z</time>
      </trkpt>
      <trkpt lat="45.16996" lon="6.09503">
        <ele>1430.8</ele>
        <time>2021-08-28T10:33:46Z</time>
      </trkpt>
      <trkpt lat="45.17002" lon="6.09511">
        <ele>1432.4</ele>
        <time>2021-08-28T10:33:50Z</time>
      </trkpt>
      <trkpt lat="45.17008" lon="6.09519">
        <ele>1433.4</ele>
        <time>2021-08-28T10:33:54Z</time>
      </trkpt>
      <trkpt lat="45.17016" lon="6.09526">
        <ele>1434.4</ele>
        <time>2021-08-28T10:33:58Z</time>
      </trkpt>
      <trkpt lat="45.17021" lon="6.09535">
        <ele>1434.8</ele>
        <time>2021-08-28T10:34:02Z</time>
      </trkpt>
      <trkpt lat="45.17027" lon="6.09545">
        <ele>1436</ele>
        <time>2021-08-28T10:34:06Z</time>
      </trkpt>
      <trkpt lat="45.17032" lon="6.09555">
        <ele>1436.8</ele>
        <time>2021-08-28T10:34:10Z</time>
      </trkpt>
      <trkpt lat="45.17038" lon="6.09565">
        <ele>1437.6</ele>
        <time>2021-08-28T10:34:14Z</time>
      </trkpt>
      <trkpt lat="45.17042" lon="6.09576">
        <ele>1437.8</ele>
        <time>2021-08-28T10:34:18Z</time>
      </trkpt>
      <trkpt lat="45.17046" lon="6.09587">
        <ele>1439.4</ele>
        <time>2021-08-28T10:34:22Z</time>
      </trkpt>
      <trkpt lat="45.1705" lon="6.09598">
        <ele>1440.6</ele>
        <time>2021-08-28T10:34:26Z</time>
      </trkpt>
      <trkpt lat="45.17055" lon="6.09609">
        <ele>1441.4</ele>
        <time>2021-08-28T10:34:30Z</time>
      </trkpt>
      <trkpt lat="45.17064" lon="6.09613">
        <ele>1441.8</ele>
        <time>2021-08-28T10:34:34Z</time>
      </trkpt>
      <trkpt lat="45.17074" lon="6.09607">
        <ele>1442.4</ele>
        <time>2021-08-28T10:34:38Z</time>
      </trkpt>
      <trkpt lat="45.17077" lon="6.09592">
        <ele>1443</ele>
        <time>2021-08-28T10:34:42Z</time>
      </trkpt>
      <trkpt lat="45.17075" lon="6.09579">
        <ele>1443.2</ele>
        <time>2021-08-28T10:34:46Z</time>
      </trkpt>
      <trkpt lat="45.17073" lon="6.09565">
        <ele>1444.4</ele>
        <time>2021-08-28T10:34:50Z</time>
      </trkpt>
      <trkpt lat="45.17071" lon="6.09551">
        <ele>1445.8</ele>
        <time>2021-08-28T10:34:54Z</time>
      </trkpt>
      <trkpt lat="45.17072" lon="6.09537">
        <ele>1446.2</ele>
        <time>2021-08-28T10:34:58Z</time>
      </trkpt>
      <trkpt lat="45.17072" lon="6.09523">
        <ele>1447.4</ele>
        <time>2021-08-28T10:35:02Z</time>
      </trkpt>
      <trkpt lat="45.17072" lon="6.09509">
        <ele>1447.8</ele>
        <time>2021-08-28T10:35:06Z</time>
      </trkpt>
      <trkpt lat="45.17072" lon="6.09495">
        <ele>1448.6</ele>
        <time>2021-08-28T10:35:10Z</time>
      </trkpt>
      <trkpt lat="45.17072" lon="6.09482">
        <ele>1449.6</ele>
        <time>2021-08-28T10:35:14Z</time>
      </trkpt>
      <trkpt lat="45.17073" lon="6.09468">
        <ele>1450</ele>
        <time>2021-08-28T10:35:18Z</time>
      </trkpt>
      <trkpt lat="45.17072" lon="6.09455">
        <ele>1452</ele>
        <time>2021-08-28T10:35:22Z</time>
      </trkpt>
      <trkpt lat="45.17073" lon="6.09446">
        <ele>1452.6</ele>
        <time>2021-08-28T10:35:26Z</time>
      </trkpt>
      <trkpt lat="45.17072" lon="6.09434">
        <ele>1453.8</ele>
        <time>2021-08-28T10:35:30Z</time>
      </trkpt>
      <trkpt lat="45.17071" lon="6.09421">
        <ele>1454.4</ele>
        <time>2021-08-28T10:35:34Z</time>
      </trkpt>
      <trkpt lat="45.17069" lon="6.09407">
        <ele>1456</ele>
        <time>2021-08-28T10:35:38Z</time>
      </trkpt>
      <trkpt lat="45.17063" lon="6.09396">
        <ele>1457.4</ele>
        <time>2021-08-28T10:35:42Z</time>
      </trkpt>
      <trkpt lat="45.17056" lon="6.09388">
        <ele>1458</ele>
        <time>2021-08-28T10:35:46Z</time>
      </trkpt>
      <trkpt lat="45.17049" lon="6.09382">
        <ele>1458.4</ele>
        <time>2021-08-28T10:35:50Z</time>
      </trkpt>
      <trkpt lat="45.17042" lon="6.0938">
        <ele>1459.2</ele>
        <time>2021-08-28T10:35:54Z</time>
      </trkpt>
      <trkpt lat="45.17034" lon="6.09374">
        <ele>1460.4</ele>
        <time>2021-08-28T10:35:58Z</time>
      </trkpt>
      <trkpt lat="45.17026" lon="6.09368">
        <ele>1461</ele>
        <time>2021-08-28T10:36:02Z</time>
      </trkpt>
      <trkpt lat="45.17021" lon="6.0936">
        <ele>1462</ele>
        <time>2021-08-28T10:36:06Z</time>
      </trkpt>
      <trkpt lat="45.17015" lon="6.09351">
        <ele>1463.6</ele>
        <time>2021-08-28T10:36:10Z</time>
      </trkpt>
      <trkpt lat="45.17011" lon="6.0934">
        <ele>1464.4</ele>
        <time>2021-08-28T10:36:14Z</time>
      </trkpt>
      <trkpt lat="45.17009" lon="6.09329">
        <ele>1465.4</ele>
        <time>2021-08-28T10:36:18Z</time>
      </trkpt>
      <trkpt lat="45.1701" lon="6.09317">
        <ele>1466.4</ele>
        <time>2021-08-28T10:36:22Z</time>
      </trkpt>
      <trkpt lat="45.17013" lon="6.09306">
        <ele>1467.4</ele>
        <time>2021-08-28T10:36:26Z</time>
      </trkpt>
      <trkpt lat="45.17017" lon="6.09295">
        <ele>1468.8</ele>
        <time>2021-08-28T10:36:30Z</time>
      </trkpt>
      <trkpt lat="45.17022" lon="6.09284">
        <ele>1469.6</ele>
        <time>2021-08-28T10:36:34Z</time>
      </trkpt>
      <trkpt lat="45.17026" lon="6.09274">
        <ele>1470.6</ele>
        <time>2021-08-28T10:36:38Z</time>
      </trkpt>
      <trkpt lat="45.17026" lon="6.09274">
        <ele>1470.6</ele>
        <time>2021-08-28T10:36:42Z</time>
      </trkpt>
      <trkpt lat="45.1703" lon="6.09252">
        <ele>1472.2</ele>
        <time>2021-08-28T10:36:46Z</time>
      </trkpt>
      <trkpt lat="45.1703" lon="6.0924">
        <ele>1472.4</ele>
        <time>2021-08-28T10:36:50Z</time>
      </trkpt>
      <trkpt lat="45.17028" lon="6.09231">
        <ele>1474</ele>
        <time>2021-08-28T10:36:54Z</time>
      </trkpt>
      <trkpt lat="45.17026" lon="6.09219">
        <ele>1475.2</ele>
        <time>2021-08-28T10:36:58Z</time>
      </trkpt>
      <trkpt lat="45.17024" lon="6.09212">
        <ele>1476.2</ele>
        <time>2021-08-28T10:37:02Z</time>
      </trkpt>
      <trkpt lat="45.17019" lon="6.09203">
        <ele>1477</ele>
        <time>2021-08-28T10:37:06Z</time>
      </trkpt>
      <trkpt lat="45.17017" lon="6.09191">
        <ele>1477.2</ele>
        <time>2021-08-28T10:37:10Z</time>
      </trkpt>
      <trkpt lat="45.17011" lon="6.09179">
        <ele>1478.4</ele>
        <time>2021-08-28T10:37:14Z</time>
      </trkpt>
      <trkpt lat="45.17006" lon="6.09168">
        <ele>1479.6</ele>
        <time>2021-08-28T10:37:18Z</time>
      </trkpt>
      <trkpt lat="45.17002" lon="6.09156">
        <ele>1480.4</ele>
        <time>2021-08-28T10:37:22Z</time>
      </trkpt>
      <trkpt lat="45.16998" lon="6.09146">
        <ele>1481.4</ele>
        <time>2021-08-28T10:37:26Z</time>
      </trkpt>
      <trkpt lat="45.16994" lon="6.09136">
        <ele>1482.2</ele>
        <time>2021-08-28T10:37:30Z</time>
      </trkpt>
      <trkpt lat="45.16988" lon="6.09128">
        <ele>1483</ele>
        <time>2021-08-28T10:37:34Z</time>
      </trkpt>
      <trkpt lat="45.16989" lon="6.09119">
        <ele>1484</ele>
        <time>2021-08-28T10:37:38Z</time>
      </trkpt>
      <trkpt lat="45.16996" lon="6.0912">
        <ele>1484.4</ele>
        <time>2021-08-28T10:37:42Z</time>
      </trkpt>
      <trkpt lat="45.17002" lon="6.09129">
        <ele>1485.6</ele>
        <time>2021-08-28T10:37:46Z</time>
      </trkpt>
      <trkpt lat="45.17006" lon="6.09138">
        <ele>1486.6</ele>
        <time>2021-08-28T10:37:50Z</time>
      </trkpt>
      <trkpt lat="45.17012" lon="6.09147">
        <ele>1487.4</ele>
        <time>2021-08-28T10:37:54Z</time>
      </trkpt>
      <trkpt lat="45.17018" lon="6.09154">
        <ele>1487.6</ele>
        <time>2021-08-28T10:37:58Z</time>
      </trkpt>
      <trkpt lat="45.17024" lon="6.09162">
        <ele>1489.6</ele>
        <time>2021-08-28T10:38:02Z</time>
      </trkpt>
      <trkpt lat="45.17031" lon="6.0917">
        <ele>1489.8</ele>
        <time>2021-08-28T10:38:06Z</time>
      </trkpt>
      <trkpt lat="45.17031" lon="6.0917">
        <ele>1489.8</ele>
        <time>2021-08-28T10:38:10Z</time>
      </trkpt>
      <trkpt lat="45.17031" lon="6.0917">
        <ele>1489.8</ele>
        <time>2021-08-28T10:38:14Z</time>
      </trkpt>
      <trkpt lat="45.17047" lon="6.09183">
        <ele>1494</ele>
        <time>2021-08-28T10:38:18Z</time>
      </trkpt>
      <trkpt lat="45.17053" lon="6.09188">
        <ele>1494</ele>
        <time>2021-08-28T10:38:22Z</time>
      </trkpt>
      <trkpt lat="45.17059" lon="6.09195">
        <ele>1495.6</ele>
        <time>2021-08-28T10:38:26Z</time>
      </trkpt>
      <trkpt lat="45.17065" lon="6.09201">
        <ele>1496.2</ele>
        <time>2021-08-28T10:38:30Z</time>
      </trkpt>
      <trkpt lat="45.17073" lon="6.0921">
        <ele>1497.2</ele>
        <time>2021-08-28T10:38:34Z</time>
      </trkpt>
      <trkpt lat="45.17077" lon="6.0922">
        <ele>1497.6</ele>
        <time>2021-08-28T10:38:38Z</time>
      </trkpt>
      <trkpt lat="45.1708" lon="6.09229">
        <ele>1499.4</ele>
        <time>2021-08-28T10:38:42Z</time>
      </trkpt>
      <trkpt lat="45.17084" lon="6.09238">
        <ele>1499.6</ele>
        <time>2021-08-28T10:38:46Z</time>
      </trkpt>
      <trkpt lat="45.17087" lon="6.09247">
        <ele>1501</ele>
        <time>2021-08-28T10:38:50Z</time>
      </trkpt>
      <trkpt lat="45.17091" lon="6.09257">
        <ele>1501.8</ele>
        <time>2021-08-28T10:38:54Z</time>
      </trkpt>
      <trkpt lat="45.17095" lon="6.09265">
        <ele>1503.4</ele>
        <time>2021-08-28T10:38:58Z</time>
      </trkpt>
      <trkpt lat="45.17099" lon="6.09272">
        <ele>1504</ele>
        <time>2021-08-28T10:39:02Z</time>
      </trkpt>
      <trkpt lat="45.17104" lon="6.09277">
        <ele>1504.6</ele>
        <time>2021-08-28T10:39:06Z</time>
      </trkpt>
      <trkpt lat="45.1711" lon="6.09283">
        <ele>1505</ele>
        <time>2021-08-28T10:39:10Z</time>
      </trkpt>
      <trkpt lat="45.17116" lon="6.09288">
        <ele>1506</ele>
        <time>2021-08-28T10:39:14Z</time>
      </trkpt>
      <trkpt lat="45.17124" lon="6.09293">
        <ele>1508.2</ele>
        <time>2021-08-28T10:39:18Z</time>
      </trkpt>
      <trkpt lat="45.17131" lon="6.09297">
        <ele>1508.8</ele>
        <time>2021-08-28T10:39:22Z</time>
      </trkpt>
      <trkpt lat="45.17139" lon="6.09301">
        <ele>1509.6</ele>
        <time>2021-08-28T10:39:26Z</time>
      </trkpt>
      <trkpt lat="45.17146" lon="6.09305">
        <ele>1510.8</ele>
        <time>2021-08-28T10:39:30Z</time>
      </trkpt>
      <trkpt lat="45.17153" lon="6.0931">
        <ele>1511.2</ele>
        <time>2021-08-28T10:39:34Z</time>
      </trkpt>
      <trkpt lat="45.1716" lon="6.09314">
        <ele>1512.8</ele>
        <time>2021-08-28T10:39:38Z</time>
      </trkpt>
      <trkpt lat="45.17166" lon="6.09318">
        <ele>1513.6</ele>
        <time>2021-08-28T10:39:42Z</time>
      </trkpt>
      <trkpt lat="45.17173" lon="6.09322">
        <ele>1514.2</ele>
        <time>2021-08-28T10:39:46Z</time>
      </trkpt>
      <trkpt lat="45.17179" lon="6.09327">
        <ele>1514.8</ele>
        <time>2021-08-28T10:39:50Z</time>
      </trkpt>
      <trkpt lat="45.17186" lon="6.09333">
        <ele>1516.2</ele>
        <time>2021-08-28T10:39:54Z</time>
      </trkpt>
      <trkpt lat="45.17194" lon="6.09337">
        <ele>1516.8</ele>
        <time>2021-08-28T10:39:58Z</time>
      </trkpt>
      <trkpt lat="45.172" lon="6.09343">
        <ele>1517.6</ele>
        <time>2021-08-28T10:40:02Z</time>
      </trkpt>
      <trkpt lat="45.17207" lon="6.09348">
        <ele>1518.2</ele>
        <time>2021-08-28T10:40:06Z</time>
      </trkpt>
      <trkpt lat="45.17213" lon="6.09353">
        <ele>1520</ele>
        <time>2021-08-28T10:40:10Z</time>
      </trkpt>
      <trkpt lat="45.1722" lon="6.09357">
        <ele>1520.4</ele>
        <time>2021-08-28T10:40:14Z</time>
      </trkpt>
      <trkpt lat="45.17226" lon="6.09363">
        <ele>1521</ele>
        <time>2021-08-28T10:40:18Z</time>
      </trkpt>
      <trkpt lat="45.17233" lon="6.09363">
        <ele>1521.8</ele>
        <time>2021-08-28T10:40:22Z</time>
      </trkpt>
      <trkpt lat="45.17234" lon="6.09354">
        <ele>1522.4</ele>
        <time>2021-08-28T10:40:26Z</time>
      </trkpt>
      <trkpt lat="45.17228" lon="6.09346">
        <ele>1522.8</ele>
        <time>2021-08-28T10:40:30Z</time>
      </trkpt>
      <trkpt lat="45.1722" lon="6.09341">
        <ele>1523.6</ele>
        <time>2021-08-28T10:40:34Z</time>
      </trkpt>
      <trkpt lat="45.17213" lon="6.09334">
        <ele>1524.6</ele>
        <time>2021-08-28T10:40:38Z</time>
      </trkpt>
      <trkpt lat="45.17208" lon="6.09324">
        <ele>1525.2</ele>
        <time>2021-08-28T10:40:42Z</time>
      </trkpt>
      <trkpt lat="45.17203" lon="6.09313">
        <ele>1525.4</ele>
        <time>2021-08-28T10:40:46Z</time>
      </trkpt>
      <trkpt lat="45.17198" lon="6.09302">
        <ele>1526.6</ele>
        <time>2021-08-28T10:40:50Z</time>
      </trkpt>
      <trkpt lat="45.17193" lon="6.09293">
        <ele>1527.8</ele>
        <time>2021-08-28T10:40:54Z</time>
      </trkpt>
      <trkpt lat="45.17189" lon="6.09287">
        <ele>1528.4</ele>
        <time>2021-08-28T10:40:58Z</time>
      </trkpt>
      <trkpt lat="45.1718" lon="6.09281">
        <ele>1529</ele>
        <time>2021-08-28T10:41:02Z</time>
      </trkpt>
      <trkpt lat="45.17171" lon="6.09273">
        <ele>1530.2</ele>
        <time>2021-08-28T10:41:06Z</time>
      </trkpt>
      <trkpt lat="45.17165" lon="6.09265">
        <ele>1530.2</ele>
        <time>2021-08-28T10:41:10Z</time>
      </trkpt>
      <trkpt lat="45.1716" lon="6.09256">
        <ele>1531.6</ele>
        <time>2021-08-28T10:41:14Z</time>
      </trkpt>
      <trkpt lat="45.17159" lon="6.09244">
        <ele>1532.4</ele>
        <time>2021-08-28T10:41:18Z</time>
      </trkpt>
      <trkpt lat="45.1716" lon="6.09234">
        <ele>1534</ele>
        <time>2021-08-28T10:41:22Z</time>
      </trkpt>
      <trkpt lat="45.17164" lon="6.09224">
        <ele>1535.6</ele>
        <time>2021-08-28T10:41:26Z</time>
      </trkpt>
      <trkpt lat="45.17169" lon="6.09213">
        <ele>1536</ele>
        <time>2021-08-28T10:41:30Z</time>
      </trkpt>
      <trkpt lat="45.17173" lon="6.09203">
        <ele>1537.2</ele>
        <time>2021-08-28T10:41:34Z</time>
      </trkpt>
      <trkpt lat="45.17178" lon="6.092">
        <ele>1538</ele>
        <time>2021-08-28T10:41:38Z</time>
      </trkpt>
      <trkpt lat="45.17184" lon="6.09207">
        <ele>1538.2</ele>
        <time>2021-08-28T10:41:42Z</time>
      </trkpt>
      <trkpt lat="45.1718" lon="6.09219">
        <ele>1539</ele>
        <time>2021-08-28T10:41:46Z</time>
      </trkpt>
      <trkpt lat="45.17176" lon="6.09232">
        <ele>1539.6</ele>
        <time>2021-08-28T10:41:50Z</time>
      </trkpt>
      <trkpt lat="45.17176" lon="6.09243">
        <ele>1540.8</ele>
        <time>2021-08-28T10:41:54Z</time>
      </trkpt>
      <trkpt lat="45.1718" lon="6.09252">
        <ele>1542.4</ele>
        <time>2021-08-28T10:41:58Z</time>
      </trkpt>
      <trkpt lat="45.17187" lon="6.09257">
        <ele>1543.2</ele>
        <time>2021-08-28T10:42:02Z</time>
      </trkpt>
      <trkpt lat="45.17194" lon="6.0926">
        <ele>1543.4</ele>
        <time>2021-08-28T10:42:06Z</time>
      </trkpt>
      <trkpt lat="45.17201" lon="6.09264">
        <ele>1544.2</ele>
        <time>2021-08-28T10:42:10Z</time>
      </trkpt>
      <trkpt lat="45.17209" lon="6.09269">
        <ele>1545.2</ele>
        <time>2021-08-28T10:42:14Z</time>
      </trkpt>
      <trkpt lat="45.17217" lon="6.09273">
        <ele>1546.4</ele>
        <time>2021-08-28T10:42:18Z</time>
      </trkpt>
      <trkpt lat="45.17224" lon="6.09278">
        <ele>1547</ele>
        <time>2021-08-28T10:42:22Z</time>
      </trkpt>
      <trkpt lat="45.17232" lon="6.09282">
        <ele>1548.2</ele>
        <time>2021-08-28T10:42:26Z</time>
      </trkpt>
      <trkpt lat="45.17239" lon="6.09287">
        <ele>1549.2</ele>
        <time>2021-08-28T10:42:30Z</time>
      </trkpt>
      <trkpt lat="45.17247" lon="6.09292">
        <ele>1549.8</ele>
        <time>2021-08-28T10:42:34Z</time>
      </trkpt>
      <trkpt lat="45.17254" lon="6.09295">
        <ele>1550.6</ele>
        <time>2021-08-28T10:42:38Z</time>
      </trkpt>
      <trkpt lat="45.17263" lon="6.09295">
        <ele>1551.6</ele>
        <time>2021-08-28T10:42:42Z</time>
      </trkpt>
      <trkpt lat="45.17271" lon="6.09294">
        <ele>1553</ele>
        <time>2021-08-28T10:42:46Z</time>
      </trkpt>
      <trkpt lat="45.1728" lon="6.09291">
        <ele>1553.4</ele>
        <time>2021-08-28T10:42:50Z</time>
      </trkpt>
      <trkpt lat="45.17286" lon="6.09287">
        <ele>1554</ele>
        <time>2021-08-28T10:42:54Z</time>
      </trkpt>
      <trkpt lat="45.17291" lon="6.09283">
        <ele>1555</ele>
        <time>2021-08-28T10:42:58Z</time>
      </trkpt>
      <trkpt lat="45.17298" lon="6.0928">
        <ele>1556</ele>
        <time>2021-08-28T10:43:02Z</time>
      </trkpt>
      <trkpt lat="45.17306" lon="6.09276">
        <ele>1556.4</ele>
        <time>2021-08-28T10:43:06Z</time>
      </trkpt>
      <trkpt lat="45.17314" lon="6.09274">
        <ele>1557.6</ele>
        <time>2021-08-28T10:43:10Z</time>
      </trkpt>
      <trkpt lat="45.17321" lon="6.09277">
        <ele>1558.6</ele>
        <time>2021-08-28T10:43:14Z</time>
      </trkpt>
      <trkpt lat="45.17327" lon="6.09281">
        <ele>1559.4</ele>
        <time>2021-08-28T10:43:18Z</time>
      </trkpt>
      <trkpt lat="45.17334" lon="6.09286">
        <ele>1559.4</ele>
        <time>2021-08-28T10:43:22Z</time>
      </trkpt>
      <trkpt lat="45.17339" lon="6.09293">
        <ele>1560.6</ele>
        <time>2021-08-28T10:43:26Z</time>
      </trkpt>
      <trkpt lat="45.17344" lon="6.09301">
        <ele>1560.6</ele>
        <time>2021-08-28T10:43:30Z</time>
      </trkpt>
      <trkpt lat="45.1735" lon="6.09308">
        <ele>1562</ele>
        <time>2021-08-28T10:43:34Z</time>
      </trkpt>
      <trkpt lat="45.17356" lon="6.09315">
        <ele>1562.4</ele>
        <time>2021-08-28T10:43:38Z</time>
      </trkpt>
      <trkpt lat="45.1736" lon="6.09323">
        <ele>1563.6</ele>
        <time>2021-08-28T10:43:42Z</time>
      </trkpt>
      <trkpt lat="45.17366" lon="6.09331">
        <ele>1564.2</ele>
        <time>2021-08-28T10:43:46Z</time>
      </trkpt>
      <trkpt lat="45.1737" lon="6.0934">
        <ele>1565.4</ele>
        <time>2021-08-28T10:43:50Z</time>
      </trkpt>
      <trkpt lat="45.1737" lon="6.0934">
        <ele>1565.4</ele>
        <time>2021-08-28T10:43:54Z</time>
      </trkpt>
      <trkpt lat="45.17381" lon="6.09362">
        <ele>1567.2</ele>
        <time>2021-08-28T10:43:58Z</time>
      </trkpt>
      <trkpt lat="45.17381" lon="6.09362">
        <ele>1567.2</ele>
        <time>2021-08-28T10:44:02Z</time>
      </trkpt>
      <trkpt lat="45.17381" lon="6.09362">
        <ele>1567.2</ele>
        <time>2021-08-28T10:44:06Z</time>
      </trkpt>
      <trkpt lat="45.17397" lon="6.09365">
        <ele>1570</ele>
        <time>2021-08-28T10:44:10Z</time>
      </trkpt>
      <trkpt lat="45.17398" lon="6.09353">
        <ele>1570.4</ele>
        <time>2021-08-28T10:44:14Z</time>
      </trkpt>
      <trkpt lat="45.17397" lon="6.09341">
        <ele>1571.2</ele>
        <time>2021-08-28T10:44:18Z</time>
      </trkpt>
      <trkpt lat="45.17392" lon="6.09331">
        <ele>1571.4</ele>
        <time>2021-08-28T10:44:22Z</time>
      </trkpt>
      <trkpt lat="45.17388" lon="6.09321">
        <ele>1572.4</ele>
        <time>2021-08-28T10:44:26Z</time>
      </trkpt>
      <trkpt lat="45.17384" lon="6.0931">
        <ele>1574</ele>
        <time>2021-08-28T10:44:30Z</time>
      </trkpt>
      <trkpt lat="45.17383" lon="6.09298">
        <ele>1574.2</ele>
        <time>2021-08-28T10:44:34Z</time>
      </trkpt>
      <trkpt lat="45.17383" lon="6.09284">
        <ele>1574.8</ele>
        <time>2021-08-28T10:44:38Z</time>
      </trkpt>
      <trkpt lat="45.17382" lon="6.09271">
        <ele>1575.8</ele>
        <time>2021-08-28T10:44:42Z</time>
      </trkpt>
      <trkpt lat="45.17381" lon="6.09258">
        <ele>1576</ele>
        <time>2021-08-28T10:44:46Z</time>
      </trkpt>
      <trkpt lat="45.17378" lon="6.09246">
        <ele>1577.4</ele>
        <time>2021-08-28T10:44:50Z</time>
      </trkpt>
      <trkpt lat="45.17376" lon="6.09235">
        <ele>1578.4</ele>
        <time>2021-08-28T10:44:54Z</time>
      </trkpt>
      <trkpt lat="45.1737" lon="6.09227">
        <ele>1579.4</ele>
        <time>2021-08-28T10:44:58Z</time>
      </trkpt>
      <trkpt lat="45.17364" lon="6.09219">
        <ele>1580.2</ele>
        <time>2021-08-28T10:45:02Z</time>
      </trkpt>
      <trkpt lat="45.17355" lon="6.09212">
        <ele>1580.4</ele>
        <time>2021-08-28T10:45:06Z</time>
      </trkpt>
      <trkpt lat="45.17347" lon="6.09207">
        <ele>1582.4</ele>
        <time>2021-08-28T10:45:10Z</time>
      </trkpt>
      <trkpt lat="45.17339" lon="6.09205">
        <ele>1583.2</ele>
        <time>2021-08-28T10:45:14Z</time>
      </trkpt>
      <trkpt lat="45.17331" lon="6.09203">
        <ele>1583.8</ele>
        <time>2021-08-28T10:45:18Z</time>
      </trkpt>
      <trkpt lat="45.17323" lon="6.09201">
        <ele>1584.8</ele>
        <time>2021-08-28T10:45:22Z</time>
      </trkpt>
      <trkpt lat="45.17314" lon="6.09202">
        <ele>1585.8</ele>
        <time>2021-08-28T10:45:26Z</time>
      </trkpt>
      <trkpt lat="45.17307" lon="6.09201">
        <ele>1586</ele>
        <time>2021-08-28T10:45:30Z</time>
      </trkpt>
      <trkpt lat="45.17299" lon="6.09202">
        <ele>1587.6</ele>
        <time>2021-08-28T10:45:34Z</time>
      </trkpt>
      <trkpt lat="45.1729" lon="6.09201">
        <ele>1588.2</ele>
        <time>2021-08-28T10:45:38Z</time>
      </trkpt>
      <trkpt lat="45.17283" lon="6.09195">
        <ele>1589.4</ele>
        <time>2021-08-28T10:45:42Z</time>
      </trkpt>
      <trkpt lat="45.1728" lon="6.09186">
        <ele>1589.6</ele>
        <time>2021-08-28T10:45:46Z</time>
      </trkpt>
      <trkpt lat="45.17279" lon="6.09176">
        <ele>1591.2</ele>
        <time>2021-08-28T10:45:50Z</time>
      </trkpt>
      <trkpt lat="45.17283" lon="6.09167">
        <ele>1592</ele>
        <time>2021-08-28T10:45:54Z</time>
      </trkpt>
      <trkpt lat="45.17283" lon="6.09167">
        <ele>1592</ele>
        <time>2021-08-28T10:45:58Z</time>
      </trkpt>
      <trkpt lat="45.17289" lon="6.09148">
        <ele>1594.8</ele>
        <time>2021-08-28T10:46:02Z</time>
      </trkpt>
      <trkpt lat="45.17289" lon="6.09148">
        <ele>1594.8</ele>
        <time>2021-08-28T10:46:06Z</time>
      </trkpt>
      <trkpt lat="45.17289" lon="6.09148">
        <ele>1594.8</ele>
        <time>2021-08-28T10:46:10Z</time>
      </trkpt>
      <trkpt lat="45.17291" lon="6.0912">
        <ele>1597.4</ele>
        <time>2021-08-28T10:46:14Z</time>
      </trkpt>
      <trkpt lat="45.17287" lon="6.0911">
        <ele>1598.4</ele>
        <time>2021-08-28T10:46:18Z</time>
      </trkpt>
      <trkpt lat="45.17281" lon="6.09101">
        <ele>1599</ele>
        <time>2021-08-28T10:46:22Z</time>
      </trkpt>
      <trkpt lat="45.17277" lon="6.09096">
        <ele>1600</ele>
        <time>2021-08-28T10:46:26Z</time>
      </trkpt>
      <trkpt lat="45.17273" lon="6.09092">
        <ele>1600.4</ele>
        <time>2021-08-28T10:46:30Z</time>
      </trkpt>
      <trkpt lat="45.17264" lon="6.09087">
        <ele>1601.6</ele>
        <time>2021-08-28T10:46:34Z</time>
      </trkpt>
      <trkpt lat="45.17255" lon="6.09081">
        <ele>1602.6</ele>
        <time>2021-08-28T10:46:38Z</time>
      </trkpt>
      <trkpt lat="45.17247" lon="6.09075">
        <ele>1603</ele>
        <time>2021-08-28T10:46:42Z</time>
      </trkpt>
      <trkpt lat="45.17247" lon="6.09075">
        <ele>1603</ele>
        <time>2021-08-28T10:46:46Z</time>
      </trkpt>
      <trkpt lat="45.17232" lon="6.0906">
        <ele>1604.8</ele>
        <time>2021-08-28T10:46:50Z</time>
      </trkpt>
      <trkpt lat="45.17232" lon="6.0906">
        <ele>1604.8</ele>
        <time>2021-08-28T10:46:54Z</time>
      </trkpt>
      <trkpt lat="45.17219" lon="6.09036">
        <ele>1607</ele>
        <time>2021-08-28T10:46:58Z</time>
      </trkpt>
      <trkpt lat="45.17222" lon="6.09026">
        <ele>1607.2</ele>
        <time>2021-08-28T10:47:02Z</time>
      </trkpt>
      <trkpt lat="45.17229" lon="6.09029">
        <ele>1608.6</ele>
        <time>2021-08-28T10:47:06Z</time>
      </trkpt>
      <trkpt lat="45.17233" lon="6.09037">
        <ele>1609.8</ele>
        <time>2021-08-28T10:47:10Z</time>
      </trkpt>
      <trkpt lat="45.17238" lon="6.09045">
        <ele>1610</ele>
        <time>2021-08-28T10:47:14Z</time>
      </trkpt>
      <trkpt lat="45.17244" lon="6.09051">
        <ele>1611.2</ele>
        <time>2021-08-28T10:47:18Z</time>
      </trkpt>
      <trkpt lat="45.17251" lon="6.09054">
        <ele>1612</ele>
        <time>2021-08-28T10:47:22Z</time>
      </trkpt>
      <trkpt lat="45.17255" lon="6.09058">
        <ele>1612.4</ele>
        <time>2021-08-28T10:47:26Z</time>
      </trkpt>
      <trkpt lat="45.17264" lon="6.09059">
        <ele>1613</ele>
        <time>2021-08-28T10:47:30Z</time>
      </trkpt>
      <trkpt lat="45.17273" lon="6.09061">
        <ele>1614.6</ele>
        <time>2021-08-28T10:47:34Z</time>
      </trkpt>
      <trkpt lat="45.17282" lon="6.09064">
        <ele>1615</ele>
        <time>2021-08-28T10:47:38Z</time>
      </trkpt>
      <trkpt lat="45.1729" lon="6.09067">
        <ele>1615.6</ele>
        <time>2021-08-28T10:47:42Z</time>
      </trkpt>
      <trkpt lat="45.17297" lon="6.09072">
        <ele>1617</ele>
        <time>2021-08-28T10:47:46Z</time>
      </trkpt>
      <trkpt lat="45.17305" lon="6.09078">
        <ele>1617</ele>
        <time>2021-08-28T10:47:50Z</time>
      </trkpt>
      <trkpt lat="45.17313" lon="6.09084">
        <ele>1617.6</ele>
        <time>2021-08-28T10:47:54Z</time>
      </trkpt>
      <trkpt lat="45.17319" lon="6.0909">
        <ele>1619</ele>
        <time>2021-08-28T10:47:58Z</time>
      </trkpt>
      <trkpt lat="45.17326" lon="6.09097">
        <ele>1619.8</ele>
        <time>2021-08-28T10:48:02Z</time>
      </trkpt>
      <trkpt lat="45.1733" lon="6.09104">
        <ele>1620.8</ele>
        <time>2021-08-28T10:48:06Z</time>
      </trkpt>
      <trkpt lat="45.17336" lon="6.09111">
        <ele>1622.6</ele>
        <time>2021-08-28T10:48:10Z</time>
      </trkpt>
      <trkpt lat="45.17343" lon="6.09117">
        <ele>1623.4</ele>
        <time>2021-08-28T10:48:14Z</time>
      </trkpt>
      <trkpt lat="45.17351" lon="6.09117">
        <ele>1624.6</ele>
        <time>2021-08-28T10:48:18Z</time>
      </trkpt>
      <trkpt lat="45.17351" lon="6.09117">
        <ele>1624.6</ele>
        <time>2021-08-28T10:48:22Z</time>
      </trkpt>
      <trkpt lat="45.17351" lon="6.09117">
        <ele>1624.6</ele>
        <time>2021-08-28T10:48:26Z</time>
      </trkpt>
      <trkpt lat="45.17351" lon="6.09117">
        <ele>1624.6</ele>
        <time>2021-08-28T10:48:30Z</time>
      </trkpt>
      <trkpt lat="45.17351" lon="6.09117">
        <ele>1624.6</ele>
        <time>2021-08-28T10:48:34Z</time>
      </trkpt>
      <trkpt lat="45.17372" lon="6.09111">
        <ele>1626.8</ele>
        <time>2021-08-28T10:48:38Z</time>
      </trkpt>
      <trkpt lat="45.17372" lon="6.09111">
        <ele>1626.8</ele>
        <time>2021-08-28T10:48:42Z</time>
      </trkpt>
      <trkpt lat="45.17372" lon="6.09111">
        <ele>1626.8</ele>
        <time>2021-08-28T10:48:46Z</time>
      </trkpt>
      <trkpt lat="45.17394" lon="6.09107">
        <ele>1629.8</ele>
        <time>2021-08-28T10:48:50Z</time>
      </trkpt>
      <trkpt lat="45.17401" lon="6.09106">
        <ele>1630.8</ele>
        <time>2021-08-28T10:48:54Z</time>
      </trkpt>
      <trkpt lat="45.17408" lon="6.09108">
        <ele>1631.2</ele>
        <time>2021-08-28T10:48:58Z</time>
      </trkpt>
      <trkpt lat="45.17408" lon="6.09108">
        <ele>1631.2</ele>
        <time>2021-08-28T10:49:02Z</time>
      </trkpt>
      <trkpt lat="45.17408" lon="6.09108">
        <ele>1631.2</ele>
        <time>2021-08-28T10:49:06Z</time>
      </trkpt>
      <trkpt lat="45.17408" lon="6.09108">
        <ele>1631.2</ele>
        <time>2021-08-28T10:49:10Z</time>
      </trkpt>
      <trkpt lat="45.17439" lon="6.09093">
        <ele>1633.6</ele>
        <time>2021-08-28T10:49:14Z</time>
      </trkpt>
      <trkpt lat="45.17447" lon="6.09089">
        <ele>1634.8</ele>
        <time>2021-08-28T10:49:18Z</time>
      </trkpt>
      <trkpt lat="45.17453" lon="6.09087">
        <ele>1636</ele>
        <time>2021-08-28T10:49:22Z</time>
      </trkpt>
      <trkpt lat="45.1746" lon="6.09084">
        <ele>1636.2</ele>
        <time>2021-08-28T10:49:26Z</time>
      </trkpt>
      <trkpt lat="45.17468" lon="6.09082">
        <ele>1637.6</ele>
        <time>2021-08-28T10:49:30Z</time>
      </trkpt>
      <trkpt lat="45.17475" lon="6.0908">
        <ele>1638.6</ele>
        <time>2021-08-28T10:49:34Z</time>
      </trkpt>
      <trkpt lat="45.17483" lon="6.0908">
        <ele>1639</ele>
        <time>2021-08-28T10:49:38Z</time>
      </trkpt>
      <trkpt lat="45.17492" lon="6.09081">
        <ele>1639.8</ele>
        <time>2021-08-28T10:49:42Z</time>
      </trkpt>
      <trkpt lat="45.175" lon="6.09083">
        <ele>1641.4</ele>
        <time>2021-08-28T10:49:46Z</time>
      </trkpt>
      <trkpt lat="45.17508" lon="6.09087">
        <ele>1641.2</ele>
        <time>2021-08-28T10:49:50Z</time>
      </trkpt>
      <trkpt lat="45.17516" lon="6.09089">
        <ele>1642.8</ele>
        <time>2021-08-28T10:49:54Z</time>
      </trkpt>
      <trkpt lat="45.17523" lon="6.09093">
        <ele>1643.4</ele>
        <time>2021-08-28T10:49:58Z</time>
      </trkpt>
      <trkpt lat="45.17531" lon="6.09095">
        <ele>1644.2</ele>
        <time>2021-08-28T10:50:02Z</time>
      </trkpt>
      <trkpt lat="45.1754" lon="6.09099">
        <ele>1644.8</ele>
        <time>2021-08-28T10:50:06Z</time>
      </trkpt>
      <trkpt lat="45.17548" lon="6.09105">
        <ele>1646.4</ele>
        <time>2021-08-28T10:50:10Z</time>
      </trkpt>
      <trkpt lat="45.17554" lon="6.09112">
        <ele>1646.4</ele>
        <time>2021-08-28T10:50:14Z</time>
      </trkpt>
      <trkpt lat="45.17561" lon="6.09118">
        <ele>1647.8</ele>
        <time>2021-08-28T10:50:18Z</time>
      </trkpt>
      <trkpt lat="45.17568" lon="6.09123">
        <ele>1648</ele>
        <time>2021-08-28T10:50:22Z</time>
      </trkpt>
      <trkpt lat="45.17576" lon="6.09124">
        <ele>1649</ele>
        <time>2021-08-28T10:50:26Z</time>
      </trkpt>
      <trkpt lat="45.17584" lon="6.09123">
        <ele>1649.6</ele>
        <time>2021-08-28T10:50:30Z</time>
      </trkpt>
      <trkpt lat="45.17592" lon="6.09127">
        <ele>1650.8</ele>
        <time>2021-08-28T10:50:34Z</time>
      </trkpt>
      <trkpt lat="45.17602" lon="6.09128">
        <ele>1651.8</ele>
        <time>2021-08-28T10:50:38Z</time>
      </trkpt>
      <trkpt lat="45.17609" lon="6.09132">
        <ele>1652.8</ele>
        <time>2021-08-28T10:50:42Z</time>
      </trkpt>
      <trkpt lat="45.17616" lon="6.09137">
        <ele>1653.6</ele>
        <time>2021-08-28T10:50:46Z</time>
      </trkpt>
      <trkpt lat="45.17623" lon="6.09142">
        <ele>1654.2</ele>
        <time>2021-08-28T10:50:50Z</time>
      </trkpt>
      <trkpt lat="45.17631" lon="6.09148">
        <ele>1655.4</ele>
        <time>2021-08-28T10:50:54Z</time>
      </trkpt>
      <trkpt lat="45.17639" lon="6.09152">
        <ele>1655.6</ele>
        <time>2021-08-28T10:50:58Z</time>
      </trkpt>
      <trkpt lat="45.17645" lon="6.09159">
        <ele>1657</ele>
        <time>2021-08-28T10:51:02Z</time>
      </trkpt>
      <trkpt lat="45.17653" lon="6.09164">
        <ele>1657.6</ele>
        <time>2021-08-28T10:51:06Z</time>
      </trkpt>
      <trkpt lat="45.17661" lon="6.09168">
        <ele>1658.6</ele>
        <time>2021-08-28T10:51:10Z</time>
      </trkpt>
      <trkpt lat="45.17667" lon="6.09174">
        <ele>1659</ele>
        <time>2021-08-28T10:51:14Z</time>
      </trkpt>
      <trkpt lat="45.17675" lon="6.0918">
        <ele>1659.6</ele>
        <time>2021-08-28T10:51:18Z</time>
      </trkpt>
      <trkpt lat="45.17682" lon="6.09188">
        <ele>1660.4</ele>
        <time>2021-08-28T10:51:22Z</time>
      </trkpt>
      <trkpt lat="45.17687" lon="6.09197">
        <ele>1661</ele>
        <time>2021-08-28T10:51:26Z</time>
      </trkpt>
      <trkpt lat="45.17691" lon="6.09207">
        <ele>1661.6</ele>
        <time>2021-08-28T10:51:30Z</time>
      </trkpt>
      <trkpt lat="45.17695" lon="6.09217">
        <ele>1662.6</ele>
        <time>2021-08-28T10:51:34Z</time>
      </trkpt>
      <trkpt lat="45.177" lon="6.09227">
        <ele>1663</ele>
        <time>2021-08-28T10:51:38Z</time>
      </trkpt>
      <trkpt lat="45.17706" lon="6.09235">
        <ele>1664.4</ele>
        <time>2021-08-28T10:51:42Z</time>
      </trkpt>
      <trkpt lat="45.17714" lon="6.09233">
        <ele>1665.2</ele>
        <time>2021-08-28T10:51:46Z</time>
      </trkpt>
      <trkpt lat="45.17717" lon="6.09224">
        <ele>1666.2</ele>
        <time>2021-08-28T10:51:50Z</time>
      </trkpt>
      <trkpt lat="45.17716" lon="6.09216">
        <ele>1666</ele>
        <time>2021-08-28T10:51:54Z</time>
      </trkpt>
      <trkpt lat="45.17716" lon="6.09216">
        <ele>1666</ele>
        <time>2021-08-28T10:51:58Z</time>
      </trkpt>
      <trkpt lat="45.17714" lon="6.09198">
        <ele>1668.2</ele>
        <time>2021-08-28T10:52:02Z</time>
      </trkpt>
      <trkpt lat="45.17713" lon="6.09188">
        <ele>1668.8</ele>
        <time>2021-08-28T10:52:06Z</time>
      </trkpt>
      <trkpt lat="45.17712" lon="6.0918">
        <ele>1669.4</ele>
        <time>2021-08-28T10:52:10Z</time>
      </trkpt>
      <trkpt lat="45.17712" lon="6.0918">
        <ele>1669.4</ele>
        <time>2021-08-28T10:52:14Z</time>
      </trkpt>
      <trkpt lat="45.17712" lon="6.0918">
        <ele>1669.4</ele>
        <time>2021-08-28T10:52:18Z</time>
      </trkpt>
      <trkpt lat="45.17703" lon="6.09154">
        <ele>1671.8</ele>
        <time>2021-08-28T10:52:22Z</time>
      </trkpt>
      <trkpt lat="45.17699" lon="6.09145">
        <ele>1672.8</ele>
        <time>2021-08-28T10:52:26Z</time>
      </trkpt>
      <trkpt lat="45.17693" lon="6.09138">
        <ele>1674</ele>
        <time>2021-08-28T10:52:30Z</time>
      </trkpt>
      <trkpt lat="45.17686" lon="6.09129">
        <ele>1674.2</ele>
        <time>2021-08-28T10:52:34Z</time>
      </trkpt>
      <trkpt lat="45.1768" lon="6.0912">
        <ele>1674.8</ele>
        <time>2021-08-28T10:52:38Z</time>
      </trkpt>
      <trkpt lat="45.17674" lon="6.09111">
        <ele>1676</ele>
        <time>2021-08-28T10:52:42Z</time>
      </trkpt>
      <trkpt lat="45.17668" lon="6.09102">
        <ele>1677.4</ele>
        <time>2021-08-28T10:52:46Z</time>
      </trkpt>
      <trkpt lat="45.17663" lon="6.09093">
        <ele>1677.4</ele>
        <time>2021-08-28T10:52:50Z</time>
      </trkpt>
      <trkpt lat="45.17658" lon="6.09083">
        <ele>1678.4</ele>
        <time>2021-08-28T10:52:54Z</time>
      </trkpt>
      <trkpt lat="45.17653" lon="6.09072">
        <ele>1679.6</ele>
        <time>2021-08-28T10:52:58Z</time>
      </trkpt>
      <trkpt lat="45.17649" lon="6.09062">
        <ele>1680.2</ele>
        <time>2021-08-28T10:53:02Z</time>
      </trkpt>
      <trkpt lat="45.17644" lon="6.09054">
        <ele>1680.8</ele>
        <time>2021-08-28T10:53:06Z</time>
      </trkpt>
      <trkpt lat="45.17638" lon="6.09045">
        <ele>1681.2</ele>
        <time>2021-08-28T10:53:10Z</time>
      </trkpt>
      <trkpt lat="45.1763" lon="6.09037">
        <ele>1682.2</ele>
        <time>2021-08-28T10:53:14Z</time>
      </trkpt>
      <trkpt lat="45.17621" lon="6.09033">
        <ele>1683.2</ele>
        <time>2021-08-28T10:53:18Z</time>
      </trkpt>
      <trkpt lat="45.17612" lon="6.09034">
        <ele>1684.2</ele>
        <time>2021-08-28T10:53:22Z</time>
      </trkpt>
      <trkpt lat="45.17603" lon="6.09035">
        <ele>1684.8</ele>
        <time>2021-08-28T10:53:26Z</time>
      </trkpt>
      <trkpt lat="45.17595" lon="6.09033">
        <ele>1685</ele>
        <time>2021-08-28T10:53:30Z</time>
      </trkpt>
      <trkpt lat="45.17588" lon="6.09026">
        <ele>1686</ele>
        <time>2021-08-28T10:53:34Z</time>
      </trkpt>
      <trkpt lat="45.17585" lon="6.09017">
        <ele>1687</ele>
        <time>2021-08-28T10:53:38Z</time>
      </trkpt>
      <trkpt lat="45.17583" lon="6.09005">
        <ele>1688.6</ele>
        <time>2021-08-28T10:53:42Z</time>
      </trkpt>
      <trkpt lat="45.17579" lon="6.08995">
        <ele>1689.2</ele>
        <time>2021-08-28T10:53:46Z</time>
      </trkpt>
      <trkpt lat="45.17577" lon="6.08983">
        <ele>1689.6</ele>
        <time>2021-08-28T10:53:50Z</time>
      </trkpt>
      <trkpt lat="45.17573" lon="6.08971">
        <ele>1690.6</ele>
        <time>2021-08-28T10:53:54Z</time>
      </trkpt>
      <trkpt lat="45.17571" lon="6.0896">
        <ele>1691.8</ele>
        <time>2021-08-28T10:53:58Z</time>
      </trkpt>
      <trkpt lat="45.17567" lon="6.08949">
        <ele>1692.2</ele>
        <time>2021-08-28T10:54:02Z</time>
      </trkpt>
      <trkpt lat="45.17561" lon="6.08943">
        <ele>1693.2</ele>
        <time>2021-08-28T10:54:06Z</time>
      </trkpt>
      <trkpt lat="45.17554" lon="6.08939">
        <ele>1693.6</ele>
        <time>2021-08-28T10:54:10Z</time>
      </trkpt>
      <trkpt lat="45.17546" lon="6.08938">
        <ele>1694.6</ele>
        <time>2021-08-28T10:54:14Z</time>
      </trkpt>
      <trkpt lat="45.17537" lon="6.08939">
        <ele>1695.6</ele>
        <time>2021-08-28T10:54:18Z</time>
      </trkpt>
      <trkpt lat="45.17528" lon="6.08938">
        <ele>1696.6</ele>
        <time>2021-08-28T10:54:22Z</time>
      </trkpt>
      <trkpt lat="45.17519" lon="6.08939">
        <ele>1697.6</ele>
        <time>2021-08-28T10:54:26Z</time>
      </trkpt>
      <trkpt lat="45.1751" lon="6.08939">
        <ele>1698.2</ele>
        <time>2021-08-28T10:54:30Z</time>
      </trkpt>
      <trkpt lat="45.175" lon="6.08936">
        <ele>1699</ele>
        <time>2021-08-28T10:54:34Z</time>
      </trkpt>
      <trkpt lat="45.17491" lon="6.0893">
        <ele>1699.6</ele>
        <time>2021-08-28T10:54:38Z</time>
      </trkpt>
      <trkpt lat="45.17483" lon="6.08923">
        <ele>1700.4</ele>
        <time>2021-08-28T10:54:42Z</time>
      </trkpt>
      <trkpt lat="45.17475" lon="6.08916">
        <ele>1701</ele>
        <time>2021-08-28T10:54:46Z</time>
      </trkpt>
      <trkpt lat="45.17467" lon="6.08909">
        <ele>1701.6</ele>
        <time>2021-08-28T10:54:50Z</time>
      </trkpt>
      <trkpt lat="45.17458" lon="6.08901">
        <ele>1702</ele>
        <time>2021-08-28T10:54:54Z</time>
      </trkpt>
      <trkpt lat="45.17449" lon="6.08894">
        <ele>1703.2</ele>
        <time>2021-08-28T10:54:58Z</time>
      </trkpt>
      <trkpt lat="45.17441" lon="6.08887">
        <ele>1704.4</ele>
        <time>2021-08-28T10:55:02Z</time>
      </trkpt>
      <trkpt lat="45.17433" lon="6.0888">
        <ele>1705.4</ele>
        <time>2021-08-28T10:55:06Z</time>
      </trkpt>
      <trkpt lat="45.17425" lon="6.08873">
        <ele>1705.8</ele>
        <time>2021-08-28T10:55:10Z</time>
      </trkpt>
      <trkpt lat="45.17419" lon="6.08862">
        <ele>1707</ele>
        <time>2021-08-28T10:55:14Z</time>
      </trkpt>
      <trkpt lat="45.17423" lon="6.08853">
        <ele>1707.6</ele>
        <time>2021-08-28T10:55:18Z</time>
      </trkpt>
      <trkpt lat="45.17431" lon="6.08858">
        <ele>1708.8</ele>
        <time>2021-08-28T10:55:22Z</time>
      </trkpt>
      <trkpt lat="45.17439" lon="6.08865">
        <ele>1709.4</ele>
        <time>2021-08-28T10:55:26Z</time>
      </trkpt>
      <trkpt lat="45.17448" lon="6.08871">
        <ele>1710.6</ele>
        <time>2021-08-28T10:55:30Z</time>
      </trkpt>
      <trkpt lat="45.17457" lon="6.08875">
        <ele>1711.4</ele>
        <time>2021-08-28T10:55:34Z</time>
      </trkpt>
      <trkpt lat="45.17466" lon="6.08876">
        <ele>1712.6</ele>
        <time>2021-08-28T10:55:38Z</time>
      </trkpt>
      <trkpt lat="45.17475" lon="6.08878">
        <ele>1713.6</ele>
        <time>2021-08-28T10:55:42Z</time>
      </trkpt>
      <trkpt lat="45.17484" lon="6.0888">
        <ele>1714.2</ele>
        <time>2021-08-28T10:55:46Z</time>
      </trkpt>
      <trkpt lat="45.17494" lon="6.08882">
        <ele>1714.6</ele>
        <time>2021-08-28T10:55:50Z</time>
      </trkpt>
      <trkpt lat="45.17503" lon="6.08885">
        <ele>1715.4</ele>
        <time>2021-08-28T10:55:54Z</time>
      </trkpt>
      <trkpt lat="45.17512" lon="6.08889">
        <ele>1716.2</ele>
        <time>2021-08-28T10:55:58Z</time>
      </trkpt>
      <trkpt lat="45.17521" lon="6.08892">
        <ele>1717.4</ele>
        <time>2021-08-28T10:56:02Z</time>
      </trkpt>
      <trkpt lat="45.17529" lon="6.08893">
        <ele>1717.6</ele>
        <time>2021-08-28T10:56:06Z</time>
      </trkpt>
      <trkpt lat="45.17537" lon="6.0889">
        <ele>1718.6</ele>
        <time>2021-08-28T10:56:10Z</time>
      </trkpt>
      <trkpt lat="45.17545" lon="6.08886">
        <ele>1719.6</ele>
        <time>2021-08-28T10:56:14Z</time>
      </trkpt>
      <trkpt lat="45.17554" lon="6.0888">
        <ele>1720.2</ele>
        <time>2021-08-28T10:56:18Z</time>
      </trkpt>
      <trkpt lat="45.17562" lon="6.08873">
        <ele>1720.8</ele>
        <time>2021-08-28T10:56:22Z</time>
      </trkpt>
      <trkpt lat="45.17571" lon="6.08869">
        <ele>1722</ele>
        <time>2021-08-28T10:56:26Z</time>
      </trkpt>
      <trkpt lat="45.1758" lon="6.0887">
        <ele>1722.6</ele>
        <time>2021-08-28T10:56:30Z</time>
      </trkpt>
      <trkpt lat="45.17587" lon="6.08877">
        <ele>1723.6</ele>
        <time>2021-08-28T10:56:34Z</time>
      </trkpt>
      <trkpt lat="45.17593" lon="6.08885">
        <ele>1724</ele>
        <time>2021-08-28T10:56:38Z</time>
      </trkpt>
      <trkpt lat="45.176" lon="6.08894">
        <ele>1725.6</ele>
        <time>2021-08-28T10:56:42Z</time>
      </trkpt>
      <trkpt lat="45.17607" lon="6.08902">
        <ele>1727</ele>
        <time>2021-08-28T10:56:46Z</time>
      </trkpt>
      <trkpt lat="45.17614" lon="6.08912">
        <ele>1727.8</ele>
        <time>2021-08-28T10:56:50Z</time>
      </trkpt>
      <trkpt lat="45.1762" lon="6.08922">
        <ele>1728.6</ele>
        <time>2021-08-28T10:56:54Z</time>
      </trkpt>
      <trkpt lat="45.17627" lon="6.0893">
        <ele>1729.4</ele>
        <time>2021-08-28T10:56:58Z</time>
      </trkpt>
      <trkpt lat="45.17634" lon="6.08934">
        <ele>1730</ele>
        <time>2021-08-28T10:57:02Z</time>
      </trkpt>
      <trkpt lat="45.17644" lon="6.08934">
        <ele>1730.2</ele>
        <time>2021-08-28T10:57:06Z</time>
      </trkpt>
      <trkpt lat="45.17652" lon="6.08933">
        <ele>1731.6</ele>
        <time>2021-08-28T10:57:10Z</time>
      </trkpt>
      <trkpt lat="45.17659" lon="6.08934">
        <ele>1731.8</ele>
        <time>2021-08-28T10:57:14Z</time>
      </trkpt>
      <trkpt lat="45.17668" lon="6.08937">
        <ele>1733.2</ele>
        <time>2021-08-28T10:57:18Z</time>
      </trkpt>
      <trkpt lat="45.17675" lon="6.08945">
        <ele>1734</ele>
        <time>2021-08-28T10:57:22Z</time>
      </trkpt>
      <trkpt lat="45.17681" lon="6.08955">
        <ele>1734.8</ele>
        <time>2021-08-28T10:57:26Z</time>
      </trkpt>
      <trkpt lat="45.17688" lon="6.08963">
        <ele>1735.4</ele>
        <time>2021-08-28T10:57:30Z</time>
      </trkpt>
      <trkpt lat="45.17696" lon="6.08967">
        <ele>1736.8</ele>
        <time>2021-08-28T10:57:34Z</time>
      </trkpt>
      <trkpt lat="45.17705" lon="6.0897">
        <ele>1738</ele>
        <time>2021-08-28T10:57:38Z</time>
      </trkpt>
      <trkpt lat="45.17713" lon="6.08974">
        <ele>1738.8</ele>
        <time>2021-08-28T10:57:42Z</time>
      </trkpt>
      <trkpt lat="45.1772" lon="6.08982">
        <ele>1739.2</ele>
        <time>2021-08-28T10:57:46Z</time>
      </trkpt>
      <trkpt lat="45.17729" lon="6.08987">
        <ele>1740.2</ele>
        <time>2021-08-28T10:57:50Z</time>
      </trkpt>
      <trkpt lat="45.17738" lon="6.0899">
        <ele>1741.2</ele>
        <time>2021-08-28T10:57:54Z</time>
      </trkpt>
      <trkpt lat="45.17747" lon="6.08994">
        <ele>1742</ele>
        <time>2021-08-28T10:57:58Z</time>
      </trkpt>
      <trkpt lat="45.17756" lon="6.08998">
        <ele>1742.8</ele>
        <time>2021-08-28T10:58:02Z</time>
      </trkpt>
      <trkpt lat="45.17765" lon="6.09002">
        <ele>1743.8</ele>
        <time>2021-08-28T10:58:06Z</time>
      </trkpt>
      <trkpt lat="45.17775" lon="6.09006">
        <ele>1744.6</ele>
        <time>2021-08-28T10:58:10Z</time>
      </trkpt>
      <trkpt lat="45.17783" lon="6.09011">
        <ele>1745.8</ele>
        <time>2021-08-28T10:58:14Z</time>
      </trkpt>
      <trkpt lat="45.17792" lon="6.09017">
        <ele>1747.8</ele>
        <time>2021-08-28T10:58:18Z</time>
      </trkpt>
      <trkpt lat="45.178" lon="6.09022">
        <ele>1747.6</ele>
        <time>2021-08-28T10:58:22Z</time>
      </trkpt>
      <trkpt lat="45.17808" lon="6.09026">
        <ele>1749.2</ele>
        <time>2021-08-28T10:58:26Z</time>
      </trkpt>
      <trkpt lat="45.17816" lon="6.0903">
        <ele>1749.6</ele>
        <time>2021-08-28T10:58:30Z</time>
      </trkpt>
      <trkpt lat="45.17825" lon="6.09032">
        <ele>1751.6</ele>
        <time>2021-08-28T10:58:34Z</time>
      </trkpt>
      <trkpt lat="45.17825" lon="6.09032">
        <ele>1751.6</ele>
        <time>2021-08-28T10:58:38Z</time>
      </trkpt>
      <trkpt lat="45.17825" lon="6.09032">
        <ele>1751.6</ele>
        <time>2021-08-28T10:58:42Z</time>
      </trkpt>
      <trkpt lat="45.17844" lon="6.09042">
        <ele>1754</ele>
        <time>2021-08-28T10:58:46Z</time>
      </trkpt>
      <trkpt lat="45.17851" lon="6.09046">
        <ele>1755.2</ele>
        <time>2021-08-28T10:58:50Z</time>
      </trkpt>
      <trkpt lat="45.17859" lon="6.09051">
        <ele>1755.8</ele>
        <time>2021-08-28T10:58:54Z</time>
      </trkpt>
      <trkpt lat="45.17868" lon="6.09053">
        <ele>1757</ele>
        <time>2021-08-28T10:58:58Z</time>
      </trkpt>
      <trkpt lat="45.17876" lon="6.09058">
        <ele>1757.6</ele>
        <time>2021-08-28T10:59:02Z</time>
      </trkpt>
      <trkpt lat="45.17883" lon="6.09063">
        <ele>1759.2</ele>
        <time>2021-08-28T10:59:06Z</time>
      </trkpt>
      <trkpt lat="45.17891" lon="6.09068">
        <ele>1759.8</ele>
        <time>2021-08-28T10:59:10Z</time>
      </trkpt>
      <trkpt lat="45.17898" lon="6.09075">
        <ele>1760.8</ele>
        <time>2021-08-28T10:59:14Z</time>
      </trkpt>
      <trkpt lat="45.17903" lon="6.09083">
        <ele>1761</ele>
        <time>2021-08-28T10:59:18Z</time>
      </trkpt>
      <trkpt lat="45.1791" lon="6.0909">
        <ele>1761.6</ele>
        <time>2021-08-28T10:59:22Z</time>
      </trkpt>
      <trkpt lat="45.17917" lon="6.09097">
        <ele>1762.6</ele>
        <time>2021-08-28T10:59:26Z</time>
      </trkpt>
      <trkpt lat="45.17924" lon="6.09104">
        <ele>1763.6</ele>
        <time>2021-08-28T10:59:30Z</time>
      </trkpt>
      <trkpt lat="45.17932" lon="6.09109">
        <ele>1764.4</ele>
        <time>2021-08-28T10:59:34Z</time>
      </trkpt>
      <trkpt lat="45.1794" lon="6.09114">
        <ele>1764.8</ele>
        <time>2021-08-28T10:59:38Z</time>
      </trkpt>
      <trkpt lat="45.17949" lon="6.09118">
        <ele>1765.2</ele>
        <time>2021-08-28T10:59:42Z</time>
      </trkpt>
      <trkpt lat="45.17957" lon="6.09124">
        <ele>1765.6</ele>
        <time>2021-08-28T10:59:46Z</time>
      </trkpt>
      <trkpt lat="45.17965" lon="6.0913">
        <ele>1766.6</ele>
        <time>2021-08-28T10:59:50Z</time>
      </trkpt>
      <trkpt lat="45.17972" lon="6.09138">
        <ele>1767.2</ele>
        <time>2021-08-28T10:59:54Z</time>
      </trkpt>
      <trkpt lat="45.17979" lon="6.09146">
        <ele>1768.6</ele>
        <time>2021-08-28T10:59:58Z</time>
      </trkpt>
      <trkpt lat="45.17986" lon="6.09156">
        <ele>1769.2</ele>
        <time>2021-08-28T11:00:02Z</time>
      </trkpt>
      <trkpt lat="45.17992" lon="6.09165">
        <ele>1769.4</ele>
        <time>2021-08-28T11:00:06Z</time>
      </trkpt>
      <trkpt lat="45.17997" lon="6.09175">
        <ele>1770.8</ele>
        <time>2021-08-28T11:00:10Z</time>
      </trkpt>
      <trkpt lat="45.18003" lon="6.09185">
        <ele>1771.6</ele>
        <time>2021-08-28T11:00:14Z</time>
      </trkpt>
      <trkpt lat="45.18008" lon="6.09195">
        <ele>1772.6</ele>
        <time>2021-08-28T11:00:18Z</time>
      </trkpt>
      <trkpt lat="45.18014" lon="6.09206">
        <ele>1772.8</ele>
        <time>2021-08-28T11:00:22Z</time>
      </trkpt>
      <trkpt lat="45.18016" lon="6.09217">
        <ele>1773.8</ele>
        <time>2021-08-28T11:00:26Z</time>
      </trkpt>
      <trkpt lat="45.18016" lon="6.0923">
        <ele>1773.8</ele>
        <time>2021-08-28T11:00:30Z</time>
      </trkpt>
      <trkpt lat="45.18016" lon="6.09243">
        <ele>1775.6</ele>
        <time>2021-08-28T11:00:34Z</time>
      </trkpt>
      <trkpt lat="45.18014" lon="6.09256">
        <ele>1775.4</ele>
        <time>2021-08-28T11:00:38Z</time>
      </trkpt>
      <trkpt lat="45.18016" lon="6.09268">
        <ele>1776.2</ele>
        <time>2021-08-28T11:00:42Z</time>
      </trkpt>
      <trkpt lat="45.18021" lon="6.09279">
        <ele>1777.6</ele>
        <time>2021-08-28T11:00:46Z</time>
      </trkpt>
      <trkpt lat="45.18027" lon="6.0929">
        <ele>1778.6</ele>
        <time>2021-08-28T11:00:50Z</time>
      </trkpt>
      <trkpt lat="45.18032" lon="6.093">
        <ele>1779.4</ele>
        <time>2021-08-28T11:00:54Z</time>
      </trkpt>
      <trkpt lat="45.18038" lon="6.09309">
        <ele>1780</ele>
        <time>2021-08-28T11:00:58Z</time>
      </trkpt>
      <trkpt lat="45.18043" lon="6.09318">
        <ele>1781.2</ele>
        <time>2021-08-28T11:01:02Z</time>
      </trkpt>
      <trkpt lat="45.18049" lon="6.09324">
        <ele>1782</ele>
        <time>2021-08-28T11:01:06Z</time>
      </trkpt>
      <trkpt lat="45.18055" lon="6.0933">
        <ele>1782.6</ele>
        <time>2021-08-28T11:01:10Z</time>
      </trkpt>
      <trkpt lat="45.18055" lon="6.0933">
        <ele>1782.6</ele>
        <time>2021-08-28T11:01:14Z</time>
      </trkpt>
      <trkpt lat="45.18074" lon="6.09342">
        <ele>1784.4</ele>
        <time>2021-08-28T11:01:18Z</time>
      </trkpt>
      <trkpt lat="45.18082" lon="6.09346">
        <ele>1785.4</ele>
        <time>2021-08-28T11:01:22Z</time>
      </trkpt>
      <trkpt lat="45.18089" lon="6.09349">
        <ele>1785.8</ele>
        <time>2021-08-28T11:01:26Z</time>
      </trkpt>
      <trkpt lat="45.18097" lon="6.09353">
        <ele>1786.2</ele>
        <time>2021-08-28T11:01:30Z</time>
      </trkpt>
      <trkpt lat="45.18106" lon="6.09357">
        <ele>1786.8</ele>
        <time>2021-08-28T11:01:34Z</time>
      </trkpt>
      <trkpt lat="45.18113" lon="6.09363">
        <ele>1788.4</ele>
        <time>2021-08-28T11:01:38Z</time>
      </trkpt>
      <trkpt lat="45.1812" lon="6.0937">
        <ele>1788</ele>
        <time>2021-08-28T11:01:42Z</time>
      </trkpt>
      <trkpt lat="45.18127" lon="6.09375">
        <ele>1789</ele>
        <time>2021-08-28T11:01:46Z</time>
      </trkpt>
      <trkpt lat="45.18134" lon="6.09383">
        <ele>1790</ele>
        <time>2021-08-28T11:01:50Z</time>
      </trkpt>
      <trkpt lat="45.1814" lon="6.09393">
        <ele>1791.4</ele>
        <time>2021-08-28T11:01:54Z</time>
      </trkpt>
      <trkpt lat="45.18146" lon="6.09402">
        <ele>1791.8</ele>
        <time>2021-08-28T11:01:58Z</time>
      </trkpt>
      <trkpt lat="45.18153" lon="6.0941">
        <ele>1793</ele>
        <time>2021-08-28T11:02:02Z</time>
      </trkpt>
      <trkpt lat="45.1816" lon="6.09417">
        <ele>1793.6</ele>
        <time>2021-08-28T11:02:06Z</time>
      </trkpt>
      <trkpt lat="45.18167" lon="6.09424">
        <ele>1794.6</ele>
        <time>2021-08-28T11:02:10Z</time>
      </trkpt>
      <trkpt lat="45.18174" lon="6.09433">
        <ele>1795.4</ele>
        <time>2021-08-28T11:02:14Z</time>
      </trkpt>
      <trkpt lat="45.18181" lon="6.09442">
        <ele>1796</ele>
        <time>2021-08-28T11:02:18Z</time>
      </trkpt>
      <trkpt lat="45.18188" lon="6.09452">
        <ele>1796.4</ele>
        <time>2021-08-28T11:02:22Z</time>
      </trkpt>
      <trkpt lat="45.18195" lon="6.09462">
        <ele>1797.2</ele>
        <time>2021-08-28T11:02:26Z</time>
      </trkpt>
      <trkpt lat="45.18203" lon="6.0947">
        <ele>1798</ele>
        <time>2021-08-28T11:02:30Z</time>
      </trkpt>
      <trkpt lat="45.18211" lon="6.09477">
        <ele>1798.8</ele>
        <time>2021-08-28T11:02:34Z</time>
      </trkpt>
      <trkpt lat="45.1822" lon="6.09483">
        <ele>1799</ele>
        <time>2021-08-28T11:02:38Z</time>
      </trkpt>
      <trkpt lat="45.18229" lon="6.09488">
        <ele>1800.2</ele>
        <time>2021-08-28T11:02:42Z</time>
      </trkpt>
      <trkpt lat="45.18238" lon="6.09495">
        <ele>1801.2</ele>
        <time>2021-08-28T11:02:46Z</time>
      </trkpt>
      <trkpt lat="45.18245" lon="6.09503">
        <ele>1801.6</ele>
        <time>2021-08-28T11:02:50Z</time>
      </trkpt>
      <trkpt lat="45.1825" lon="6.09513">
        <ele>1803</ele>
        <time>2021-08-28T11:02:54Z</time>
      </trkpt>
      <trkpt lat="45.18251" lon="6.09525">
        <ele>1804</ele>
        <time>2021-08-28T11:02:58Z</time>
      </trkpt>
      <trkpt lat="45.18246" lon="6.09538">
        <ele>1804.6</ele>
        <time>2021-08-28T11:03:02Z</time>
      </trkpt>
      <trkpt lat="45.18244" lon="6.09551">
        <ele>1805.4</ele>
        <time>2021-08-28T11:03:06Z</time>
      </trkpt>
      <trkpt lat="45.18244" lon="6.09565">
        <ele>1806.2</ele>
        <time>2021-08-28T11:03:10Z</time>
      </trkpt>
      <trkpt lat="45.18246" lon="6.09576">
        <ele>1807.2</ele>
        <time>2021-08-28T11:03:14Z</time>
      </trkpt>
      <trkpt lat="45.18247" lon="6.09587">
        <ele>1807</ele>
        <time>2021-08-28T11:03:18Z</time>
      </trkpt>
      <trkpt lat="45.18248" lon="6.096">
        <ele>1808</ele>
        <time>2021-08-28T11:03:22Z</time>
      </trkpt>
      <trkpt lat="45.18248" lon="6.09615">
        <ele>1809</ele>
        <time>2021-08-28T11:03:26Z</time>
      </trkpt>
      <trkpt lat="45.18245" lon="6.09626">
        <ele>1810.6</ele>
        <time>2021-08-28T11:03:30Z</time>
      </trkpt>
      <trkpt lat="45.18241" lon="6.09637">
        <ele>1811.4</ele>
        <time>2021-08-28T11:03:34Z</time>
      </trkpt>
      <trkpt lat="45.18238" lon="6.09649">
        <ele>1812.2</ele>
        <time>2021-08-28T11:03:38Z</time>
      </trkpt>
      <trkpt lat="45.18237" lon="6.09662">
        <ele>1812.6</ele>
        <time>2021-08-28T11:03:42Z</time>
      </trkpt>
      <trkpt lat="45.18239" lon="6.09676">
        <ele>1813</ele>
        <time>2021-08-28T11:03:46Z</time>
      </trkpt>
      <trkpt lat="45.1824" lon="6.09689">
        <ele>1814.2</ele>
        <time>2021-08-28T11:03:50Z</time>
      </trkpt>
      <trkpt lat="45.18242" lon="6.097">
        <ele>1815</ele>
        <time>2021-08-28T11:03:54Z</time>
      </trkpt>
      <trkpt lat="45.1824" lon="6.09713">
        <ele>1815.6</ele>
        <time>2021-08-28T11:03:58Z</time>
      </trkpt>
      <trkpt lat="45.18236" lon="6.09729">
        <ele>1816.8</ele>
        <time>2021-08-28T11:04:02Z</time>
      </trkpt>
      <trkpt lat="45.18234" lon="6.09741">
        <ele>1817.2</ele>
        <time>2021-08-28T11:04:06Z</time>
      </trkpt>
      <trkpt lat="45.18231" lon="6.09753">
        <ele>1818</ele>
        <time>2021-08-28T11:04:10Z</time>
      </trkpt>
      <trkpt lat="45.18229" lon="6.09767">
        <ele>1818</ele>
        <time>2021-08-28T11:04:14Z</time>
      </trkpt>
      <trkpt lat="45.18229" lon="6.09781">
        <ele>1819.2</ele>
        <time>2021-08-28T11:04:18Z</time>
      </trkpt>
      <trkpt lat="45.18227" lon="6.09796">
        <ele>1820.4</ele>
        <time>2021-08-28T11:04:22Z</time>
      </trkpt>
      <trkpt lat="45.18226" lon="6.09811">
        <ele>1820.4</ele>
        <time>2021-08-28T11:04:26Z</time>
      </trkpt>
      <trkpt lat="45.18226" lon="6.09826">
        <ele>1822.4</ele>
        <time>2021-08-28T11:04:30Z</time>
      </trkpt>
      <trkpt lat="45.18225" lon="6.09841">
        <ele>1822.8</ele>
        <time>2021-08-28T11:04:34Z</time>
      </trkpt>
      <trkpt lat="45.18223" lon="6.09855">
        <ele>1823.6</ele>
        <time>2021-08-28T11:04:38Z</time>
      </trkpt>
      <trkpt lat="45.18215" lon="6.09858">
        <ele>1823.8</ele>
        <time>2021-08-28T11:04:42Z</time>
      </trkpt>
      <trkpt lat="45.18206" lon="6.09858">
        <ele>1825.8</ele>
        <time>2021-08-28T11:04:46Z</time>
      </trkpt>
      <trkpt lat="45.18198" lon="6.09852">
        <ele>1826.6</ele>
        <time>2021-08-28T11:04:50Z</time>
      </trkpt>
      <trkpt lat="45.18191" lon="6.09847">
        <ele>1827.4</ele>
        <time>2021-08-28T11:04:54Z</time>
      </trkpt>
      <trkpt lat="45.18183" lon="6.0984">
        <ele>1828.2</ele>
        <time>2021-08-28T11:04:58Z</time>
      </trkpt>
      <trkpt lat="45.18175" lon="6.09835">
        <ele>1828.4</ele>
        <time>2021-08-28T11:05:02Z</time>
      </trkpt>
      <trkpt lat="45.18166" lon="6.09832">
        <ele>1830.2</ele>
        <time>2021-08-28T11:05:06Z</time>
      </trkpt>
      <trkpt lat="45.18157" lon="6.09828">
        <ele>1831.6</ele>
        <time>2021-08-28T11:05:10Z</time>
      </trkpt>
      <trkpt lat="45.18148" lon="6.09824">
        <ele>1832</ele>
        <time>2021-08-28T11:05:14Z</time>
      </trkpt>
      <trkpt lat="45.1814" lon="6.0982">
        <ele>1833.2</ele>
        <time>2021-08-28T11:05:18Z</time>
      </trkpt>
      <trkpt lat="45.1813" lon="6.09819">
        <ele>1834</ele>
        <time>2021-08-28T11:05:22Z</time>
      </trkpt>
      <trkpt lat="45.18121" lon="6.09816">
        <ele>1835</ele>
        <time>2021-08-28T11:05:26Z</time>
      </trkpt>
      <trkpt lat="45.1811" lon="6.09815">
        <ele>1835.4</ele>
        <time>2021-08-28T11:05:30Z</time>
      </trkpt>
      <trkpt lat="45.18101" lon="6.09813">
        <ele>1836.6</ele>
        <time>2021-08-28T11:05:34Z</time>
      </trkpt>
      <trkpt lat="45.18091" lon="6.09812">
        <ele>1837.2</ele>
        <time>2021-08-28T11:05:38Z</time>
      </trkpt>
      <trkpt lat="45.18081" lon="6.09809">
        <ele>1838.2</ele>
        <time>2021-08-28T11:05:42Z</time>
      </trkpt>
      <trkpt lat="45.1807" lon="6.09805">
        <ele>1838.6</ele>
        <time>2021-08-28T11:05:46Z</time>
      </trkpt>
      <trkpt lat="45.1806" lon="6.098">
        <ele>1838.6</ele>
        <time>2021-08-28T11:05:50Z</time>
      </trkpt>
      <trkpt lat="45.1805" lon="6.09797">
        <ele>1840</ele>
        <time>2021-08-28T11:05:54Z</time>
      </trkpt>
      <trkpt lat="45.1804" lon="6.09795">
        <ele>1840.4</ele>
        <time>2021-08-28T11:05:58Z</time>
      </trkpt>
      <trkpt lat="45.18031" lon="6.09796">
        <ele>1841</ele>
        <time>2021-08-28T11:06:02Z</time>
      </trkpt>
      <trkpt lat="45.18022" lon="6.09794">
        <ele>1842.2</ele>
        <time>2021-08-28T11:06:06Z</time>
      </trkpt>
      <trkpt lat="45.18012" lon="6.09792">
        <ele>1843</ele>
        <time>2021-08-28T11:06:10Z</time>
      </trkpt>
      <trkpt lat="45.18002" lon="6.09794">
        <ele>1844.6</ele>
        <time>2021-08-28T11:06:14Z</time>
      </trkpt>
      <trkpt lat="45.17996" lon="6.09803">
        <ele>1845</ele>
        <time>2021-08-28T11:06:18Z</time>
      </trkpt>
      <trkpt lat="45.17997" lon="6.09815">
        <ele>1845.2</ele>
        <time>2021-08-28T11:06:22Z</time>
      </trkpt>
      <trkpt lat="45.18" lon="6.09826">
        <ele>1846.6</ele>
        <time>2021-08-28T11:06:26Z</time>
      </trkpt>
      <trkpt lat="45.18002" lon="6.09837">
        <ele>1847.8</ele>
        <time>2021-08-28T11:06:30Z</time>
      </trkpt>
      <trkpt lat="45.18004" lon="6.09849">
        <ele>1847.8</ele>
        <time>2021-08-28T11:06:34Z</time>
      </trkpt>
      <trkpt lat="45.18006" lon="6.09861">
        <ele>1849.2</ele>
        <time>2021-08-28T11:06:38Z</time>
      </trkpt>
      <trkpt lat="45.18009" lon="6.09872">
        <ele>1850</ele>
        <time>2021-08-28T11:06:42Z</time>
      </trkpt>
      <trkpt lat="45.18011" lon="6.09883">
        <ele>1850.6</ele>
        <time>2021-08-28T11:06:46Z</time>
      </trkpt>
      <trkpt lat="45.18014" lon="6.09895">
        <ele>1852.4</ele>
        <time>2021-08-28T11:06:50Z</time>
      </trkpt>
      <trkpt lat="45.18016" lon="6.09906">
        <ele>1852.8</ele>
        <time>2021-08-28T11:06:54Z</time>
      </trkpt>
      <trkpt lat="45.18017" lon="6.09918">
        <ele>1853.6</ele>
        <time>2021-08-28T11:06:58Z</time>
      </trkpt>
      <trkpt lat="45.18019" lon="6.0993">
        <ele>1854.6</ele>
        <time>2021-08-28T11:07:02Z</time>
      </trkpt>
      <trkpt lat="45.18021" lon="6.09942">
        <ele>1855</ele>
        <time>2021-08-28T11:07:06Z</time>
      </trkpt>
      <trkpt lat="45.18023" lon="6.09952">
        <ele>1856</ele>
        <time>2021-08-28T11:07:10Z</time>
      </trkpt>
      <trkpt lat="45.18029" lon="6.09962">
        <ele>1857.2</ele>
        <time>2021-08-28T11:07:14Z</time>
      </trkpt>
      <trkpt lat="45.18036" lon="6.09957">
        <ele>1858.2</ele>
        <time>2021-08-28T11:07:18Z</time>
      </trkpt>
      <trkpt lat="45.18035" lon="6.09942">
        <ele>1858.6</ele>
        <time>2021-08-28T11:07:22Z</time>
      </trkpt>
      <trkpt lat="45.18032" lon="6.09926">
        <ele>1859.4</ele>
        <time>2021-08-28T11:07:26Z</time>
      </trkpt>
      <trkpt lat="45.1803" lon="6.0991">
        <ele>1859.2</ele>
        <time>2021-08-28T11:07:30Z</time>
      </trkpt>
      <trkpt lat="45.1803" lon="6.09895">
        <ele>1860.6</ele>
        <time>2021-08-28T11:07:34Z</time>
      </trkpt>
      <trkpt lat="45.18031" lon="6.0988">
        <ele>1861</ele>
        <time>2021-08-28T11:07:38Z</time>
      </trkpt>
      <trkpt lat="45.18037" lon="6.09872">
        <ele>1861.4</ele>
        <time>2021-08-28T11:07:42Z</time>
      </trkpt>
      <trkpt lat="45.18046" lon="6.09871">
        <ele>1863.6</ele>
        <time>2021-08-28T11:07:46Z</time>
      </trkpt>
      <trkpt lat="45.18056" lon="6.09871">
        <ele>1864.4</ele>
        <time>2021-08-28T11:07:50Z</time>
      </trkpt>
      <trkpt lat="45.18064" lon="6.09872">
        <ele>1865</ele>
        <time>2021-08-28T11:07:54Z</time>
      </trkpt>
      <trkpt lat="45.18074" lon="6.09874">
        <ele>1865.8</ele>
        <time>2021-08-28T11:07:58Z</time>
      </trkpt>
      <trkpt lat="45.18083" lon="6.09877">
        <ele>1866.8</ele>
        <time>2021-08-28T11:08:02Z</time>
      </trkpt>
      <trkpt lat="45.18091" lon="6.09883">
        <ele>1867.6</ele>
        <time>2021-08-28T11:08:06Z</time>
      </trkpt>
      <trkpt lat="45.18099" lon="6.09891">
        <ele>1868.4</ele>
        <time>2021-08-28T11:08:10Z</time>
      </trkpt>
      <trkpt lat="45.18107" lon="6.09898">
        <ele>1869</ele>
        <time>2021-08-28T11:08:14Z</time>
      </trkpt>
      <trkpt lat="45.18114" lon="6.09904">
        <ele>1870</ele>
        <time>2021-08-28T11:08:18Z</time>
      </trkpt>
      <trkpt lat="45.18121" lon="6.09912">
        <ele>1870.8</ele>
        <time>2021-08-28T11:08:22Z</time>
      </trkpt>
      <trkpt lat="45.18128" lon="6.0992">
        <ele>1872.2</ele>
        <time>2021-08-28T11:08:26Z</time>
      </trkpt>
      <trkpt lat="45.18134" lon="6.09929">
        <ele>1872.4</ele>
        <time>2021-08-28T11:08:30Z</time>
      </trkpt>
      <trkpt lat="45.1814" lon="6.0994">
        <ele>1873.4</ele>
        <time>2021-08-28T11:08:34Z</time>
      </trkpt>
      <trkpt lat="45.18146" lon="6.09948">
        <ele>1873.6</ele>
        <time>2021-08-28T11:08:38Z</time>
      </trkpt>
      <trkpt lat="45.18153" lon="6.09955">
        <ele>1874.8</ele>
        <time>2021-08-28T11:08:42Z</time>
      </trkpt>
      <trkpt lat="45.1816" lon="6.09961">
        <ele>1874.8</ele>
        <time>2021-08-28T11:08:46Z</time>
      </trkpt>
      <trkpt lat="45.18169" lon="6.09963">
        <ele>1876.8</ele>
        <time>2021-08-28T11:08:50Z</time>
      </trkpt>
      <trkpt lat="45.18177" lon="6.09964">
        <ele>1877.8</ele>
        <time>2021-08-28T11:08:54Z</time>
      </trkpt>
      <trkpt lat="45.18185" lon="6.09966">
        <ele>1878.6</ele>
        <time>2021-08-28T11:08:58Z</time>
      </trkpt>
      <trkpt lat="45.18193" lon="6.09971">
        <ele>1879.8</ele>
        <time>2021-08-28T11:09:02Z</time>
      </trkpt>
      <trkpt lat="45.18198" lon="6.09978">
        <ele>1880.2</ele>
        <time>2021-08-28T11:09:06Z</time>
      </trkpt>
      <trkpt lat="45.18198" lon="6.09978">
        <ele>1880.2</ele>
        <time>2021-08-28T11:09:10Z</time>
      </trkpt>
      <trkpt lat="45.18198" lon="6.09978">
        <ele>1880.2</ele>
        <time>2021-08-28T11:09:14Z</time>
      </trkpt>
      <trkpt lat="45.1821" lon="6.09996">
        <ele>1882</ele>
        <time>2021-08-28T11:09:18Z</time>
      </trkpt>
      <trkpt lat="45.18217" lon="6.10004">
        <ele>1883.8</ele>
        <time>2021-08-28T11:09:22Z</time>
      </trkpt>
      <trkpt lat="45.18224" lon="6.1001">
        <ele>1884.6</ele>
        <time>2021-08-28T11:09:26Z</time>
      </trkpt>
      <trkpt lat="45.1823" lon="6.10019">
        <ele>1886.6</ele>
        <time>2021-08-28T11:09:30Z</time>
      </trkpt>
      <trkpt lat="45.18237" lon="6.10026">
        <ele>1886.8</ele>
        <time>2021-08-28T11:09:34Z</time>
      </trkpt>
      <trkpt lat="45.18241" lon="6.10034">
        <ele>1887.2</ele>
        <time>2021-08-28T11:09:38Z</time>
      </trkpt>
      <trkpt lat="45.18246" lon="6.10042">
        <ele>1888</ele>
        <time>2021-08-28T11:09:42Z</time>
      </trkpt>
      <trkpt lat="45.1825" lon="6.10051">
        <ele>1888.6</ele>
        <time>2021-08-28T11:09:46Z</time>
      </trkpt>
      <trkpt lat="45.18254" lon="6.1006">
        <ele>1890.2</ele>
        <time>2021-08-28T11:09:50Z</time>
      </trkpt>
      <trkpt lat="45.18259" lon="6.10069">
        <ele>1890.4</ele>
        <time>2021-08-28T11:09:54Z</time>
      </trkpt>
      <trkpt lat="45.18264" lon="6.10078">
        <ele>1891.8</ele>
        <time>2021-08-28T11:09:58Z</time>
      </trkpt>
      <trkpt lat="45.18269" lon="6.10085">
        <ele>1892.4</ele>
        <time>2021-08-28T11:10:02Z</time>
      </trkpt>
      <trkpt lat="45.18273" lon="6.10093">
        <ele>1892.6</ele>
        <time>2021-08-28T11:10:06Z</time>
      </trkpt>
      <trkpt lat="45.18278" lon="6.10102">
        <ele>1893.6</ele>
        <time>2021-08-28T11:10:10Z</time>
      </trkpt>
      <trkpt lat="45.18282" lon="6.10113">
        <ele>1894.4</ele>
        <time>2021-08-28T11:10:14Z</time>
      </trkpt>
      <trkpt lat="45.18287" lon="6.10123">
        <ele>1894.4</ele>
        <time>2021-08-28T11:10:18Z</time>
      </trkpt>
      <trkpt lat="45.18293" lon="6.10132">
        <ele>1895.8</ele>
        <time>2021-08-28T11:10:22Z</time>
      </trkpt>
      <trkpt lat="45.183" lon="6.10135">
        <ele>1896.4</ele>
        <time>2021-08-28T11:10:26Z</time>
      </trkpt>
      <trkpt lat="45.183" lon="6.10135">
        <ele>1896.4</ele>
        <time>2021-08-28T11:10:30Z</time>
      </trkpt>
      <trkpt lat="45.18315" lon="6.10147">
        <ele>1898</ele>
        <time>2021-08-28T11:10:34Z</time>
      </trkpt>
      <trkpt lat="45.18322" lon="6.10152">
        <ele>1898.8</ele>
        <time>2021-08-28T11:10:38Z</time>
      </trkpt>
      <trkpt lat="45.18329" lon="6.10159">
        <ele>1899.6</ele>
        <time>2021-08-28T11:10:42Z</time>
      </trkpt>
      <trkpt lat="45.18335" lon="6.10166">
        <ele>1900.2</ele>
        <time>2021-08-28T11:10:46Z</time>
      </trkpt>
      <trkpt lat="45.18341" lon="6.10172">
        <ele>1901</ele>
        <time>2021-08-28T11:10:50Z</time>
      </trkpt>
      <trkpt lat="45.18348" lon="6.10178">
        <ele>1901.6</ele>
        <time>2021-08-28T11:10:54Z</time>
      </trkpt>
      <trkpt lat="45.18348" lon="6.10178">
        <ele>1901.6</ele>
        <time>2021-08-28T11:10:58Z</time>
      </trkpt>
      <trkpt lat="45.18361" lon="6.10192">
        <ele>1902.4</ele>
        <time>2021-08-28T11:11:02Z</time>
      </trkpt>
      <trkpt lat="45.18367" lon="6.10199">
        <ele>1903.6</ele>
        <time>2021-08-28T11:11:06Z</time>
      </trkpt>
      <trkpt lat="45.18374" lon="6.10206">
        <ele>1905.4</ele>
        <time>2021-08-28T11:11:10Z</time>
      </trkpt>
      <trkpt lat="45.18381" lon="6.10212">
        <ele>1906.2</ele>
        <time>2021-08-28T11:11:14Z</time>
      </trkpt>
      <trkpt lat="45.18387" lon="6.10218">
        <ele>1906.6</ele>
        <time>2021-08-28T11:11:18Z</time>
      </trkpt>
      <trkpt lat="45.18395" lon="6.10223">
        <ele>1907</ele>
        <time>2021-08-28T11:11:22Z</time>
      </trkpt>
      <trkpt lat="45.18403" lon="6.10227">
        <ele>1907.8</ele>
        <time>2021-08-28T11:11:26Z</time>
      </trkpt>
      <trkpt lat="45.18411" lon="6.10228">
        <ele>1908.8</ele>
        <time>2021-08-28T11:11:30Z</time>
      </trkpt>
      <trkpt lat="45.18419" lon="6.10226">
        <ele>1909.4</ele>
        <time>2021-08-28T11:11:34Z</time>
      </trkpt>
      <trkpt lat="45.18427" lon="6.10225">
        <ele>1910.6</ele>
        <time>2021-08-28T11:11:38Z</time>
      </trkpt>
      <trkpt lat="45.18432" lon="6.10232">
        <ele>1911.4</ele>
        <time>2021-08-28T11:11:42Z</time>
      </trkpt>
      <trkpt lat="45.18428" lon="6.10241">
        <ele>1912</ele>
        <time>2021-08-28T11:11:46Z</time>
      </trkpt>
      <trkpt lat="45.18421" lon="6.10246">
        <ele>1912.4</ele>
        <time>2021-08-28T11:11:50Z</time>
      </trkpt>
      <trkpt lat="45.18412" lon="6.10247">
        <ele>1913.4</ele>
        <time>2021-08-28T11:11:54Z</time>
      </trkpt>
      <trkpt lat="45.18404" lon="6.10247">
        <ele>1914.2</ele>
        <time>2021-08-28T11:11:58Z</time>
      </trkpt>
      <trkpt lat="45.18396" lon="6.10245">
        <ele>1915</ele>
        <time>2021-08-28T11:12:02Z</time>
      </trkpt>
      <trkpt lat="45.18388" lon="6.10243">
        <ele>1915.4</ele>
        <time>2021-08-28T11:12:06Z</time>
      </trkpt>
      <trkpt lat="45.1838" lon="6.10239">
        <ele>1916.6</ele>
        <time>2021-08-28T11:12:10Z</time>
      </trkpt>
      <trkpt lat="45.1837" lon="6.10232">
        <ele>1918</ele>
        <time>2021-08-28T11:12:14Z</time>
      </trkpt>
      <trkpt lat="45.18361" lon="6.10229">
        <ele>1919.8</ele>
        <time>2021-08-28T11:12:18Z</time>
      </trkpt>
      <trkpt lat="45.18353" lon="6.10226">
        <ele>1920.8</ele>
        <time>2021-08-28T11:12:22Z</time>
      </trkpt>
      <trkpt lat="45.18344" lon="6.10222">
        <ele>1920.8</ele>
        <time>2021-08-28T11:12:26Z</time>
      </trkpt>
      <trkpt lat="45.18335" lon="6.10217">
        <ele>1921.8</ele>
        <time>2021-08-28T11:12:30Z</time>
      </trkpt>
      <trkpt lat="45.18327" lon="6.10212">
        <ele>1923.6</ele>
        <time>2021-08-28T11:12:34Z</time>
      </trkpt>
      <trkpt lat="45.18318" lon="6.10208">
        <ele>1924.4</ele>
        <time>2021-08-28T11:12:38Z</time>
      </trkpt>
      <trkpt lat="45.18308" lon="6.10206">
        <ele>1925.2</ele>
        <time>2021-08-28T11:12:42Z</time>
      </trkpt>
      <trkpt lat="45.18299" lon="6.10209">
        <ele>1926</ele>
        <time>2021-08-28T11:12:46Z</time>
      </trkpt>
      <trkpt lat="45.18291" lon="6.10215">
        <ele>1926.8</ele>
        <time>2021-08-28T11:12:50Z</time>
      </trkpt>
      <trkpt lat="45.18282" lon="6.10219">
        <ele>1927</ele>
        <time>2021-08-28T11:12:54Z</time>
      </trkpt>
      <trkpt lat="45.18275" lon="6.10222">
        <ele>1928.6</ele>
        <time>2021-08-28T11:12:58Z</time>
      </trkpt>
      <trkpt lat="45.18267" lon="6.10225">
        <ele>1929.6</ele>
        <time>2021-08-28T11:13:02Z</time>
      </trkpt>
      <trkpt lat="45.18259" lon="6.10227">
        <ele>1930.6</ele>
        <time>2021-08-28T11:13:06Z</time>
      </trkpt>
      <trkpt lat="45.18252" lon="6.1023">
        <ele>1931.4</ele>
        <time>2021-08-28T11:13:10Z</time>
      </trkpt>
      <trkpt lat="45.18246" lon="6.10235">
        <ele>1932.4</ele>
        <time>2021-08-28T11:13:14Z</time>
      </trkpt>
      <trkpt lat="45.18239" lon="6.10241">
        <ele>1933.2</ele>
        <time>2021-08-28T11:13:18Z</time>
      </trkpt>
      <trkpt lat="45.18232" lon="6.10246">
        <ele>1933.8</ele>
        <time>2021-08-28T11:13:22Z</time>
      </trkpt>
      <trkpt lat="45.18224" lon="6.1025">
        <ele>1934.4</ele>
        <time>2021-08-28T11:13:26Z</time>
      </trkpt>
      <trkpt lat="45.18216" lon="6.10252">
        <ele>1935.6</ele>
        <time>2021-08-28T11:13:30Z</time>
      </trkpt>
      <trkpt lat="45.18207" lon="6.10253">
        <ele>1936.2</ele>
        <time>2021-08-28T11:13:34Z</time>
      </trkpt>
      <trkpt lat="45.18199" lon="6.10254">
        <ele>1938</ele>
        <time>2021-08-28T11:13:38Z</time>
      </trkpt>
      <trkpt lat="45.18191" lon="6.10253">
        <ele>1939</ele>
        <time>2021-08-28T11:13:42Z</time>
      </trkpt>
      <trkpt lat="45.18182" lon="6.10254">
        <ele>1940.8</ele>
        <time>2021-08-28T11:13:46Z</time>
      </trkpt>
      <trkpt lat="45.18173" lon="6.10257">
        <ele>1941.8</ele>
        <time>2021-08-28T11:13:50Z</time>
      </trkpt>
      <trkpt lat="45.18164" lon="6.1026">
        <ele>1942.2</ele>
        <time>2021-08-28T11:13:54Z</time>
      </trkpt>
      <trkpt lat="45.18155" lon="6.10263">
        <ele>1942.8</ele>
        <time>2021-08-28T11:13:58Z</time>
      </trkpt>
      <trkpt lat="45.18146" lon="6.10264">
        <ele>1943</ele>
        <time>2021-08-28T11:14:02Z</time>
      </trkpt>
      <trkpt lat="45.18138" lon="6.10271">
        <ele>1943.6</ele>
        <time>2021-08-28T11:14:06Z</time>
      </trkpt>
      <trkpt lat="45.1814" lon="6.10281">
        <ele>1943.8</ele>
        <time>2021-08-28T11:14:10Z</time>
      </trkpt>
      <trkpt lat="45.18148" lon="6.10278">
        <ele>1944.2</ele>
        <time>2021-08-28T11:14:14Z</time>
      </trkpt>
      <trkpt lat="45.18157" lon="6.10276">
        <ele>1945.4</ele>
        <time>2021-08-28T11:14:18Z</time>
      </trkpt>
      <trkpt lat="45.18165" lon="6.10278">
        <ele>1946.6</ele>
        <time>2021-08-28T11:14:22Z</time>
      </trkpt>
      <trkpt lat="45.18173" lon="6.10279">
        <ele>1947.2</ele>
        <time>2021-08-28T11:14:26Z</time>
      </trkpt>
      <trkpt lat="45.18181" lon="6.10283">
        <ele>1948</ele>
        <time>2021-08-28T11:14:30Z</time>
      </trkpt>
      <trkpt lat="45.18181" lon="6.10283">
        <ele>1948</ele>
        <time>2021-08-28T11:14:34Z</time>
      </trkpt>
      <trkpt lat="45.18194" lon="6.10296">
        <ele>1949.4</ele>
        <time>2021-08-28T11:14:38Z</time>
      </trkpt>
      <trkpt lat="45.18201" lon="6.10302">
        <ele>1949.2</ele>
        <time>2021-08-28T11:14:42Z</time>
      </trkpt>
      <trkpt lat="45.18207" lon="6.1031">
        <ele>1950</ele>
        <time>2021-08-28T11:14:46Z</time>
      </trkpt>
      <trkpt lat="45.18214" lon="6.10318">
        <ele>1951.4</ele>
        <time>2021-08-28T11:14:50Z</time>
      </trkpt>
      <trkpt lat="45.18221" lon="6.10324">
        <ele>1952.4</ele>
        <time>2021-08-28T11:14:54Z</time>
      </trkpt>
      <trkpt lat="45.18229" lon="6.1033">
        <ele>1953.6</ele>
        <time>2021-08-28T11:14:58Z</time>
      </trkpt>
      <trkpt lat="45.18237" lon="6.10334">
        <ele>1954.2</ele>
        <time>2021-08-28T11:15:02Z</time>
      </trkpt>
      <trkpt lat="45.18245" lon="6.10338">
        <ele>1955</ele>
        <time>2021-08-28T11:15:06Z</time>
      </trkpt>
      <trkpt lat="45.18252" lon="6.10345">
        <ele>1955.6</ele>
        <time>2021-08-28T11:15:10Z</time>
      </trkpt>
      <trkpt lat="45.1826" lon="6.10353">
        <ele>1956.6</ele>
        <time>2021-08-28T11:15:14Z</time>
      </trkpt>
      <trkpt lat="45.18268" lon="6.10357">
        <ele>1957.8</ele>
        <time>2021-08-28T11:15:18Z</time>
      </trkpt>
      <trkpt lat="45.18277" lon="6.10356">
        <ele>1958.2</ele>
        <time>2021-08-28T11:15:22Z</time>
      </trkpt>
      <trkpt lat="45.18285" lon="6.10357">
        <ele>1959</ele>
        <time>2021-08-28T11:15:26Z</time>
      </trkpt>
      <trkpt lat="45.18293" lon="6.10358">
        <ele>1960</ele>
        <time>2021-08-28T11:15:30Z</time>
      </trkpt>
      <trkpt lat="45.183" lon="6.1036">
        <ele>1961.2</ele>
        <time>2021-08-28T11:15:34Z</time>
      </trkpt>
      <trkpt lat="45.18308" lon="6.10364">
        <ele>1962.2</ele>
        <time>2021-08-28T11:15:38Z</time>
      </trkpt>
      <trkpt lat="45.18315" lon="6.10369">
        <ele>1963</ele>
        <time>2021-08-28T11:15:42Z</time>
      </trkpt>
      <trkpt lat="45.18321" lon="6.10373">
        <ele>1963.4</ele>
        <time>2021-08-28T11:15:46Z</time>
      </trkpt>
      <trkpt lat="45.18328" lon="6.10378">
        <ele>1964.8</ele>
        <time>2021-08-28T11:15:50Z</time>
      </trkpt>
      <trkpt lat="45.18335" lon="6.10382">
        <ele>1965.2</ele>
        <time>2021-08-28T11:15:54Z</time>
      </trkpt>
      <trkpt lat="45.18343" lon="6.10385">
        <ele>1965.6</ele>
        <time>2021-08-28T11:15:58Z</time>
      </trkpt>
      <trkpt lat="45.1835" lon="6.10386">
        <ele>1967</ele>
        <time>2021-08-28T11:16:02Z</time>
      </trkpt>
      <trkpt lat="45.18358" lon="6.10385">
        <ele>1967.8</ele>
        <time>2021-08-28T11:16:06Z</time>
      </trkpt>
      <trkpt lat="45.18365" lon="6.1038">
        <ele>1968.6</ele>
        <time>2021-08-28T11:16:10Z</time>
      </trkpt>
      <trkpt lat="45.18371" lon="6.10372">
        <ele>1969.8</ele>
        <time>2021-08-28T11:16:14Z</time>
      </trkpt>
      <trkpt lat="45.18377" lon="6.10365">
        <ele>1970.2</ele>
        <time>2021-08-28T11:16:18Z</time>
      </trkpt>
      <trkpt lat="45.18385" lon="6.10364">
        <ele>1970.4</ele>
        <time>2021-08-28T11:16:22Z</time>
      </trkpt>
      <trkpt lat="45.18391" lon="6.10365">
        <ele>1972.4</ele>
        <time>2021-08-28T11:16:26Z</time>
      </trkpt>
      <trkpt lat="45.18397" lon="6.10367">
        <ele>1972.8</ele>
        <time>2021-08-28T11:16:30Z</time>
      </trkpt>
      <trkpt lat="45.18403" lon="6.10372">
        <ele>1973.4</ele>
        <time>2021-08-28T11:16:34Z</time>
      </trkpt>
      <trkpt lat="45.18409" lon="6.10378">
        <ele>1973.8</ele>
        <time>2021-08-28T11:16:38Z</time>
      </trkpt>
      <trkpt lat="45.18416" lon="6.10382">
        <ele>1974.8</ele>
        <time>2021-08-28T11:16:42Z</time>
      </trkpt>
      <trkpt lat="45.18424" lon="6.10387">
        <ele>1975.8</ele>
        <time>2021-08-28T11:16:46Z</time>
      </trkpt>
      <trkpt lat="45.18431" lon="6.10392">
        <ele>1976.4</ele>
        <time>2021-08-28T11:16:50Z</time>
      </trkpt>
      <trkpt lat="45.18439" lon="6.10397">
        <ele>1977</ele>
        <time>2021-08-28T11:16:54Z</time>
      </trkpt>
      <trkpt lat="45.18446" lon="6.10401">
        <ele>1977.8</ele>
        <time>2021-08-28T11:16:58Z</time>
      </trkpt>
      <trkpt lat="45.18453" lon="6.10406">
        <ele>1978.8</ele>
        <time>2021-08-28T11:17:02Z</time>
      </trkpt>
      <trkpt lat="45.18461" lon="6.10409">
        <ele>1979.6</ele>
        <time>2021-08-28T11:17:06Z</time>
      </trkpt>
      <trkpt lat="45.18468" lon="6.1041">
        <ele>1980</ele>
        <time>2021-08-28T11:17:10Z</time>
      </trkpt>
      <trkpt lat="45.18475" lon="6.10412">
        <ele>1981</ele>
        <time>2021-08-28T11:17:14Z</time>
      </trkpt>
      <trkpt lat="45.18475" lon="6.10412">
        <ele>1981</ele>
        <time>2021-08-28T11:17:18Z</time>
      </trkpt>
      <trkpt lat="45.18488" lon="6.1041">
        <ele>1983.4</ele>
        <time>2021-08-28T11:17:22Z</time>
      </trkpt>
      <trkpt lat="45.18488" lon="6.1041">
        <ele>1983.4</ele>
        <time>2021-08-28T11:17:26Z</time>
      </trkpt>
      <trkpt lat="45.18488" lon="6.1041">
        <ele>1983.4</ele>
        <time>2021-08-28T11:17:30Z</time>
      </trkpt>
      <trkpt lat="45.18503" lon="6.10401">
        <ele>1985.6</ele>
        <time>2021-08-28T11:17:34Z</time>
      </trkpt>
      <trkpt lat="45.1851" lon="6.10394">
        <ele>1986.4</ele>
        <time>2021-08-28T11:17:38Z</time>
      </trkpt>
      <trkpt lat="45.18514" lon="6.10386">
        <ele>1986.6</ele>
        <time>2021-08-28T11:17:42Z</time>
      </trkpt>
      <trkpt lat="45.18519" lon="6.10376">
        <ele>1988</ele>
        <time>2021-08-28T11:17:46Z</time>
      </trkpt>
      <trkpt lat="45.18524" lon="6.10368">
        <ele>1988</ele>
        <time>2021-08-28T11:17:50Z</time>
      </trkpt>
      <trkpt lat="45.1853" lon="6.1036">
        <ele>1988.4</ele>
        <time>2021-08-28T11:17:54Z</time>
      </trkpt>
      <trkpt lat="45.18537" lon="6.10356">
        <ele>1989.6</ele>
        <time>2021-08-28T11:17:58Z</time>
      </trkpt>
      <trkpt lat="45.18542" lon="6.10362">
        <ele>1990.6</ele>
        <time>2021-08-28T11:18:02Z</time>
      </trkpt>
      <trkpt lat="45.18539" lon="6.10372">
        <ele>1991</ele>
        <time>2021-08-28T11:18:06Z</time>
      </trkpt>
      <trkpt lat="45.18533" lon="6.10379">
        <ele>1992.2</ele>
        <time>2021-08-28T11:18:10Z</time>
      </trkpt>
      <trkpt lat="45.18528" lon="6.10388">
        <ele>1992.8</ele>
        <time>2021-08-28T11:18:14Z</time>
      </trkpt>
      <trkpt lat="45.18524" lon="6.10398">
        <ele>1993.6</ele>
        <time>2021-08-28T11:18:18Z</time>
      </trkpt>
      <trkpt lat="45.1852" lon="6.10409">
        <ele>1994.6</ele>
        <time>2021-08-28T11:18:22Z</time>
      </trkpt>
      <trkpt lat="45.18515" lon="6.10418">
        <ele>1995.4</ele>
        <time>2021-08-28T11:18:26Z</time>
      </trkpt>
      <trkpt lat="45.18511" lon="6.10427">
        <ele>1996.4</ele>
        <time>2021-08-28T11:18:30Z</time>
      </trkpt>
      <trkpt lat="45.18505" lon="6.10433">
        <ele>1997</ele>
        <time>2021-08-28T11:18:34Z</time>
      </trkpt>
      <trkpt lat="45.18498" lon="6.10439">
        <ele>1998.2</ele>
        <time>2021-08-28T11:18:38Z</time>
      </trkpt>
      <trkpt lat="45.18491" lon="6.10443">
        <ele>1999.4</ele>
        <time>2021-08-28T11:18:42Z</time>
      </trkpt>
      <trkpt lat="45.18483" lon="6.10447">
        <ele>2000.2</ele>
        <time>2021-08-28T11:18:46Z</time>
      </trkpt>
      <trkpt lat="45.18475" lon="6.1045">
        <ele>2000.6</ele>
        <time>2021-08-28T11:18:50Z</time>
      </trkpt>
      <trkpt lat="45.18466" lon="6.1045">
        <ele>2002</ele>
        <time>2021-08-28T11:18:54Z</time>
      </trkpt>
      <trkpt lat="45.18458" lon="6.10448">
        <ele>2002</ele>
        <time>2021-08-28T11:18:58Z</time>
      </trkpt>
      <trkpt lat="45.1845" lon="6.10447">
        <ele>2003.4</ele>
        <time>2021-08-28T11:19:02Z</time>
      </trkpt>
      <trkpt lat="45.18441" lon="6.1045">
        <ele>2003.6</ele>
        <time>2021-08-28T11:19:06Z</time>
      </trkpt>
      <trkpt lat="45.18435" lon="6.10458">
        <ele>2004.8</ele>
        <time>2021-08-28T11:19:10Z</time>
      </trkpt>
      <trkpt lat="45.18432" lon="6.10468">
        <ele>2004.6</ele>
        <time>2021-08-28T11:19:14Z</time>
      </trkpt>
      <trkpt lat="45.18427" lon="6.10477">
        <ele>2005.8</ele>
        <time>2021-08-28T11:19:18Z</time>
      </trkpt>
      <trkpt lat="45.18418" lon="6.10481">
        <ele>2007</ele>
        <time>2021-08-28T11:19:22Z</time>
      </trkpt>
      <trkpt lat="45.18409" lon="6.10484">
        <ele>2007.6</ele>
        <time>2021-08-28T11:19:26Z</time>
      </trkpt>
      <trkpt lat="45.184" lon="6.10488">
        <ele>2008</ele>
        <time>2021-08-28T11:19:30Z</time>
      </trkpt>
      <trkpt lat="45.18392" lon="6.10496">
        <ele>2009.4</ele>
        <time>2021-08-28T11:19:34Z</time>
      </trkpt>
      <trkpt lat="45.18383" lon="6.10501">
        <ele>2009.8</ele>
        <time>2021-08-28T11:19:38Z</time>
      </trkpt>
      <trkpt lat="45.18375" lon="6.10503">
        <ele>2010.4</ele>
        <time>2021-08-28T11:19:42Z</time>
      </trkpt>
      <trkpt lat="45.18364" lon="6.10499">
        <ele>2011</ele>
        <time>2021-08-28T11:19:46Z</time>
      </trkpt>
      <trkpt lat="45.18354" lon="6.10497">
        <ele>2013</ele>
        <time>2021-08-28T11:19:50Z</time>
      </trkpt>
      <trkpt lat="45.18352" lon="6.10508">
        <ele>2012.6</ele>
        <time>2021-08-28T11:19:54Z</time>
      </trkpt>
      <trkpt lat="45.18358" lon="6.10516">
        <ele>2014</ele>
        <time>2021-08-28T11:19:58Z</time>
      </trkpt>
      <trkpt lat="45.18367" lon="6.10519">
        <ele>2014.8</ele>
        <time>2021-08-28T11:20:02Z</time>
      </trkpt>
      <trkpt lat="45.18376" lon="6.10522">
        <ele>2015.6</ele>
        <time>2021-08-28T11:20:06Z</time>
      </trkpt>
      <trkpt lat="45.18385" lon="6.10525">
        <ele>2016.2</ele>
        <time>2021-08-28T11:20:10Z</time>
      </trkpt>
      <trkpt lat="45.18394" lon="6.10526">
        <ele>2017.4</ele>
        <time>2021-08-28T11:20:14Z</time>
      </trkpt>
      <trkpt lat="45.18402" lon="6.10526">
        <ele>2018.4</ele>
        <time>2021-08-28T11:20:18Z</time>
      </trkpt>
      <trkpt lat="45.18411" lon="6.10526">
        <ele>2018.8</ele>
        <time>2021-08-28T11:20:22Z</time>
      </trkpt>
      <trkpt lat="45.1842" lon="6.10529">
        <ele>2019.6</ele>
        <time>2021-08-28T11:20:26Z</time>
      </trkpt>
      <trkpt lat="45.18428" lon="6.10533">
        <ele>2020.6</ele>
        <time>2021-08-28T11:20:30Z</time>
      </trkpt>
      <trkpt lat="45.18437" lon="6.10537">
        <ele>2021.8</ele>
        <time>2021-08-28T11:20:34Z</time>
      </trkpt>
      <trkpt lat="45.18446" lon="6.1054">
        <ele>2022.4</ele>
        <time>2021-08-28T11:20:38Z</time>
      </trkpt>
      <trkpt lat="45.18455" lon="6.10543">
        <ele>2022.8</ele>
        <time>2021-08-28T11:20:42Z</time>
      </trkpt>
      <trkpt lat="45.18464" lon="6.10544">
        <ele>2024</ele>
        <time>2021-08-28T11:20:46Z</time>
      </trkpt>
      <trkpt lat="45.18473" lon="6.1054">
        <ele>2024.4</ele>
        <time>2021-08-28T11:20:50Z</time>
      </trkpt>
      <trkpt lat="45.18479" lon="6.10532">
        <ele>2025.4</ele>
        <time>2021-08-28T11:20:54Z</time>
      </trkpt>
      <trkpt lat="45.18486" lon="6.10526">
        <ele>2026.2</ele>
        <time>2021-08-28T11:20:58Z</time>
      </trkpt>
      <trkpt lat="45.18494" lon="6.10524">
        <ele>2027.2</ele>
        <time>2021-08-28T11:21:02Z</time>
      </trkpt>
      <trkpt lat="45.18503" lon="6.10525">
        <ele>2027.6</ele>
        <time>2021-08-28T11:21:06Z</time>
      </trkpt>
      <trkpt lat="45.18511" lon="6.10527">
        <ele>2028.6</ele>
        <time>2021-08-28T11:21:10Z</time>
      </trkpt>
      <trkpt lat="45.1852" lon="6.1053">
        <ele>2030</ele>
        <time>2021-08-28T11:21:14Z</time>
      </trkpt>
      <trkpt lat="45.18528" lon="6.10535">
        <ele>2030.2</ele>
        <time>2021-08-28T11:21:18Z</time>
      </trkpt>
      <trkpt lat="45.18537" lon="6.10538">
        <ele>2031.2</ele>
        <time>2021-08-28T11:21:22Z</time>
      </trkpt>
      <trkpt lat="45.18546" lon="6.10537">
        <ele>2032.2</ele>
        <time>2021-08-28T11:21:26Z</time>
      </trkpt>
      <trkpt lat="45.18554" lon="6.10536">
        <ele>2033.4</ele>
        <time>2021-08-28T11:21:30Z</time>
      </trkpt>
      <trkpt lat="45.18561" lon="6.10532">
        <ele>2033.8</ele>
        <time>2021-08-28T11:21:34Z</time>
      </trkpt>
      <trkpt lat="45.18568" lon="6.10526">
        <ele>2035</ele>
        <time>2021-08-28T11:21:38Z</time>
      </trkpt>
      <trkpt lat="45.18575" lon="6.10519">
        <ele>2035.4</ele>
        <time>2021-08-28T11:21:42Z</time>
      </trkpt>
      <trkpt lat="45.18575" lon="6.10519">
        <ele>2035.4</ele>
        <time>2021-08-28T11:21:46Z</time>
      </trkpt>
      <trkpt lat="45.18591" lon="6.10513">
        <ele>2037.2</ele>
        <time>2021-08-28T11:21:50Z</time>
      </trkpt>
      <trkpt lat="45.186" lon="6.10511">
        <ele>2038.2</ele>
        <time>2021-08-28T11:21:54Z</time>
      </trkpt>
      <trkpt lat="45.18608" lon="6.10511">
        <ele>2039</ele>
        <time>2021-08-28T11:21:58Z</time>
      </trkpt>
      <trkpt lat="45.18617" lon="6.10512">
        <ele>2038.8</ele>
        <time>2021-08-28T11:22:02Z</time>
      </trkpt>
      <trkpt lat="45.18626" lon="6.10514">
        <ele>2040</ele>
        <time>2021-08-28T11:22:06Z</time>
      </trkpt>
      <trkpt lat="45.18635" lon="6.10516">
        <ele>2041</ele>
        <time>2021-08-28T11:22:10Z</time>
      </trkpt>
      <trkpt lat="45.18643" lon="6.10519">
        <ele>2042</ele>
        <time>2021-08-28T11:22:14Z</time>
      </trkpt>
      <trkpt lat="45.18653" lon="6.10524">
        <ele>2043.4</ele>
        <time>2021-08-28T11:22:18Z</time>
      </trkpt>
      <trkpt lat="45.18661" lon="6.10529">
        <ele>2044.8</ele>
        <time>2021-08-28T11:22:22Z</time>
      </trkpt>
      <trkpt lat="45.1867" lon="6.10535">
        <ele>2045.6</ele>
        <time>2021-08-28T11:22:26Z</time>
      </trkpt>
      <trkpt lat="45.18678" lon="6.1054">
        <ele>2046.6</ele>
        <time>2021-08-28T11:22:30Z</time>
      </trkpt>
      <trkpt lat="45.18686" lon="6.10546">
        <ele>2046.8</ele>
        <time>2021-08-28T11:22:34Z</time>
      </trkpt>
      <trkpt lat="45.18694" lon="6.10551">
        <ele>2048.2</ele>
        <time>2021-08-28T11:22:38Z</time>
      </trkpt>
      <trkpt lat="45.18702" lon="6.10556">
        <ele>2049</ele>
        <time>2021-08-28T11:22:42Z</time>
      </trkpt>
      <trkpt lat="45.18708" lon="6.10564">
        <ele>2049.2</ele>
        <time>2021-08-28T11:22:46Z</time>
      </trkpt>
      <trkpt lat="45.18715" lon="6.10572">
        <ele>2050.6</ele>
        <time>2021-08-28T11:22:50Z</time>
      </trkpt>
      <trkpt lat="45.18723" lon="6.1058">
        <ele>2051.2</ele>
        <time>2021-08-28T11:22:54Z</time>
      </trkpt>
      <trkpt lat="45.18731" lon="6.10587">
        <ele>2050.2</ele>
        <time>2021-08-28T11:22:58Z</time>
      </trkpt>
      <trkpt lat="45.18739" lon="6.10594">
        <ele>2052.2</ele>
        <time>2021-08-28T11:23:02Z</time>
      </trkpt>
      <trkpt lat="45.18747" lon="6.10599">
        <ele>2052.8</ele>
        <time>2021-08-28T11:23:06Z</time>
      </trkpt>
      <trkpt lat="45.18756" lon="6.10604">
        <ele>2053.4</ele>
        <time>2021-08-28T11:23:10Z</time>
      </trkpt>
      <trkpt lat="45.18765" lon="6.1061">
        <ele>2054.4</ele>
        <time>2021-08-28T11:23:14Z</time>
      </trkpt>
      <trkpt lat="45.18773" lon="6.10617">
        <ele>2054.8</ele>
        <time>2021-08-28T11:23:18Z</time>
      </trkpt>
      <trkpt lat="45.18782" lon="6.10623">
        <ele>2055.8</ele>
        <time>2021-08-28T11:23:22Z</time>
      </trkpt>
      <trkpt lat="45.18789" lon="6.10628">
        <ele>2057</ele>
        <time>2021-08-28T11:23:26Z</time>
      </trkpt>
      <trkpt lat="45.18797" lon="6.10634">
        <ele>2057.4</ele>
        <time>2021-08-28T11:23:30Z</time>
      </trkpt>
      <trkpt lat="45.18805" lon="6.10641">
        <ele>2059</ele>
        <time>2021-08-28T11:23:34Z</time>
      </trkpt>
      <trkpt lat="45.18813" lon="6.10649">
        <ele>2060</ele>
        <time>2021-08-28T11:23:38Z</time>
      </trkpt>
      <trkpt lat="45.18821" lon="6.10656">
        <ele>2060.6</ele>
        <time>2021-08-28T11:23:42Z</time>
      </trkpt>
      <trkpt lat="45.1883" lon="6.10663">
        <ele>2061.6</ele>
        <time>2021-08-28T11:23:46Z</time>
      </trkpt>
      <trkpt lat="45.18839" lon="6.1067">
        <ele>2062</ele>
        <time>2021-08-28T11:23:50Z</time>
      </trkpt>
      <trkpt lat="45.18847" lon="6.10678">
        <ele>2063.6</ele>
        <time>2021-08-28T11:23:54Z</time>
      </trkpt>
      <trkpt lat="45.18855" lon="6.10687">
        <ele>2064</ele>
        <time>2021-08-28T11:23:58Z</time>
      </trkpt>
      <trkpt lat="45.18863" lon="6.10696">
        <ele>2065.6</ele>
        <time>2021-08-28T11:24:02Z</time>
      </trkpt>
      <trkpt lat="45.18871" lon="6.10702">
        <ele>2066.4</ele>
        <time>2021-08-28T11:24:06Z</time>
      </trkpt>
      <trkpt lat="45.18878" lon="6.1071">
        <ele>2068</ele>
        <time>2021-08-28T11:24:10Z</time>
      </trkpt>
      <trkpt lat="45.18887" lon="6.10719">
        <ele>2068.8</ele>
        <time>2021-08-28T11:24:14Z</time>
      </trkpt>
      <trkpt lat="45.18895" lon="6.10728">
        <ele>2070.2</ele>
        <time>2021-08-28T11:24:18Z</time>
      </trkpt>
      <trkpt lat="45.18904" lon="6.10738">
        <ele>2070.8</ele>
        <time>2021-08-28T11:24:22Z</time>
      </trkpt>
      <trkpt lat="45.18913" lon="6.1075">
        <ele>2071.4</ele>
        <time>2021-08-28T11:24:26Z</time>
      </trkpt>
      <trkpt lat="45.18921" lon="6.10762">
        <ele>2072.6</ele>
        <time>2021-08-28T11:24:30Z</time>
      </trkpt>
      <trkpt lat="45.18928" lon="6.10776">
        <ele>2073</ele>
        <time>2021-08-28T11:24:34Z</time>
      </trkpt>
      <trkpt lat="45.18935" lon="6.1079">
        <ele>2073.6</ele>
        <time>2021-08-28T11:24:38Z</time>
      </trkpt>
      <trkpt lat="45.18943" lon="6.10802">
        <ele>2074.4</ele>
        <time>2021-08-28T11:24:42Z</time>
      </trkpt>
      <trkpt lat="45.18952" lon="6.10812">
        <ele>2075.6</ele>
        <time>2021-08-28T11:24:46Z</time>
      </trkpt>
      <trkpt lat="45.18962" lon="6.10824">
        <ele>2075.8</ele>
        <time>2021-08-28T11:24:50Z</time>
      </trkpt>
      <trkpt lat="45.18973" lon="6.10835">
        <ele>2076.4</ele>
        <time>2021-08-28T11:24:54Z</time>
      </trkpt>
      <trkpt lat="45.18985" lon="6.10845">
        <ele>2077.2</ele>
        <time>2021-08-28T11:24:58Z</time>
      </trkpt>
      <trkpt lat="45.18997" lon="6.10853">
        <ele>2077.6</ele>
        <time>2021-08-28T11:25:02Z</time>
      </trkpt>
      <trkpt lat="45.19009" lon="6.10859">
        <ele>2078.4</ele>
        <time>2021-08-28T11:25:06Z</time>
      </trkpt>
      <trkpt lat="45.1902" lon="6.10866">
        <ele>2078.8</ele>
        <time>2021-08-28T11:25:10Z</time>
      </trkpt>
      <trkpt lat="45.19028" lon="6.10873">
        <ele>2079</ele>
        <time>2021-08-28T11:25:14Z</time>
      </trkpt>
      <trkpt lat="45.19028" lon="6.10873">
        <ele>2079</ele>
        <time>2021-08-28T11:25:18Z</time>
      </trkpt>
      <trkpt lat="45.19028" lon="6.10873">
        <ele>2079</ele>
        <time>2021-08-28T11:25:22Z</time>
      </trkpt>
      <trkpt lat="45.19028" lon="6.10873">
        <ele>2079</ele>
        <time>2021-08-28T11:25:26Z</time>
      </trkpt>
      <trkpt lat="45.19028" lon="6.10873">
        <ele>2079</ele>
        <time>2021-08-28T11:25:30Z</time>
      </trkpt>
      <trkpt lat="45.19028" lon="6.10873">
        <ele>2079</ele>
        <time>2021-08-28T11:25:34Z</time>
      </trkpt>
      <trkpt lat="45.19028" lon="6.10873">
        <ele>2079</ele>
        <time>2021-08-28T11:25:38Z</time>
      </trkpt>
      <trkpt lat="45.19042" lon="6.10889">
        <ele>2081.2</ele>
        <time>2021-08-28T11:25:42Z</time>
      </trkpt>
      <trkpt lat="45.19048" lon="6.10897">
        <ele>2081.2</ele>
        <time>2021-08-28T11:25:46Z</time>
      </trkpt>
      <trkpt lat="45.19052" lon="6.10905">
        <ele>2081.8</ele>
        <time>2021-08-28T11:25:50Z</time>
      </trkpt>
      <trkpt lat="45.19058" lon="6.10913">
        <ele>2082.4</ele>
        <time>2021-08-28T11:25:54Z</time>
      </trkpt>
      <trkpt lat="45.19058" lon="6.10913">
        <ele>2082.4</ele>
        <time>2021-08-28T11:25:58Z</time>
      </trkpt>
      <trkpt lat="45.19058" lon="6.10913">
        <ele>2082.4</ele>
        <time>2021-08-28T11:26:02Z</time>
      </trkpt>
      <trkpt lat="45.19059" lon="6.10915">
        <ele>2082.4</ele>
        <time>2021-08-28T11:26:06Z</time>
      </trkpt>
      <trkpt lat="45.19061" lon="6.10917">
        <ele>2082.8</ele>
        <time>2021-08-28T11:26:10Z</time>
      </trkpt>
      <trkpt lat="45.19061" lon="6.10917">
        <ele>2082.8</ele>
        <time>2021-08-28T11:26:14Z</time>
      </trkpt>
      <trkpt lat="45.19061" lon="6.10917">
        <ele>2082.8</ele>
        <time>2021-08-28T11:26:18Z</time>
      </trkpt>
      <trkpt lat="45.19061" lon="6.10917">
        <ele>2082.8</ele>
        <time>2021-08-28T11:26:22Z</time>
      </trkpt>
      <trkpt lat="45.19061" lon="6.10917">
        <ele>2084</ele>
        <time>2021-08-28T11:26:26Z</time>
      </trkpt>
      <trkpt lat="45.19059" lon="6.10914">
        <ele>2084.2</ele>
        <time>2021-08-28T11:26:30Z</time>
      </trkpt>
      <trkpt lat="45.19056" lon="6.10911">
        <ele>2083</ele>
        <time>2021-08-28T11:26:34Z</time>
      </trkpt>
      <trkpt lat="45.19056" lon="6.10911">
        <ele>2083</ele>
        <time>2021-08-28T11:26:38Z</time>
      </trkpt>
      <trkpt lat="45.19056" lon="6.10911">
        <ele>2083</ele>
        <time>2021-08-28T11:26:42Z</time>
      </trkpt>
      <trkpt lat="45.19056" lon="6.10911">
        <ele>2083</ele>
        <time>2021-08-28T11:26:46Z</time>
      </trkpt>
      <trkpt lat="45.19056" lon="6.10911">
        <ele>2083</ele>
        <time>2021-08-28T11:26:50Z</time>
      </trkpt>
      <trkpt lat="45.19056" lon="6.10911">
        <ele>2083</ele>
        <time>2021-08-28T11:26:54Z</time>
      </trkpt>
      <trkpt lat="45.19056" lon="6.10911">
        <ele>2083</ele>
        <time>2021-08-28T11:26:58Z</time>
      </trkpt>
      <trkpt lat="45.19056" lon="6.10911">
        <ele>2083</ele>
        <time>2021-08-28T11:27:02Z</time>
      </trkpt>
      <trkpt lat="45.19056" lon="6.10911">
        <ele>2083</ele>
        <time>2021-08-28T11:27:06Z</time>
      </trkpt>
      <trkpt lat="45.19056" lon="6.10911">
        <ele>2083</ele>
        <time>2021-08-28T11:27:10Z</time>
      </trkpt>
      <trkpt lat="45.19056" lon="6.10911">
        <ele>2083</ele>
        <time>2021-08-28T11:27:14Z</time>
      </trkpt>
      <trkpt lat="45.19056" lon="6.10911">
        <ele>2083</ele>
        <time>2021-08-28T11:27:18Z</time>
      </trkpt>
      <trkpt lat="45.19056" lon="6.10911">
        <ele>2083</ele>
        <time>2021-08-28T11:27:22Z</time>
      </trkpt>
      <trkpt lat="45.19056" lon="6.10911">
        <ele>2083</ele>
        <time>2021-08-28T11:27:26Z</time>
      </trkpt>
      <trkpt lat="45.19022" lon="6.10867">
        <ele>2079.6</ele>
        <time>2021-08-28T11:27:30Z</time>
      </trkpt>
      <trkpt lat="45.19006" lon="6.10856">
        <ele>2079.2</ele>
        <time>2021-08-28T11:27:34Z</time>
      </trkpt>
      <trkpt lat="45.18984" lon="6.10841">
        <ele>2078</ele>
        <time>2021-08-28T11:27:38Z</time>
      </trkpt>
      <trkpt lat="45.1896" lon="6.10819">
        <ele>2076.6</ele>
        <time>2021-08-28T11:27:42Z</time>
      </trkpt>
    </trkseg>
  </trk>
</gpx>